Time,TemperatureF,DewpointF,PressureIn,WindDirection,WindDirectionDegrees,WindSpeedMPH,WindSpeedGustMPH,Humidity,HourlyPrecipIn,Conditions,Clouds,dailyrainin,SoftwareType,DateUTC
2013-10-26 00:00:00,36.0,17.6,29.94,WNW,292,6.0,6.0,44,0.00,,,0.00,VWS V15.00,2013-10-26 04:00:00,
2013-10-26 00:01:00,37.0,23.2,29.94,West,270,6.0,7.0,58,0.00,,,0.00,VWS V14.01,2013-10-26 04:01:00,
2013-10-26 00:02:00,37.0,23.6,29.94,West,270,6.0,7.0,57,0.00,,,0.00,VWS V14.01,2013-10-26 04:02:00,
2013-10-26 00:03:00,37.0,24.0,29.94,West,270,6.0,7.0,58,0.00,,,0.00,VWS V14.01,2013-10-26 04:03:00,
2013-10-26 00:04:00,38.0,22.4,29.94,West,270,8.0,8.0,51,0.00,,,0.00,VWS V15.00,2013-10-26 04:04:00,
2013-10-26 00:05:00,38.0,22.9,29.94,West,270,7.0,8.0,53,0.00,,,0.00,VWS V15.00,2013-10-26 04:05:00,
2013-10-26 00:06:00,37.0,25.0,29.94,WNW,292,6.0,7.0,59,0.00,,,0.00,VWS V14.01,2013-10-26 04:06:00,
2013-10-26 00:07:00,37.0,25.0,29.94,WNW,292,6.0,7.0,59,0.00,,,0.00,VWS V14.01,2013-10-26 04:07:00,
2013-10-26 00:08:00,38.0,24.8,29.94,WNW,292,7.0,7.0,59,0.00,,,0.00,VWS V14.01,2013-10-26 04:08:00,
2013-10-26 00:09:00,37.0,24.4,29.94,WNW,292,4.0,7.0,61,0.00,,,0.00,VWS V14.01,2013-10-26 04:09:00,
2013-10-26 00:10:00,38.0,23.7,29.94,WNW,292,7.0,8.0,55,0.00,,,0.00,VWS V15.00,2013-10-26 04:10:00,
2013-10-26 00:11:00,38.0,23.7,29.94,WNW,292,7.0,8.0,56,0.00,,,0.00,VWS V15.00,2013-10-26 04:11:00,
2013-10-26 00:12:00,37.0,24.4,29.94,WNW,292,5.0,7.0,60,0.00,,,0.00,VWS V14.01,2013-10-26 04:12:00,
2013-10-26 00:13:00,38.0,23.7,29.94,WNW,292,6.0,8.0,55,0.00,,,0.00,VWS V15.00,2013-10-26 04:13:00,
2013-10-26 00:14:00,37.0,24.4,29.94,WNW,292,6.0,7.0,59,0.00,,,0.00,VWS V14.01,2013-10-26 04:14:00,
2013-10-26 00:15:00,37.0,24.0,29.94,WNW,292,2.0,7.0,60,0.00,,,0.00,VWS V14.01,2013-10-26 04:15:00,
2013-10-26 00:16:00,37.0,24.0,29.94,WNW,292,4.0,7.0,59,0.00,,,0.00,VWS V14.01,2013-10-26 04:16:00,
2013-10-26 00:17:00,38.0,23.7,29.94,WNW,292,7.0,8.0,57,0.00,,,0.00,VWS V15.00,2013-10-26 04:17:00,
2013-10-26 00:18:00,38.0,23.7,29.94,WNW,292,6.0,7.0,56,0.00,,,0.00,VWS V15.00,2013-10-26 04:18:00,
2013-10-26 00:19:00,37.0,22.7,29.95,WNW,292,6.0,6.0,58,0.00,,,0.00,VWS V14.01,2013-10-26 04:19:00,
2013-10-26 00:20:00,37.0,22.7,29.95,WNW,292,6.0,6.0,58,0.00,,,0.00,VWS V14.01,2013-10-26 04:20:00,
2013-10-26 00:21:00,36.0,22.7,29.95,WNW,292,2.0,6.0,58,0.00,,,0.00,VWS V14.01,2013-10-26 04:21:00,
2013-10-26 00:22:00,38.0,23.7,29.94,WNW,292,6.0,7.0,56,0.00,,,0.00,VWS V15.00,2013-10-26 04:22:00,
2013-10-26 00:23:00,36.0,22.8,29.95,WNW,292,6.0,6.0,57,0.00,,,0.00,VWS V14.01,2013-10-26 04:23:00,
2013-10-26 00:24:00,37.0,23.2,29.95,WNW,292,6.0,6.0,56,0.00,,,0.00,VWS V14.01,2013-10-26 04:24:00,
2013-10-26 00:25:00,38.0,24.5,29.94,WNW,292,6.0,7.0,57,0.00,,,0.00,VWS V15.00,2013-10-26 04:25:00,
2013-10-26 00:26:00,37.0,22.8,29.95,WNW,292,6.0,6.0,56,0.00,,,0.00,VWS V14.01,2013-10-26 04:26:00,
2013-10-26 00:27:00,37.0,22.4,29.95,WNW,292,5.0,6.0,56,0.00,,,0.00,VWS V14.01,2013-10-26 04:27:00,
2013-10-26 00:28:00,37.0,22.8,29.95,WNW,292,6.0,6.0,55,0.00,,,0.00,VWS V14.01,2013-10-26 04:28:00,
2013-10-26 00:29:00,37.0,22.4,29.95,WNW,292,4.0,6.0,56,0.00,,,0.00,VWS V14.01,2013-10-26 04:29:00,
2013-10-26 00:30:00,38.0,24.5,29.94,WNW,292,7.0,7.0,59,0.00,,,0.00,VWS V15.00,2013-10-26 04:30:00,
2013-10-26 00:31:00,38.0,25.0,29.94,WNW,292,6.0,7.0,58,0.00,,,0.00,VWS V15.00,2013-10-26 04:31:00,
2013-10-26 00:32:00,36.0,22.4,29.95,WNW,292,5.0,6.0,55,0.00,,,0.00,VWS V14.01,2013-10-26 04:32:00,
2013-10-26 00:33:00,38.0,24.0,29.94,WNW,292,5.0,7.0,58,0.00,,,0.00,VWS V15.00,2013-10-26 04:33:00,
2013-10-26 00:34:00,37.0,21.8,29.95,WNW,292,6.0,6.0,55,0.00,,,0.00,VWS V14.01,2013-10-26 04:34:00,
2013-10-26 00:35:00,38.0,24.1,29.94,WNW,292,6.0,7.0,57,0.00,,,0.00,VWS V15.00,2013-10-26 04:35:00,
2013-10-26 00:36:00,38.0,24.1,29.94,WNW,292,7.0,7.0,57,0.00,,,0.00,VWS V15.00,2013-10-26 04:36:00,
2013-10-26 00:37:00,37.0,22.4,29.95,WNW,292,3.0,6.0,55,0.00,,,0.00,VWS V14.01,2013-10-26 04:37:00,
2013-10-26 00:38:00,37.0,21.9,29.95,West,270,4.0,6.0,55,0.00,,,0.00,VWS V14.01,2013-10-26 04:38:00,
2013-10-26 00:39:00,37.0,21.0,29.95,West,270,4.0,6.0,54,0.00,,,0.00,VWS V14.01,2013-10-26 04:39:00,
2013-10-26 00:40:00,37.0,22.8,29.94,WNW,292,7.0,7.0,55,0.00,,,0.00,VWS V15.00,2013-10-26 04:40:00,
2013-10-26 00:41:00,37.0,22.8,29.94,WNW,292,7.0,7.0,56,0.00,,,0.00,VWS V15.00,2013-10-26 04:41:00,
2013-10-26 00:42:00,36.0,21.8,29.95,West,270,5.0,6.0,55,0.00,,,0.00,VWS V14.01,2013-10-26 04:42:00,
2013-10-26 00:43:00,36.0,21.8,29.95,West,270,6.0,6.0,56,0.00,,,0.00,VWS V14.01,2013-10-26 04:43:00,
2013-10-26 00:44:00,36.0,22.3,29.95,West,270,6.0,6.0,56,0.00,,,0.00,VWS V14.01,2013-10-26 04:44:00,
2013-10-26 00:45:00,36.0,22.3,29.95,West,270,5.0,6.0,57,0.00,,,0.00,VWS V14.01,2013-10-26 04:45:00,
2013-10-26 00:46:00,36.0,22.3,29.95,West,270,5.0,6.0,57,0.00,,,0.00,VWS V14.01,2013-10-26 04:46:00,
2013-10-26 00:47:00,36.0,22.7,29.95,West,270,5.0,6.0,57,0.00,,,0.00,VWS V14.01,2013-10-26 04:47:00,
2013-10-26 00:48:00,36.0,22.3,29.95,West,270,4.0,6.0,58,0.00,,,0.00,VWS V14.01,2013-10-26 04:48:00,
2013-10-26 00:49:00,36.0,22.3,29.95,West,270,4.0,6.0,58,0.00,,,0.00,VWS V14.01,2013-10-26 04:49:00,
2013-10-26 00:50:00,36.0,22.3,29.95,West,270,4.0,6.0,57,0.00,,,0.00,VWS V14.01,2013-10-26 04:50:00,
2013-10-26 00:51:00,37.0,22.8,29.95,WNW,292,6.0,7.0,56,0.00,,,0.00,VWS V15.00,2013-10-26 04:51:00,
2013-10-26 00:52:00,36.0,22.7,29.95,West,270,4.0,6.0,57,0.00,,,0.00,VWS V14.01,2013-10-26 04:52:00,
2013-10-26 00:53:00,36.0,22.3,29.95,West,270,3.0,6.0,58,0.00,,,0.00,VWS V14.01,2013-10-26 04:53:00,
2013-10-26 00:54:00,37.0,22.8,29.95,WNW,292,7.0,7.0,55,0.00,,,0.00,VWS V15.00,2013-10-26 04:54:00,
2013-10-26 00:55:00,36.0,21.8,29.95,West,270,4.0,6.0,56,0.00,,,0.00,VWS V14.01,2013-10-26 04:55:00,
2013-10-26 00:56:00,38.0,23.2,29.94,West,270,5.0,7.0,56,0.00,,,0.00,VWS V15.00,2013-10-26 04:56:00,
2013-10-26 00:57:00,37.0,21.8,29.94,West,270,3.0,6.0,57,0.00,,,0.00,VWS V14.01,2013-10-26 04:57:00,
2013-10-26 00:58:00,37.0,21.8,29.94,West,270,3.0,6.0,57,0.00,,,0.00,VWS V14.01,2013-10-26 04:58:00,
2013-10-26 00:59:00,36.0,22.3,29.94,WSW,247,5.0,6.0,56,0.00,,,0.00,VWS V14.01,2013-10-26 04:59:00,
2013-10-26 01:00:00,37.0,23.6,29.94,West,270,6.0,7.0,57,0.00,,,0.00,VWS V15.00,2013-10-26 05:00:00,
2013-10-26 01:01:00,36.0,21.8,29.94,WSW,247,5.0,6.0,56,0.00,,,0.00,VWS V14.01,2013-10-26 05:01:00,
2013-10-26 01:02:00,37.0,24.0,29.94,West,270,6.0,7.0,59,0.00,,,0.00,VWS V15.00,2013-10-26 05:02:00,
2013-10-26 01:03:00,36.0,21.8,29.94,WSW,247,3.0,6.0,56,0.00,,,0.00,VWS V14.01,2013-10-26 05:03:00,
2013-10-26 01:04:00,36.0,21.8,29.94,WSW,247,5.0,6.0,56,0.00,,,0.00,VWS V14.01,2013-10-26 05:04:00,
2013-10-26 01:05:00,37.0,25.0,29.94,WNW,292,6.0,7.0,59,0.00,,,0.00,VWS V15.00,2013-10-26 05:05:00,
2013-10-26 01:06:00,36.0,21.8,29.94,West,270,6.0,6.0,56,0.00,,,0.00,VWS V14.01,2013-10-26 05:06:00,
2013-10-26 01:07:00,36.0,21.8,29.95,West,270,6.0,6.0,56,0.00,,,0.00,VWS V14.01,2013-10-26 05:07:00,
2013-10-26 01:08:00,37.0,24.4,29.94,WNW,292,6.0,7.0,60,0.00,,,0.00,VWS V15.00,2013-10-26 05:08:00,
2013-10-26 01:09:00,36.0,21.8,29.95,West,270,3.0,6.0,56,0.00,,,0.00,VWS V14.01,2013-10-26 05:09:00,
2013-10-26 01:10:00,36.0,21.8,29.95,West,270,3.0,6.0,56,0.00,,,0.00,VWS V14.01,2013-10-26 05:10:00,
2013-10-26 01:11:00,37.0,24.0,29.94,WNW,292,2.0,7.0,60,0.00,,,0.00,VWS V15.00,2013-10-26 05:11:00,
2013-10-26 01:12:00,36.0,21.4,29.95,West,270,2.0,6.0,55,0.00,,,0.00,VWS V14.01,2013-10-26 05:12:00,
2013-10-26 01:13:00,37.0,24.0,29.94,WNW,292,2.0,7.0,60,0.00,,,0.00,VWS V15.00,2013-10-26 05:13:00,
2013-10-26 01:14:00,36.0,21.0,29.95,West,270,1.0,6.0,54,0.00,,,0.00,VWS V14.01,2013-10-26 05:14:00,
2013-10-26 01:15:00,36.0,21.0,29.95,West,270,1.0,6.0,54,0.00,,,0.00,VWS V14.01,2013-10-26 05:15:00,
2013-10-26 01:16:00,36.0,20.0,29.95,West,270,1.0,6.0,54,0.00,,,0.00,VWS V14.01,2013-10-26 05:16:00,
2013-10-26 01:17:00,36.0,19.6,29.94,West,270,2.0,3.0,53,0.00,,,0.00,VWS V14.01,2013-10-26 05:17:00,
2013-10-26 01:18:00,36.0,19.6,29.94,West,270,2.0,3.0,53,0.00,,,0.00,VWS V14.01,2013-10-26 05:18:00,
2013-10-26 01:19:00,36.0,22.7,29.95,WNW,292,2.0,6.0,58,0.00,,,0.00,VWS V15.00,2013-10-26 05:19:00,
2013-10-26 01:20:00,36.0,22.3,29.95,WNW,292,5.0,6.0,58,0.00,,,0.00,VWS V15.00,2013-10-26 05:20:00,
2013-10-26 01:21:00,35.0,19.2,29.94,West,270,1.0,3.0,53,0.00,,,0.00,VWS V14.01,2013-10-26 05:21:00,
2013-10-26 01:22:00,35.0,19.2,29.94,West,270,3.0,3.0,52,0.00,,,0.00,VWS V14.01,2013-10-26 05:22:00,
2013-10-26 01:23:00,35.0,19.2,29.94,West,270,3.0,3.0,52,0.00,,,0.00,VWS V14.01,2013-10-26 05:23:00,
2013-10-26 01:24:00,37.0,22.8,29.95,WNW,292,6.0,6.0,56,0.00,,,0.00,VWS V15.00,2013-10-26 05:24:00,
2013-10-26 01:25:00,37.0,22.4,29.95,WNW,292,5.0,6.0,56,0.00,,,0.00,VWS V15.00,2013-10-26 05:25:00,
2013-10-26 01:26:00,35.0,18.2,29.94,West,270,1.0,3.0,51,0.00,,,0.00,VWS V14.01,2013-10-26 05:26:00,
2013-10-26 01:27:00,35.0,18.2,29.95,West,270,0.0,3.0,50,0.00,,,0.00,VWS V14.01,2013-10-26 05:27:00,
2013-10-26 01:28:00,35.0,17.3,29.95,West,270,0.0,3.0,50,0.00,,,0.00,VWS V14.01,2013-10-26 05:28:00,
2013-10-26 01:29:00,34.0,17.3,29.95,West,270,0.0,3.0,50,0.00,,,0.00,VWS V14.01,2013-10-26 05:29:00,
2013-10-26 01:30:00,36.0,22.4,29.95,WNW,292,5.0,6.0,55,0.00,,,0.00,VWS V15.00,2013-10-26 05:30:00,
2013-10-26 01:31:00,37.0,22.4,29.95,WNW,292,6.0,6.0,55,0.00,,,0.00,VWS V15.00,2013-10-26 05:31:00,
2013-10-26 01:32:00,37.0,21.8,29.95,WNW,292,6.0,6.0,55,0.00,,,0.00,VWS V15.00,2013-10-26 05:32:00,
2013-10-26 01:33:00,33.0,16.4,29.95,West,270,0.0,1.0,50,0.00,,,0.00,VWS V14.01,2013-10-26 05:33:00,
2013-10-26 01:34:00,33.0,16.4,29.95,West,270,0.0,1.0,50,0.00,,,0.00,VWS V14.01,2013-10-26 05:34:00,
2013-10-26 01:35:00,33.0,16.4,29.95,West,270,0.0,1.0,50,0.00,,,0.00,VWS V14.01,2013-10-26 05:35:00,
2013-10-26 01:36:00,37.0,21.9,29.95,West,270,4.0,6.0,55,0.00,,,0.00,VWS V15.00,2013-10-26 05:36:00,
2013-10-26 01:37:00,33.0,16.4,29.96,West,270,0.0,0.0,50,0.00,,,0.00,VWS V14.01,2013-10-26 05:37:00,
2013-10-26 01:38:00,36.0,21.0,29.95,West,270,4.0,6.0,54,0.00,,,0.00,VWS V15.00,2013-10-26 05:38:00,
2013-10-26 01:39:00,33.0,16.4,29.96,West,270,0.0,0.0,50,0.00,,,0.00,VWS V14.01,2013-10-26 05:39:00,
2013-10-26 01:40:00,33.0,15.9,29.96,West,270,0.0,0.0,50,0.00,,,0.00,VWS V14.01,2013-10-26 05:40:00,
2013-10-26 01:41:00,36.0,21.8,29.95,West,270,6.0,6.0,56,0.00,,,0.00,VWS V15.00,2013-10-26 05:41:00,
2013-10-26 01:42:00,33.0,14.6,29.96,West,270,0.0,0.0,49,0.00,,,0.00,VWS V14.01,2013-10-26 05:42:00,
2013-10-26 01:43:00,32.0,14.1,29.96,West,270,0.0,0.0,48,0.00,,,0.00,VWS V14.01,2013-10-26 05:43:00,
2013-10-26 01:44:00,36.0,22.3,29.95,West,270,5.0,6.0,57,0.00,,,0.00,VWS V15.00,2013-10-26 05:44:00,
2013-10-26 01:45:00,32.0,13.1,29.96,North,360,4.0,4.0,46,0.00,,,0.00,VWS V14.01,2013-10-26 05:45:00,
2013-10-26 01:46:00,36.0,22.7,29.95,West,270,5.0,6.0,57,0.00,,,0.00,VWS V15.00,2013-10-26 05:46:00,
2013-10-26 01:47:00,32.0,12.6,29.96,North,360,3.0,4.0,44,0.00,,,0.00,VWS V14.01,2013-10-26 05:47:00,
2013-10-26 01:48:00,36.0,22.3,29.95,West,270,4.0,6.0,57,0.00,,,0.00,VWS V15.00,2013-10-26 05:48:00,
2013-10-26 01:49:00,32.0,12.6,29.96,NNW,337,4.0,4.0,44,0.00,,,0.00,VWS V14.01,2013-10-26 05:49:00,
2013-10-26 01:50:00,32.0,12.6,29.96,NNW,337,3.0,4.0,44,0.00,,,0.00,VWS V14.01,2013-10-26 05:50:00,
2013-10-26 01:51:00,36.0,22.3,29.95,West,270,3.0,6.0,58,0.00,,,0.00,VWS V15.00,2013-10-26 05:51:00,
2013-10-26 01:52:00,32.0,12.6,29.96,NNW,337,3.0,4.0,44,0.00,,,0.00,VWS V14.01,2013-10-26 05:52:00,
2013-10-26 01:53:00,32.0,13.5,29.96,NNW,337,4.0,4.0,44,0.00,,,0.00,VWS V14.01,2013-10-26 05:53:00,
2013-10-26 01:54:00,33.0,13.5,29.96,North,360,3.0,4.0,44,0.00,,,0.00,VWS V14.01,2013-10-26 05:54:00,
2013-10-26 01:55:00,36.0,23.2,29.94,West,270,5.0,6.0,57,0.00,,,0.00,VWS V15.00,2013-10-26 05:55:00,
2013-10-26 01:56:00,33.0,12.4,29.96,NW,315,2.0,4.0,43,0.00,,,0.00,VWS V14.01,2013-10-26 05:56:00,
2013-10-26 01:57:00,36.0,22.3,29.94,WSW,247,5.0,6.0,56,0.00,,,0.00,VWS V15.00,2013-10-26 05:57:00,
2013-10-26 01:58:00,34.0,12.8,29.94,NW,315,3.0,4.0,41,0.00,,,0.00,VWS V14.01,2013-10-26 05:58:00,
2013-10-26 01:59:00,34.0,12.8,29.94,NW,315,2.0,4.0,41,0.00,,,0.00,VWS V14.01,2013-10-26 05:59:00,
2013-10-26 02:00:00,34.0,12.8,29.94,NW,315,3.0,4.0,41,0.00,,,0.00,VWS V14.01,2013-10-26 06:00:00,
2013-10-26 02:01:00,34.0,12.8,29.94,NW,315,4.0,4.0,41,0.00,,,0.00,VWS V14.01,2013-10-26 06:01:00,
2013-10-26 02:02:00,36.0,21.8,29.94,WSW,247,5.0,6.0,56,0.00,,,0.00,VWS V15.00,2013-10-26 06:02:00,
2013-10-26 02:03:00,34.0,12.8,29.94,WNW,292,3.0,4.0,41,0.00,,,0.00,VWS V14.01,2013-10-26 06:03:00,
2013-10-26 02:04:00,34.0,12.2,29.94,WNW,292,4.0,4.0,41,0.00,,,0.00,VWS V14.01,2013-10-26 06:04:00,
2013-10-26 02:05:00,36.0,21.8,29.95,West,270,6.0,6.0,56,0.00,,,0.00,VWS V15.00,2013-10-26 06:05:00,
2013-10-26 02:06:00,36.0,21.8,29.95,West,270,5.0,6.0,56,0.00,,,0.00,VWS V15.00,2013-10-26 06:06:00,
2013-10-26 02:07:00,36.0,21.8,29.95,West,270,3.0,6.0,56,0.00,,,0.00,VWS V15.00,2013-10-26 06:07:00,
2013-10-26 02:08:00,34.0,11.7,29.95,WNW,292,6.0,6.0,39,0.00,,,0.00,VWS V14.01,2013-10-26 06:08:00,
2013-10-26 02:09:00,34.0,11.7,29.95,WNW,292,6.0,6.0,39,0.00,,,0.00,VWS V14.01,2013-10-26 06:09:00,
2013-10-26 02:10:00,34.0,11.7,29.95,WNW,292,5.0,6.0,39,0.00,,,0.00,VWS V14.01,2013-10-26 06:10:00,
2013-10-26 02:11:00,36.0,21.0,29.95,West,270,0.0,6.0,55,0.00,,,0.00,VWS V15.00,2013-10-26 06:11:00,
2013-10-26 02:12:00,36.0,21.0,29.95,West,270,1.0,6.0,54,0.00,,,0.00,VWS V15.00,2013-10-26 06:12:00,
2013-10-26 02:13:00,36.0,21.0,29.95,West,270,1.0,6.0,54,0.00,,,0.00,VWS V15.00,2013-10-26 06:13:00,
2013-10-26 02:14:00,34.0,11.7,29.95,WNW,292,6.0,6.0,39,0.00,,,0.00,VWS V14.01,2013-10-26 06:14:00,
2013-10-26 02:15:00,34.0,11.7,29.95,WNW,292,5.0,6.0,39,0.00,,,0.00,VWS V14.01,2013-10-26 06:15:00,
2013-10-26 02:16:00,34.0,11.7,29.95,WNW,292,5.0,6.0,39,0.00,,,0.00,VWS V14.01,2013-10-26 06:16:00,
2013-10-26 02:17:00,35.0,19.6,29.94,West,270,0.0,3.0,53,0.00,,,0.00,VWS V15.00,2013-10-26 06:17:00,
2013-10-26 02:18:00,35.0,11.1,29.94,WNW,292,3.0,6.0,38,0.00,,,0.00,VWS V14.01,2013-10-26 06:18:00,
2013-10-26 02:19:00,34.0,11.1,29.94,WNW,292,4.0,6.0,38,0.00,,,0.00,VWS V14.01,2013-10-26 06:19:00,
2013-10-26 02:20:00,34.0,11.1,29.94,WNW,292,4.0,6.0,38,0.00,,,0.00,VWS V14.01,2013-10-26 06:20:00,
2013-10-26 02:21:00,35.0,19.2,29.94,West,270,3.0,3.0,52,0.00,,,0.00,VWS V15.00,2013-10-26 06:21:00,
2013-10-26 02:22:00,35.0,18.7,29.94,West,270,1.0,3.0,52,0.00,,,0.00,VWS V15.00,2013-10-26 06:22:00,
2013-10-26 02:23:00,34.0,11.1,29.94,WNW,292,2.0,6.0,38,0.00,,,0.00,VWS V14.01,2013-10-26 06:23:00,
2013-10-26 02:24:00,34.0,11.1,29.94,WNW,292,4.0,5.0,38,0.00,,,0.00,VWS V14.01,2013-10-26 06:24:00,
2013-10-26 02:25:00,34.0,11.1,29.94,WNW,292,2.0,5.0,38,0.00,,,0.00,VWS V14.01,2013-10-26 06:25:00,
2013-10-26 02:26:00,34.0,11.1,29.94,WNW,292,2.0,4.0,38,0.00,,,0.00,VWS V14.01,2013-10-26 06:26:00,
2013-10-26 02:27:00,34.0,17.3,29.95,West,270,0.0,3.0,50,0.00,,,0.00,VWS V15.00,2013-10-26 06:27:00,
2013-10-26 02:28:00,34.0,10.5,29.95,WNW,292,2.0,4.0,38,0.00,,,0.00,VWS V14.01,2013-10-26 06:28:00,
2013-10-26 02:29:00,34.0,17.3,29.95,West,270,0.0,3.0,50,0.00,,,0.00,VWS V15.00,2013-10-26 06:29:00,
2013-10-26 02:30:00,34.0,10.5,29.95,WNW,292,4.0,4.0,37,0.00,,,0.00,VWS V14.01,2013-10-26 06:30:00,
2013-10-26 02:31:00,34.0,9.9,29.95,WNW,292,2.0,4.0,37,0.00,,,0.00,VWS V14.01,2013-10-26 06:31:00,
2013-10-26 02:32:00,33.0,16.4,29.95,West,270,0.0,1.0,50,0.00,,,0.00,VWS V15.00,2013-10-26 06:32:00,
2013-10-26 02:33:00,34.0,9.9,29.95,WNW,292,2.0,4.0,36,0.00,,,0.00,VWS V14.01,2013-10-26 06:33:00,
2013-10-26 02:34:00,33.0,16.4,29.95,West,270,0.0,0.0,50,0.00,,,0.00,VWS V15.00,2013-10-26 06:34:00,
2013-10-26 02:35:00,33.0,16.4,29.96,West,270,0.0,0.0,50,0.00,,,0.00,VWS V15.00,2013-10-26 06:35:00,
2013-10-26 02:36:00,34.0,9.0,29.95,WNW,292,2.0,4.0,36,0.00,,,0.00,VWS V14.01,2013-10-26 06:36:00,
2013-10-26 02:37:00,33.0,9.9,29.95,WNW,292,5.0,5.0,36,0.00,,,0.00,VWS V14.01,2013-10-26 06:37:00,
2013-10-26 02:38:00,33.0,15.9,29.96,West,270,0.0,0.0,50,0.00,,,0.00,VWS V15.00,2013-10-26 06:38:00,
2013-10-26 02:39:00,33.0,8.4,29.95,WNW,292,4.0,5.0,36,0.00,,,0.00,VWS V14.01,2013-10-26 06:39:00,
2013-10-26 02:40:00,33.0,8.4,29.95,WNW,292,5.0,5.0,35,0.00,,,0.00,VWS V14.01,2013-10-26 06:40:00,
2013-10-26 02:41:00,34.0,7.3,29.95,WNW,292,6.0,6.0,33,0.00,,,0.00,VWS V14.01,2013-10-26 06:41:00,
2013-10-26 02:42:00,34.0,7.3,29.95,WNW,292,6.0,6.0,33,0.00,,,0.00,VWS V14.01,2013-10-26 06:42:00,
2013-10-26 02:43:00,34.0,6.6,29.95,WNW,292,6.0,6.0,32,0.00,,,0.00,VWS V14.01,2013-10-26 06:43:00,
2013-10-26 02:44:00,34.0,5.8,29.95,WNW,292,4.0,6.0,30,0.00,,,0.00,VWS V14.01,2013-10-26 06:44:00,
2013-10-26 02:45:00,34.0,5.8,29.95,WNW,292,4.0,6.0,30,0.00,,,0.00,VWS V14.01,2013-10-26 06:45:00,
2013-10-26 02:46:00,32.0,12.6,29.96,North,360,3.0,4.0,44,0.00,,,0.00,VWS V15.00,2013-10-26 06:46:00,
2013-10-26 02:47:00,32.0,12.6,29.96,NNW,337,4.0,4.0,44,0.00,,,0.00,VWS V15.00,2013-10-26 06:47:00,
2013-10-26 02:48:00,34.0,5.1,29.95,WNW,292,5.0,6.0,29,0.00,,,0.00,VWS V14.01,2013-10-26 06:48:00,
2013-10-26 02:49:00,34.0,5.1,29.95,WNW,292,6.0,6.0,29,0.00,,,0.00,VWS V14.01,2013-10-26 06:49:00,
2013-10-26 02:50:00,34.0,5.1,29.95,WNW,292,6.0,6.0,29,0.00,,,0.00,VWS V14.01,2013-10-26 06:50:00,
2013-10-26 02:51:00,34.0,5.1,29.95,WNW,292,6.0,6.0,29,0.00,,,0.00,VWS V14.01,2013-10-26 06:51:00,
2013-10-26 02:52:00,33.0,13.5,29.96,North,360,3.0,4.0,44,0.00,,,0.00,VWS V15.00,2013-10-26 06:52:00,
2013-10-26 02:53:00,34.0,4.3,29.95,WNW,292,5.0,6.0,28,0.00,,,0.00,VWS V14.01,2013-10-26 06:53:00,
2013-10-26 02:54:00,34.0,4.3,29.95,WNW,292,2.0,6.0,28,0.00,,,0.00,VWS V14.01,2013-10-26 06:54:00,
2013-10-26 02:55:00,34.0,4.3,29.95,WNW,292,2.0,6.0,28,0.00,,,0.00,VWS V14.01,2013-10-26 06:55:00,
2013-10-26 02:56:00,34.0,3.5,29.95,WNW,292,3.0,6.0,28,0.00,,,0.00,VWS V14.01,2013-10-26 06:56:00,
2013-10-26 02:57:00,34.0,12.8,29.94,NW,315,2.0,4.0,41,0.00,,,0.00,VWS V15.00,2013-10-26 06:57:00,
2013-10-26 02:58:00,34.0,3.5,29.95,WNW,292,1.0,6.0,27,0.00,,,0.00,VWS V14.01,2013-10-26 06:58:00,
2013-10-26 02:59:00,34.0,12.8,29.94,NW,315,4.0,4.0,41,0.00,,,0.00,VWS V15.00,2013-10-26 06:59:00,
2013-10-26 03:00:00,34.0,3.5,29.95,WNW,292,1.0,6.0,27,0.00,,,0.00,VWS V14.01,2013-10-26 07:00:00,
2013-10-26 03:01:00,34.0,3.5,29.95,WNW,292,1.0,6.0,27,0.00,,,0.00,VWS V14.01,2013-10-26 07:01:00,
2013-10-26 03:02:00,34.0,12.2,29.94,WNW,292,4.0,4.0,41,0.00,,,0.00,VWS V15.00,2013-10-26 07:02:00,
2013-10-26 03:03:00,34.0,12.2,29.94,WNW,292,4.0,4.0,40,0.00,,,0.00,VWS V15.00,2013-10-26 07:03:00,
2013-10-26 03:04:00,33.0,3.5,29.95,WNW,292,2.0,3.0,28,0.00,,,0.00,VWS V14.01,2013-10-26 07:04:00,
2013-10-26 03:05:00,33.0,2.7,29.95,WNW,292,2.0,3.0,28,0.00,,,0.00,VWS V14.01,2013-10-26 07:05:00,
2013-10-26 03:06:00,33.0,1.9,29.95,WNW,292,4.0,4.0,27,0.00,,,0.00,VWS V14.01,2013-10-26 07:06:00,
2013-10-26 03:07:00,33.0,1.9,29.94,NW,315,6.0,6.0,26,0.00,,,0.00,VWS V14.01,2013-10-26 07:07:00,
2013-10-26 03:08:00,34.0,1.0,29.94,WNW,292,5.0,6.0,25,0.00,,,0.00,VWS V14.01,2013-10-26 07:08:00,
2013-10-26 03:09:00,34.0,0.1,29.94,WNW,292,6.0,6.0,24,0.00,,,0.00,VWS V14.01,2013-10-26 07:09:00,
2013-10-26 03:10:00,34.0,-0.8,29.94,WNW,292,6.0,6.0,23,0.00,,,0.00,VWS V14.01,2013-10-26 07:10:00,
2013-10-26 03:11:00,34.0,-1.8,29.94,WNW,292,5.0,6.0,22,0.00,,,0.00,VWS V14.01,2013-10-26 07:11:00,
2013-10-26 03:12:00,34.0,-1.8,29.94,WNW,292,5.0,6.0,21,0.00,,,0.00,VWS V14.01,2013-10-26 07:12:00,
2013-10-26 03:13:00,34.0,-2.8,29.94,WNW,292,4.0,6.0,21,0.00,,,0.00,VWS V14.01,2013-10-26 07:13:00,
2013-10-26 03:14:00,34.0,11.7,29.95,WNW,292,5.0,6.0,39,0.00,,,0.00,VWS V15.00,2013-10-26 07:14:00,
2013-10-26 03:15:00,34.0,-5.0,29.94,WNW,292,4.0,6.0,19,0.00,,,0.00,VWS V14.01,2013-10-26 07:15:00,
2013-10-26 03:16:00,34.0,-5.0,29.94,WNW,292,5.0,6.0,18,0.00,,,0.00,VWS V14.01,2013-10-26 07:16:00,
2013-10-26 03:17:00,34.0,-6.2,29.94,WNW,292,1.0,6.0,18,0.00,,,0.00,VWS V14.01,2013-10-26 07:17:00,
2013-10-26 03:18:00,34.0,11.1,29.94,WNW,292,4.0,6.0,38,0.00,,,0.00,VWS V15.00,2013-10-26 07:18:00,
2013-10-26 03:19:00,33.0,-8.3,29.94,WNW,292,1.0,6.0,17,0.00,,,0.00,VWS V14.01,2013-10-26 07:19:00,
2013-10-26 03:20:00,34.0,11.1,29.94,WNW,292,4.0,6.0,38,0.00,,,0.00,VWS V15.00,2013-10-26 07:20:00,
2013-10-26 03:21:00,33.0,-8.3,29.94,NNW,337,4.0,5.0,16,0.00,,,0.00,VWS V14.01,2013-10-26 07:21:00,
2013-10-26 03:22:00,33.0,-9.6,29.94,NNW,337,5.0,5.0,16,0.00,,,0.00,VWS V14.01,2013-10-26 07:22:00,
2013-10-26 03:23:00,33.0,-11.0,29.94,NW,315,2.0,5.0,15,0.00,,,0.00,VWS V14.01,2013-10-26 07:23:00,
2013-10-26 03:24:00,33.0,-11.0,29.94,NW,315,5.0,5.0,14,0.00,,,0.00,VWS V14.01,2013-10-26 07:24:00,
2013-10-26 03:25:00,34.0,11.1,29.95,WNW,292,2.0,4.0,38,0.00,,,0.00,VWS V15.00,2013-10-26 07:25:00,
2013-10-26 03:26:00,33.0,-12.5,29.94,NW,315,4.0,5.0,13,0.00,,,0.00,VWS V14.01,2013-10-26 07:26:00,
2013-10-26 03:27:00,34.0,10.5,29.95,WNW,292,2.0,4.0,37,0.00,,,0.00,VWS V15.00,2013-10-26 07:27:00,
2013-10-26 03:28:00,34.0,-12.5,29.94,NW,315,1.0,5.0,13,0.00,,,0.00,VWS V14.01,2013-10-26 07:28:00,
2013-10-26 03:29:00,33.0,-12.5,29.94,NW,315,3.0,5.0,13,0.00,,,0.00,VWS V14.01,2013-10-26 07:29:00,
2013-10-26 03:30:00,33.0,-12.5,29.94,NNW,337,4.0,5.0,13,0.00,,,0.00,VWS V14.01,2013-10-26 07:30:00,
2013-10-26 03:31:00,33.0,-12.5,29.94,NNW,337,3.0,5.0,13,0.00,,,0.00,VWS V14.01,2013-10-26 07:31:00,
2013-10-26 03:32:00,34.0,9.9,29.95,WNW,292,3.0,4.0,36,0.00,,,0.00,VWS V15.00,2013-10-26 07:32:00,
2013-10-26 03:33:00,33.0,-12.5,29.94,NNW,337,5.0,5.0,13,0.00,,,0.00,VWS V14.01,2013-10-26 07:33:00,
2013-10-26 03:34:00,34.0,9.0,29.95,WNW,292,2.0,4.0,36,0.00,,,0.00,VWS V15.00,2013-10-26 07:34:00,
2013-10-26 03:35:00,33.0,-14.1,29.94,NNW,337,4.0,5.0,13,0.00,,,0.00,VWS V14.01,2013-10-26 07:35:00,
2013-10-26 03:36:00,34.0,9.0,29.95,WNW,292,3.0,5.0,36,0.00,,,0.00,VWS V15.00,2013-10-26 07:36:00,
2013-10-26 03:37:00,33.0,-13.3,29.94,NW,315,3.0,5.0,12,0.00,,,0.00,VWS V14.01,2013-10-26 07:37:00,
2013-10-26 03:38:00,34.0,-12.5,29.94,NNW,337,5.0,5.0,12,0.00,,,0.00,VWS V14.01,2013-10-26 07:38:00,
2013-10-26 03:39:00,33.0,7.9,29.95,WNW,292,6.0,6.0,35,0.00,,,0.00,VWS V15.00,2013-10-26 07:39:00,
2013-10-26 03:40:00,33.0,-11.0,29.94,NNW,337,3.0,5.0,14,0.00,,,0.00,VWS V14.01,2013-10-26 07:40:00,
2013-10-26 03:41:00,33.0,-9.6,29.94,NW,315,4.0,6.0,14,0.00,,,0.00,VWS V14.01,2013-10-26 07:41:00,
2013-10-26 03:42:00,33.0,-9.6,29.94,NW,315,4.0,6.0,14,0.00,,,0.00,VWS V14.01,2013-10-26 07:42:00,
2013-10-26 03:43:00,33.0,-11.0,29.94,NNW,337,4.0,6.0,15,0.00,,,0.00,VWS V14.01,2013-10-26 07:43:00,
2013-10-26 03:44:00,33.0,-9.6,29.94,NNW,337,3.0,6.0,14,0.00,,,0.00,VWS V14.01,2013-10-26 07:44:00,
2013-10-26 03:45:00,34.0,5.1,29.95,WNW,292,6.0,6.0,30,0.00,,,0.00,VWS V15.00,2013-10-26 07:45:00,
2013-10-26 03:46:00,34.0,5.1,29.95,WNW,292,5.0,6.0,29,0.00,,,0.00,VWS V15.00,2013-10-26 07:46:00,
2013-10-26 03:47:00,33.0,-11.7,29.93,NW,315,3.0,6.0,14,0.00,,,0.00,VWS V14.01,2013-10-26 07:47:00,
2013-10-26 03:48:00,34.0,-11.0,29.93,NNW,337,3.0,6.0,13,0.00,,,0.00,VWS V14.01,2013-10-26 07:48:00,
2013-10-26 03:49:00,33.0,-11.0,29.93,NNW,337,4.0,6.0,14,0.00,,,0.00,VWS V14.01,2013-10-26 07:49:00,
2013-10-26 03:50:00,33.0,-11.0,29.93,NNW,337,5.0,6.0,14,0.00,,,0.00,VWS V14.01,2013-10-26 07:50:00,
2013-10-26 03:51:00,34.0,4.3,29.95,WNW,292,5.0,6.0,28,0.00,,,0.00,VWS V15.00,2013-10-26 07:51:00,
2013-10-26 03:52:00,33.0,-9.6,29.93,NNW,337,3.0,5.0,14,0.00,,,0.00,VWS V14.01,2013-10-26 07:52:00,
2013-10-26 03:53:00,34.0,4.3,29.95,WNW,292,2.0,6.0,28,0.00,,,0.00,VWS V15.00,2013-10-26 07:53:00,
2013-10-26 03:54:00,33.0,-9.6,29.93,NNW,337,3.0,5.0,15,0.00,,,0.00,VWS V14.01,2013-10-26 07:54:00,
2013-10-26 03:55:00,33.0,-9.6,29.93,NNW,337,3.0,5.0,15,0.00,,,0.00,VWS V14.01,2013-10-26 07:55:00,
2013-10-26 03:56:00,33.0,-9.6,29.93,NNW,337,2.0,5.0,15,0.00,,,0.00,VWS V14.01,2013-10-26 07:56:00,
2013-10-26 03:57:00,34.0,3.5,29.95,WNW,292,2.0,6.0,27,0.00,,,0.00,VWS V15.00,2013-10-26 07:57:00,
2013-10-26 03:58:00,33.0,-8.3,29.94,NNW,337,2.0,5.0,16,0.00,,,0.00,VWS V14.01,2013-10-26 07:58:00,
2013-10-26 03:59:00,34.0,3.5,29.95,WNW,292,1.0,6.0,27,0.00,,,0.00,VWS V15.00,2013-10-26 07:59:00,
2013-10-26 04:00:00,33.0,-9.6,29.94,NNW,337,1.0,4.0,15,0.00,,,0.00,VWS V14.01,2013-10-26 08:00:00,
2013-10-26 04:01:00,33.0,3.5,29.95,WNW,292,1.0,4.0,28,0.00,,,0.00,VWS V15.00,2013-10-26 08:01:00,
2013-10-26 04:02:00,33.0,-9.6,29.94,NNW,337,2.0,4.0,15,0.00,,,0.00,VWS V14.01,2013-10-26 08:02:00,
2013-10-26 04:03:00,33.0,-11.0,29.94,NNW,337,0.0,3.0,15,0.00,,,0.00,VWS V14.01,2013-10-26 08:03:00,
2013-10-26 04:04:00,33.0,-11.8,29.94,NNW,337,0.0,3.0,14,0.00,,,0.00,VWS V14.01,2013-10-26 08:04:00,
2013-10-26 04:05:00,33.0,1.9,29.94,NW,315,6.0,6.0,26,0.00,,,0.00,VWS V15.00,2013-10-26 08:05:00,
2013-10-26 04:06:00,32.0,-13.3,29.94,NNW,337,2.0,3.0,14,0.00,,,0.00,VWS V14.01,2013-10-26 08:06:00,
2013-10-26 04:07:00,34.0,0.1,29.94,WNW,292,6.0,6.0,24,0.00,,,0.00,VWS V15.00,2013-10-26 08:07:00,
2013-10-26 04:08:00,32.0,-14.9,29.94,NNW,337,1.0,3.0,13,0.00,,,0.00,VWS V14.01,2013-10-26 08:08:00,
2013-10-26 04:09:00,32.0,-14.9,29.94,NNW,337,1.0,3.0,12,0.00,,,0.00,VWS V14.01,2013-10-26 08:09:00,
2013-10-26 04:10:00,32.0,-14.9,29.94,NNW,337,2.0,3.0,12,0.00,,,0.00,VWS V14.01,2013-10-26 08:10:00,
2013-10-26 04:11:00,32.0,-15.6,29.94,NNW,337,2.0,2.0,12,0.00,,,0.00,VWS V14.01,2013-10-26 08:11:00,
2013-10-26 04:12:00,34.0,-3.9,29.94,WNW,292,2.0,6.0,20,0.00,,,0.00,VWS V15.00,2013-10-26 08:12:00,
2013-10-26 04:13:00,31.0,-19.2,29.94,NNW,337,2.0,3.0,11,0.00,,,0.00,VWS V14.01,2013-10-26 08:13:00,
2013-10-26 04:14:00,31.0,-21.2,29.94,NNW,337,1.0,3.0,10,0.00,,,0.00,VWS V14.01,2013-10-26 08:14:00,
2013-10-26 04:15:00,31.0,-23.5,29.94,NNW,337,2.0,3.0,9,0.00,,,0.00,VWS V14.01,2013-10-26 08:15:00,
2013-10-26 04:16:00,31.0,-26.0,29.94,NNW,337,3.0,3.0,8,0.00,,,0.00,VWS V14.01,2013-10-26 08:16:00,
2013-10-26 04:17:00,33.0,-8.3,29.94,WNW,292,1.0,6.0,17,0.00,,,0.00,VWS V15.00,2013-10-26 08:17:00,
2013-10-26 04:18:00,33.0,-8.3,29.94,NW,315,4.0,5.0,16,0.00,,,0.00,VWS V15.00,2013-10-26 08:18:00,
2013-10-26 04:19:00,33.0,-8.3,29.94,NNW,337,4.0,5.0,16,0.00,,,0.00,VWS V15.00,2013-10-26 08:19:00,
2013-10-26 04:20:00,31.0,-47.9,29.95,NNW,337,2.0,3.0,3,0.00,,,0.00,VWS V14.01,2013-10-26 08:20:00,
2013-10-26 04:21:00,31.0,0.0,29.95,NNW,337,3.0,3.0,2,0.00,,,0.00,VWS V14.01,2013-10-26 08:21:00,
2013-10-26 04:22:00,31.0,0.0,29.95,NNW,337,3.0,3.0,0,0.00,,,0.00,VWS V14.01,2013-10-26 08:22:00,
2013-10-26 04:23:00,33.0,-12.5,29.94,NW,315,3.0,5.0,14,0.00,,,0.00,VWS V15.00,2013-10-26 08:23:00,
2013-10-26 04:24:00,33.0,-12.5,29.94,NW,315,4.0,5.0,13,0.00,,,0.00,VWS V15.00,2013-10-26 08:24:00,
2013-10-26 04:25:00,33.0,-11.7,29.94,NW,315,1.0,5.0,13,0.00,,,0.00,VWS V15.00,2013-10-26 08:25:00,
2013-10-26 04:26:00,31.0,0.0,29.95,NNW,337,2.0,4.0,0,0.00,,,0.00,VWS V14.01,2013-10-26 08:26:00,
2013-10-26 04:27:00,31.0,0.0,29.95,NNW,337,1.0,4.0,0,0.00,,,0.00,VWS V14.01,2013-10-26 08:27:00,
2013-10-26 04:28:00,31.0,0.0,29.95,NNW,337,1.0,4.0,0,0.00,,,0.00,VWS V14.01,2013-10-26 08:28:00,
2013-10-26 04:29:00,33.0,-12.5,29.94,NNW,337,3.0,5.0,13,0.00,,,0.00,VWS V15.00,2013-10-26 08:29:00,
2013-10-26 04:30:00,33.0,-12.5,29.94,NNW,337,4.0,5.0,13,0.00,,,0.00,VWS V15.00,2013-10-26 08:30:00,
2013-10-26 04:31:00,33.0,-12.5,29.94,NNW,337,5.0,5.0,13,0.00,,,0.00,VWS V15.00,2013-10-26 08:31:00,
2013-10-26 04:32:00,31.0,0.0,29.95,NNW,337,2.0,4.0,0,0.00,,,0.00,VWS V14.01,2013-10-26 08:32:00,
2013-10-26 04:33:00,31.0,0.0,29.95,NNW,337,3.0,4.0,0,0.00,,,0.00,VWS V14.01,2013-10-26 08:33:00,
2013-10-26 04:34:00,31.0,0.0,29.95,NNW,337,2.0,4.0,0,0.00,,,0.00,VWS V14.01,2013-10-26 08:34:00,
2013-10-26 04:35:00,33.0,-13.3,29.94,NW,315,3.0,5.0,12,0.00,,,0.00,VWS V15.00,2013-10-26 08:35:00,
2013-10-26 04:36:00,34.0,-12.5,29.94,NNW,337,5.0,5.0,12,0.00,,,0.00,VWS V15.00,2013-10-26 08:36:00,
2013-10-26 04:37:00,33.0,-11.0,29.94,NNW,337,3.0,5.0,13,0.00,,,0.00,VWS V15.00,2013-10-26 08:37:00,
2013-10-26 04:38:00,32.0,0.0,29.94,NNW,337,1.0,3.0,0,0.00,,,0.00,VWS V14.01,2013-10-26 08:38:00,
2013-10-26 04:39:00,31.0,0.0,29.94,NNW,337,1.0,3.0,0,0.00,,,0.00,VWS V14.01,2013-10-26 08:39:00,
2013-10-26 04:40:00,31.0,0.0,29.94,NW,315,2.0,3.0,0,0.00,,,0.00,VWS V14.01,2013-10-26 08:40:00,
2013-10-26 04:41:00,32.0,0.0,29.94,NW,315,2.0,3.0,0,0.00,,,0.00,VWS V14.01,2013-10-26 08:41:00,
2013-10-26 04:42:00,33.0,-9.6,29.94,NNW,337,3.0,6.0,14,0.00,,,0.00,VWS V15.00,2013-10-26 08:42:00,
2013-10-26 04:43:00,33.0,-11.0,29.94,NW,315,2.0,6.0,15,0.00,,,0.00,VWS V15.00,2013-10-26 08:43:00,
2013-10-26 04:44:00,32.0,0.0,29.94,NW,315,1.0,3.0,0,0.00,,,0.00,VWS V14.01,2013-10-26 08:44:00,
2013-10-26 04:45:00,32.0,0.0,29.94,NW,315,1.0,2.0,0,0.00,,,0.00,VWS V14.01,2013-10-26 08:45:00,
2013-10-26 04:46:00,32.0,0.0,29.94,NW,315,3.0,3.0,0,0.00,,,0.00,VWS V14.01,2013-10-26 08:46:00,
2013-10-26 04:47:00,32.0,0.0,29.95,NW,315,1.0,3.0,0,0.00,,,0.00,VWS V14.01,2013-10-26 08:47:00,
2013-10-26 04:48:00,32.0,0.0,29.95,NW,315,2.0,3.0,0,0.00,,,0.00,VWS V14.01,2013-10-26 08:48:00,
2013-10-26 04:49:00,33.0,-11.0,29.93,NNW,337,3.0,5.0,14,0.00,,,0.00,VWS V15.00,2013-10-26 08:49:00,
2013-10-26 04:50:00,31.0,0.0,29.95,NW,315,0.0,3.0,0,0.00,,,0.00,VWS V14.01,2013-10-26 08:50:00,
2013-10-26 04:51:00,31.0,0.0,29.95,NW,315,0.0,3.0,0,0.00,,,0.00,VWS V14.01,2013-10-26 08:51:00,
2013-10-26 04:52:00,31.0,0.0,29.95,NW,315,1.0,3.0,0,0.00,,,0.00,VWS V14.01,2013-10-26 08:52:00,
2013-10-26 04:53:00,33.0,-9.6,29.93,NNW,337,3.0,5.0,15,0.00,,,0.00,VWS V15.00,2013-10-26 08:53:00,
2013-10-26 04:54:00,33.0,-9.6,29.93,NNW,337,2.0,5.0,15,0.00,,,0.00,VWS V15.00,2013-10-26 08:54:00,
2013-10-26 04:55:00,33.0,-8.3,29.94,NNW,337,2.0,5.0,15,0.00,,,0.00,VWS V15.00,2013-10-26 08:55:00,
2013-10-26 04:56:00,32.0,0.0,29.95,NW,315,2.0,2.0,0,0.00,,,0.00,VWS V14.01,2013-10-26 08:56:00,
2013-10-26 04:57:00,32.0,0.0,29.95,NW,315,0.0,2.0,0,0.00,,,0.00,VWS V14.01,2013-10-26 08:57:00,
2013-10-26 04:58:00,32.0,0.0,29.95,NW,315,1.0,2.0,0,0.00,,,0.00,VWS V14.01,2013-10-26 08:58:00,
2013-10-26 04:59:00,33.0,-9.6,29.94,NNW,337,3.0,4.0,15,0.00,,,0.00,VWS V15.00,2013-10-26 08:59:00,
2013-10-26 05:00:00,32.0,0.0,29.95,NW,315,1.0,3.0,0,0.00,,,0.00,VWS V14.01,2013-10-26 09:00:00,
2013-10-26 05:01:00,32.0,0.0,29.95,NW,315,1.0,3.0,0,0.00,,,0.00,VWS V14.01,2013-10-26 09:01:00,
2013-10-26 05:02:00,32.0,0.0,29.95,NW,315,2.0,3.0,0,0.00,,,0.00,VWS V14.01,2013-10-26 09:02:00,
2013-10-26 05:03:00,32.0,-11.8,29.94,NNW,337,2.0,3.0,14,0.00,,,0.00,VWS V15.00,2013-10-26 09:03:00,
2013-10-26 05:04:00,32.0,0.0,29.95,NW,315,1.0,3.0,0,0.00,,,0.00,VWS V14.01,2013-10-26 09:04:00,
2013-10-26 05:05:00,32.0,0.0,29.95,NW,315,1.0,3.0,0,0.00,,,0.00,VWS V14.01,2013-10-26 09:05:00,
2013-10-26 05:06:00,32.0,-14.9,29.94,NNW,337,1.0,3.0,13,0.00,,,0.00,VWS V15.00,2013-10-26 09:06:00,
2013-10-26 05:07:00,32.0,0.0,29.95,NW,315,1.0,3.0,0,0.00,,,0.00,VWS V14.01,2013-10-26 09:07:00,
2013-10-26 05:08:00,32.0,-14.9,29.94,NNW,337,2.0,3.0,12,0.00,,,0.00,VWS V15.00,2013-10-26 09:08:00,
2013-10-26 05:09:00,32.0,0.0,29.95,NW,315,2.0,2.0,0,0.00,,,0.00,VWS V14.01,2013-10-26 09:09:00,
2013-10-26 05:10:00,31.0,-17.4,29.94,NNW,337,3.0,3.0,12,0.00,,,0.00,VWS V15.00,2013-10-26 09:10:00,
2013-10-26 05:11:00,31.0,0.0,29.95,NW,315,0.0,2.0,0,0.00,,,0.00,VWS V14.01,2013-10-26 09:11:00,
2013-10-26 05:12:00,31.0,0.0,29.95,NW,315,0.0,2.0,0,0.00,,,0.00,VWS V14.01,2013-10-26 09:12:00,
2013-10-26 05:13:00,31.0,-23.5,29.94,NNW,337,2.0,3.0,9,0.00,,,0.00,VWS V15.00,2013-10-26 09:13:00,
2013-10-26 05:14:00,31.0,0.0,29.95,NW,315,0.0,2.0,0,0.00,,,0.00,VWS V14.01,2013-10-26 09:14:00,
2013-10-26 05:15:00,31.0,0.0,29.95,NW,315,0.0,2.0,0,0.00,,,0.00,VWS V14.01,2013-10-26 09:15:00,
2013-10-26 05:16:00,31.0,-36.1,29.95,NNW,337,2.0,3.0,5,0.00,,,0.00,VWS V15.00,2013-10-26 09:16:00,
2013-10-26 05:17:00,31.0,0.0,29.96,NW,315,0.0,2.0,0,0.00,,,0.00,VWS V14.01,2013-10-26 09:17:00,
2013-10-26 05:18:00,31.0,0.0,29.96,NW,315,0.0,2.0,0,0.00,,,0.00,VWS V14.01,2013-10-26 09:18:00,
2013-10-26 05:19:00,31.0,0.0,29.96,NW,315,0.0,0.0,0,0.00,,,0.00,VWS V14.01,2013-10-26 09:19:00,
2013-10-26 05:20:00,31.0,0.0,29.95,NNW,337,3.0,3.0,0,0.00,,,0.00,VWS V15.00,2013-10-26 09:20:00,
2013-10-26 05:21:00,31.0,0.0,29.95,NNW,337,3.0,3.0,0,0.00,,,0.00,VWS V15.00,2013-10-26 09:21:00,
2013-10-26 05:22:00,30.0,0.0,29.96,NW,315,0.0,0.0,0,0.00,,,0.00,VWS V14.01,2013-10-26 09:22:00,
2013-10-26 05:23:00,30.0,0.0,29.96,NW,315,0.0,0.0,0,0.00,,,0.00,VWS V14.01,2013-10-26 09:23:00,
2013-10-26 05:24:00,30.0,0.0,29.96,NW,315,0.0,0.0,0,0.00,,,0.00,VWS V14.01,2013-10-26 09:24:00,
2013-10-26 05:25:00,31.0,0.0,29.95,NNW,337,1.0,4.0,0,0.00,,,0.00,VWS V15.00,2013-10-26 09:25:00,
2013-10-26 05:26:00,31.0,0.0,29.95,NNW,337,1.0,4.0,0,0.00,,,0.00,VWS V15.00,2013-10-26 09:26:00,
2013-10-26 05:27:00,31.0,0.0,29.95,NW,315,0.0,0.0,0,0.00,,,0.00,VWS V14.01,2013-10-26 09:27:00,
2013-10-26 05:28:00,31.0,0.0,29.95,NW,315,0.0,0.0,0,0.00,,,0.00,VWS V14.01,2013-10-26 09:28:00,
2013-10-26 05:29:00,31.0,0.0,29.95,NW,315,0.0,0.0,0,0.00,,,0.00,VWS V14.01,2013-10-26 09:29:00,
2013-10-26 05:30:00,31.0,0.0,29.95,NW,315,0.0,0.0,0,0.00,,,0.00,VWS V14.01,2013-10-26 09:30:00,
2013-10-26 05:31:00,31.0,0.0,29.95,NNW,337,3.0,4.0,0,0.00,,,0.00,VWS V15.00,2013-10-26 09:31:00,
2013-10-26 05:32:00,31.0,0.0,29.95,NW,315,0.0,0.0,0,0.00,,,0.00,VWS V14.01,2013-10-26 09:32:00,
2013-10-26 05:33:00,31.0,0.0,29.95,NW,315,0.0,0.0,0,0.00,,,0.00,VWS V14.01,2013-10-26 09:33:00,
2013-10-26 05:34:00,31.0,0.0,29.95,NW,315,0.0,0.0,0,0.00,,,0.00,VWS V14.01,2013-10-26 09:34:00,
2013-10-26 05:35:00,31.0,0.0,29.95,NW,315,0.0,0.0,0,0.00,,,0.00,VWS V14.01,2013-10-26 09:35:00,
2013-10-26 05:36:00,31.0,0.0,29.95,NW,315,0.0,0.0,0,0.00,,,0.00,VWS V14.01,2013-10-26 09:36:00,
2013-10-26 05:37:00,31.0,0.0,29.95,NW,315,0.0,0.0,0,0.00,,,0.00,VWS V14.01,2013-10-26 09:37:00,
2013-10-26 05:38:00,31.0,0.0,29.94,NW,315,2.0,3.0,0,0.00,,,0.00,VWS V15.00,2013-10-26 09:38:00,
2013-10-26 05:39:00,30.0,0.0,29.95,NW,315,0.0,0.0,0,0.00,,,0.00,VWS V14.01,2013-10-26 09:39:00,
2013-10-26 05:40:00,32.0,0.0,29.94,NW,315,1.0,3.0,0,0.00,,,0.00,VWS V15.00,2013-10-26 09:40:00,
2013-10-26 05:41:00,30.0,0.0,29.95,NW,315,0.0,0.0,0,0.00,,,0.00,VWS V14.01,2013-10-26 09:41:00,
2013-10-26 05:42:00,30.0,0.0,29.95,NW,315,0.0,0.0,0,0.00,,,0.00,VWS V14.01,2013-10-26 09:42:00,
2013-10-26 05:43:00,30.0,0.0,29.95,NW,315,0.0,0.0,0,0.00,,,0.00,VWS V14.01,2013-10-26 09:43:00,
2013-10-26 05:44:00,30.0,0.0,29.95,NW,315,0.0,0.0,0,0.00,,,0.00,VWS V14.01,2013-10-26 09:44:00,
2013-10-26 05:45:00,32.0,0.0,29.95,NW,315,1.0,3.0,0,0.00,,,0.00,VWS V15.00,2013-10-26 09:45:00,
2013-10-26 05:46:00,30.0,0.0,29.95,NW,315,1.0,1.0,0,0.00,,,0.00,VWS V14.01,2013-10-26 09:46:00,
2013-10-26 05:47:00,30.0,0.0,29.95,NW,315,0.0,1.0,0,0.00,,,0.00,VWS V14.01,2013-10-26 09:47:00,
2013-10-26 05:48:00,30.0,0.0,29.95,NW,315,0.0,1.0,0,0.00,,,0.00,VWS V14.01,2013-10-26 09:48:00,
2013-10-26 05:49:00,31.0,0.0,29.95,NW,315,0.0,3.0,0,0.00,,,0.00,VWS V15.00,2013-10-26 09:49:00,
2013-10-26 05:50:00,31.0,0.0,29.95,NW,315,1.0,3.0,0,0.00,,,0.00,VWS V15.00,2013-10-26 09:50:00,
2013-10-26 05:51:00,30.0,0.0,29.95,NW,315,0.0,1.0,0,0.00,,,0.00,VWS V14.01,2013-10-26 09:51:00,
2013-10-26 05:52:00,30.0,0.0,29.95,NW,315,0.0,1.0,0,0.00,,,0.00,VWS V14.01,2013-10-26 09:52:00,
2013-10-26 05:53:00,30.0,0.0,29.95,NW,315,0.0,1.0,0,0.00,,,0.00,VWS V14.01,2013-10-26 09:53:00,
2013-10-26 05:54:00,29.0,0.0,29.95,NW,315,1.0,1.0,0,0.00,,,0.00,VWS V14.01,2013-10-26 09:54:00,
2013-10-26 05:55:00,29.0,0.0,29.95,NW,315,1.0,1.0,0,0.00,,,0.00,VWS V14.01,2013-10-26 09:55:00,
2013-10-26 05:56:00,32.0,0.0,29.95,NW,315,1.0,2.0,0,0.00,,,0.00,VWS V15.00,2013-10-26 09:56:00,
2013-10-26 05:57:00,30.0,0.0,29.96,NW,315,0.0,1.0,0,0.00,,,0.00,VWS V14.01,2013-10-26 09:57:00,
2013-10-26 05:58:00,30.0,0.0,29.96,NW,315,0.0,1.0,0,0.00,,,0.00,VWS V14.01,2013-10-26 09:58:00,
2013-10-26 05:59:00,30.0,0.0,29.96,NW,315,0.0,1.0,0,0.00,,,0.00,VWS V14.01,2013-10-26 09:59:00,
2013-10-26 06:00:00,32.0,0.0,29.95,NW,315,2.0,3.0,0,0.00,,,0.00,VWS V15.00,2013-10-26 10:00:00,
2013-10-26 06:01:00,30.0,0.0,29.96,NW,315,0.0,1.0,0,0.00,,,0.00,VWS V14.01,2013-10-26 10:01:00,
2013-10-26 06:02:00,29.0,0.0,29.96,NW,315,0.0,1.0,0,0.00,,,0.00,VWS V14.01,2013-10-26 10:02:00,
2013-10-26 06:03:00,29.0,0.0,29.96,NW,315,1.0,1.0,0,0.00,,,0.00,VWS V14.01,2013-10-26 10:03:00,
2013-10-26 06:04:00,29.0,0.0,29.96,NW,315,3.0,3.0,0,0.00,,,0.00,VWS V14.01,2013-10-26 10:04:00,
2013-10-26 06:05:00,32.0,0.0,29.95,NW,315,1.0,3.0,0,0.00,,,0.00,VWS V15.00,2013-10-26 10:05:00,
2013-10-26 06:06:00,29.0,0.0,29.96,NW,315,0.0,3.0,0,0.00,,,0.00,VWS V14.01,2013-10-26 10:06:00,
2013-10-26 06:07:00,32.0,0.0,29.95,NW,315,2.0,2.0,0,0.00,,,0.00,VWS V15.00,2013-10-26 10:07:00,
2013-10-26 06:08:00,29.0,0.0,29.96,NW,315,1.0,3.0,0,0.00,,,0.00,VWS V14.01,2013-10-26 10:08:00,
2013-10-26 06:09:00,29.0,0.0,29.96,NW,315,3.0,3.0,0,0.00,,,0.00,VWS V14.01,2013-10-26 10:09:00,
2013-10-26 06:10:00,31.0,0.0,29.95,NW,315,0.0,2.0,0,0.00,,,0.00,VWS V15.00,2013-10-26 10:10:00,
2013-10-26 06:11:00,31.0,0.0,29.95,NW,315,0.0,2.0,0,0.00,,,0.00,VWS V15.00,2013-10-26 10:11:00,
2013-10-26 06:12:00,30.0,0.0,29.96,NW,315,0.0,3.0,0,0.00,,,0.00,VWS V14.01,2013-10-26 10:12:00,
2013-10-26 06:13:00,30.0,0.0,29.96,NW,315,0.0,3.0,0,0.00,,,0.00,VWS V14.01,2013-10-26 10:13:00,
2013-10-26 06:14:00,30.0,0.0,29.96,NW,315,0.0,3.0,0,0.00,,,0.00,VWS V14.01,2013-10-26 10:14:00,
2013-10-26 06:15:00,31.0,0.0,29.96,NW,315,0.0,2.0,0,0.00,,,0.00,VWS V15.00,2013-10-26 10:15:00,
2013-10-26 06:16:00,31.0,0.0,29.96,NW,315,0.0,2.0,0,0.00,,,0.00,VWS V15.00,2013-10-26 10:16:00,
2013-10-26 06:17:00,30.0,0.0,29.95,NW,315,0.0,3.0,0,0.00,,,0.00,VWS V14.01,2013-10-26 10:17:00,
2013-10-26 06:18:00,31.0,0.0,29.96,NW,315,0.0,0.0,0,0.00,,,0.00,VWS V15.00,2013-10-26 10:18:00,
2013-10-26 06:19:00,30.0,0.0,29.95,NW,315,0.0,2.0,0,0.00,,,0.00,VWS V14.01,2013-10-26 10:19:00,
2013-10-26 06:20:00,30.0,0.0,29.95,NW,315,0.0,0.0,0,0.00,,,0.00,VWS V14.01,2013-10-26 10:20:00,
2013-10-26 06:21:00,30.0,0.0,29.96,NW,315,0.0,0.0,0,0.00,,,0.00,VWS V15.00,2013-10-26 10:21:00,
2013-10-26 06:22:00,29.0,0.0,29.95,NW,315,0.0,0.0,0,0.00,,,0.00,VWS V14.01,2013-10-26 10:22:00,
2013-10-26 06:23:00,30.0,0.0,29.96,NW,315,0.0,0.0,0,0.00,,,0.00,VWS V15.00,2013-10-26 10:23:00,
2013-10-26 06:24:00,29.0,0.0,29.95,NW,315,0.0,0.0,0,0.00,,,0.00,VWS V14.01,2013-10-26 10:24:00,
2013-10-26 06:25:00,31.0,0.0,29.95,NW,315,0.0,0.0,0,0.00,,,0.00,VWS V15.00,2013-10-26 10:25:00,
2013-10-26 06:26:00,29.0,0.0,29.95,NW,315,0.0,0.0,0,0.00,,,0.00,VWS V14.01,2013-10-26 10:26:00,
2013-10-26 06:27:00,31.0,0.0,29.95,NW,315,0.0,0.0,0,0.00,,,0.00,VWS V15.00,2013-10-26 10:27:00,
2013-10-26 06:28:00,30.0,0.0,29.95,NW,315,0.0,0.0,0,0.00,,,0.00,VWS V14.01,2013-10-26 10:28:00,
2013-10-26 06:29:00,29.0,0.0,29.95,NW,315,0.0,0.0,0,0.00,,,0.00,VWS V14.01,2013-10-26 10:29:00,
2013-10-26 06:30:00,31.0,0.0,29.95,NW,315,0.0,0.0,0,0.00,,,0.00,VWS V15.00,2013-10-26 10:30:00,
2013-10-26 06:31:00,29.0,0.0,29.95,NW,315,0.0,0.0,0,0.00,,,0.00,VWS V14.01,2013-10-26 10:31:00,
2013-10-26 06:32:00,29.0,0.0,29.95,NW,315,0.0,0.0,0,0.00,,,0.00,VWS V14.01,2013-10-26 10:32:00,
2013-10-26 06:33:00,31.0,0.0,29.95,NW,315,0.0,0.0,0,0.00,,,0.00,VWS V15.00,2013-10-26 10:33:00,
2013-10-26 06:34:00,29.0,0.0,29.95,NW,315,0.0,0.0,0,0.00,,,0.00,VWS V14.01,2013-10-26 10:34:00,
2013-10-26 06:35:00,29.0,0.0,29.95,NW,315,0.0,0.0,0,0.00,,,0.00,VWS V14.01,2013-10-26 10:35:00,
2013-10-26 06:36:00,29.0,0.0,29.96,NW,315,0.0,0.0,0,0.00,,,0.00,VWS V14.01,2013-10-26 10:36:00,
2013-10-26 06:37:00,29.0,0.0,29.96,NW,315,0.0,0.0,0,0.00,,,0.00,VWS V14.01,2013-10-26 10:37:00,
2013-10-26 06:38:00,30.0,0.0,29.95,NW,315,0.0,0.0,0,0.00,,,0.00,VWS V15.00,2013-10-26 10:38:00,
2013-10-26 06:39:00,30.0,0.0,29.95,NW,315,0.0,0.0,0,0.00,,,0.00,VWS V15.00,2013-10-26 10:39:00,
2013-10-26 06:40:00,29.0,0.0,29.96,NW,315,0.0,0.0,0,0.00,,,0.00,VWS V14.01,2013-10-26 10:40:00,
2013-10-26 06:41:00,29.0,0.0,29.96,NW,315,2.0,2.0,0,0.00,,,0.00,VWS V14.01,2013-10-26 10:41:00,
2013-10-26 06:42:00,29.0,0.0,29.96,NW,315,2.0,2.0,0,0.00,,,0.00,VWS V14.01,2013-10-26 10:42:00,
2013-10-26 06:43:00,29.0,0.0,29.96,NW,315,1.0,2.0,0,0.00,,,0.00,VWS V14.01,2013-10-26 10:43:00,
2013-10-26 06:44:00,29.0,0.0,29.96,NW,315,0.0,2.0,0,0.00,,,0.00,VWS V14.01,2013-10-26 10:44:00,
2013-10-26 06:45:00,29.0,0.0,29.96,NW,315,0.0,2.0,0,0.00,,,0.00,VWS V14.01,2013-10-26 10:45:00,
2013-10-26 06:46:00,30.0,0.0,29.95,NW,315,0.0,1.0,0,0.00,,,0.00,VWS V15.00,2013-10-26 10:46:00,
2013-10-26 06:47:00,29.0,0.0,29.95,NE,45,2.0,3.0,0,0.00,,,0.00,VWS V14.01,2013-10-26 10:47:00,
2013-10-26 06:48:00,29.0,0.0,29.95,NE,45,3.0,3.0,0,0.00,,,0.00,VWS V14.01,2013-10-26 10:48:00,
2013-10-26 06:49:00,30.0,0.0,29.95,NW,315,0.0,1.0,0,0.00,,,0.00,VWS V15.00,2013-10-26 10:49:00,
2013-10-26 06:50:00,29.0,0.0,29.95,NE,45,1.0,3.0,0,0.00,,,0.00,VWS V14.01,2013-10-26 10:50:00,
2013-10-26 06:51:00,29.0,0.0,29.95,NE,45,2.0,3.0,0,0.00,,,0.00,VWS V14.01,2013-10-26 10:51:00,
2013-10-26 06:52:00,29.0,0.0,29.95,NE,45,2.0,3.0,0,0.00,,,0.00,VWS V14.01,2013-10-26 10:52:00,
2013-10-26 06:53:00,29.0,0.0,29.95,NE,45,2.0,3.0,0,0.00,,,0.00,VWS V14.01,2013-10-26 10:53:00,
2013-10-26 06:54:00,29.0,0.0,29.95,NW,315,0.0,1.0,0,0.00,,,0.00,VWS V15.00,2013-10-26 10:54:00,
2013-10-26 06:55:00,29.0,0.0,29.95,NE,45,2.0,3.0,0,0.00,,,0.00,VWS V14.01,2013-10-26 10:55:00,
2013-10-26 06:56:00,30.0,0.0,29.96,NW,315,0.0,1.0,0,0.00,,,0.00,VWS V15.00,2013-10-26 10:56:00,
2013-10-26 06:57:00,29.0,0.0,29.95,NE,45,2.0,3.0,0,0.00,,,0.00,VWS V14.01,2013-10-26 10:57:00,
2013-10-26 06:58:00,29.0,0.0,29.95,NE,45,1.0,3.0,0,0.00,,,0.00,VWS V14.01,2013-10-26 10:58:00,
2013-10-26 06:59:00,29.0,0.0,29.95,NE,45,1.0,3.0,0,0.00,,,0.00,VWS V14.01,2013-10-26 10:59:00,
2013-10-26 07:00:00,29.0,0.0,29.95,NE,45,2.0,3.0,0,0.00,,,0.00,VWS V14.01,2013-10-26 11:00:00,
2013-10-26 07:01:00,29.0,0.0,29.95,NE,45,0.0,3.0,0,0.00,,,0.00,VWS V14.01,2013-10-26 11:01:00,
2013-10-26 07:02:00,29.0,0.0,29.95,NE,45,0.0,3.0,0,0.00,,,0.00,VWS V14.01,2013-10-26 11:02:00,
2013-10-26 07:03:00,29.0,0.0,29.95,NE,45,2.0,2.0,0,0.00,,,0.00,VWS V14.01,2013-10-26 11:03:00,
2013-10-26 07:04:00,29.0,0.0,29.95,NE,45,3.0,3.0,0,0.00,,,0.00,VWS V14.01,2013-10-26 11:04:00,
2013-10-26 07:05:00,29.0,0.0,29.95,NE,45,3.0,3.0,0,0.00,,,0.00,VWS V14.01,2013-10-26 11:05:00,
2013-10-26 07:06:00,29.0,0.0,29.96,NW,315,1.0,3.0,0,0.00,,,0.00,VWS V15.00,2013-10-26 11:06:00,
2013-10-26 07:07:00,29.0,0.0,29.96,NNE,22,2.0,3.0,0,0.00,,,0.00,VWS V14.01,2013-10-26 11:07:00,
2013-10-26 07:08:00,29.0,0.0,29.96,NNE,22,0.0,3.0,0,0.00,,,0.00,VWS V14.01,2013-10-26 11:08:00,
2013-10-26 07:09:00,29.0,0.0,29.96,NW,315,0.0,3.0,0,0.00,,,0.00,VWS V15.00,2013-10-26 11:09:00,
2013-10-26 07:10:00,29.0,0.0,29.96,NNE,22,0.0,3.0,0,0.00,,,0.00,VWS V14.01,2013-10-26 11:10:00,
2013-10-26 07:11:00,30.0,0.0,29.96,NW,315,0.0,3.0,0,0.00,,,0.00,VWS V15.00,2013-10-26 11:11:00,
2013-10-26 07:12:00,30.0,0.0,29.96,NW,315,0.0,3.0,0,0.00,,,0.00,VWS V15.00,2013-10-26 11:12:00,
2013-10-26 07:13:00,30.0,0.0,29.96,NW,315,0.0,3.0,0,0.00,,,0.00,VWS V15.00,2013-10-26 11:13:00,
2013-10-26 07:14:00,30.0,0.0,29.96,NW,315,0.0,3.0,0,0.00,,,0.00,VWS V15.00,2013-10-26 11:14:00,
2013-10-26 07:15:00,29.0,0.0,29.96,NNE,22,1.0,2.0,0,0.00,,,0.00,VWS V14.01,2013-10-26 11:15:00,
2013-10-26 07:16:00,29.0,0.0,29.96,NNE,22,0.0,2.0,0,0.00,,,0.00,VWS V14.01,2013-10-26 11:16:00,
2013-10-26 07:17:00,29.0,0.0,29.96,NNE,22,1.0,2.0,0,0.00,,,0.00,VWS V14.01,2013-10-26 11:17:00,
2013-10-26 07:18:00,30.0,0.0,29.95,NW,315,0.0,0.0,0,0.00,,,0.00,VWS V15.00,2013-10-26 11:18:00,
2013-10-26 07:19:00,29.0,0.0,29.96,NNE,22,3.0,3.0,0,0.00,,,0.00,VWS V14.01,2013-10-26 11:19:00,
2013-10-26 07:20:00,29.0,0.0,29.96,North,360,4.0,4.0,0,0.00,,,0.00,VWS V14.01,2013-10-26 11:20:00,
2013-10-26 07:21:00,29.0,0.0,29.95,NW,315,0.0,0.0,0,0.00,,,0.00,VWS V15.00,2013-10-26 11:21:00,
2013-10-26 07:22:00,29.0,0.0,29.95,NW,315,0.0,0.0,0,0.00,,,0.00,VWS V15.00,2013-10-26 11:22:00,
2013-10-26 07:23:00,29.0,0.0,29.96,NNE,22,3.0,5.0,0,0.00,,,0.00,VWS V14.01,2013-10-26 11:23:00,
2013-10-26 07:24:00,29.0,0.0,29.95,NW,315,0.0,0.0,0,0.00,,,0.00,VWS V15.00,2013-10-26 11:24:00,
2013-10-26 07:25:00,30.0,0.0,29.96,NNE,22,2.0,5.0,0,0.00,,,0.00,VWS V14.01,2013-10-26 11:25:00,
2013-10-26 07:26:00,30.0,0.0,29.96,NNE,22,2.0,5.0,0,0.00,,,0.00,VWS V14.01,2013-10-26 11:26:00,
2013-10-26 07:27:00,30.0,0.0,29.96,North,360,3.0,5.0,0,0.00,,,0.00,VWS V14.01,2013-10-26 11:27:00,
2013-10-26 07:28:00,30.0,0.0,29.96,North,360,2.0,5.0,0,0.00,,,0.00,VWS V14.01,2013-10-26 11:28:00,
2013-10-26 07:29:00,29.0,0.0,29.95,NW,315,0.0,0.0,0,0.00,,,0.00,VWS V15.00,2013-10-26 11:29:00,
2013-10-26 07:30:00,29.0,0.0,29.95,NW,315,0.0,0.0,0,0.00,,,0.00,VWS V15.00,2013-10-26 11:30:00,
2013-10-26 07:31:00,30.0,0.0,29.96,NNE,22,4.0,5.0,0,0.00,,,0.00,VWS V14.01,2013-10-26 11:31:00,
2013-10-26 07:32:00,30.0,0.0,29.96,NNE,22,3.0,4.0,0,0.00,,,0.00,VWS V14.01,2013-10-26 11:32:00,
2013-10-26 07:33:00,31.0,0.0,29.96,NNE,22,1.0,4.0,0,0.00,,,0.00,VWS V14.01,2013-10-26 11:33:00,
2013-10-26 07:34:00,31.0,0.0,29.96,NNE,22,3.0,4.0,0,0.00,,,0.00,VWS V14.01,2013-10-26 11:34:00,
2013-10-26 07:35:00,29.0,0.0,29.96,NW,315,0.0,0.0,0,0.00,,,0.00,VWS V15.00,2013-10-26 11:35:00,
2013-10-26 07:36:00,30.0,0.0,29.96,NNE,22,2.0,4.0,0,0.00,,,0.00,VWS V14.01,2013-10-26 11:36:00,
2013-10-26 07:37:00,29.0,0.0,29.96,NW,315,0.0,0.0,0,0.00,,,0.00,VWS V15.00,2013-10-26 11:37:00,
2013-10-26 07:38:00,30.0,0.0,29.96,NNE,22,1.0,4.0,0,0.00,,,0.00,VWS V14.01,2013-10-26 11:38:00,
2013-10-26 07:39:00,31.0,0.0,29.96,NNE,22,1.0,4.0,0,0.00,,,0.00,VWS V14.01,2013-10-26 11:39:00,
2013-10-26 07:40:00,31.0,0.0,29.96,NNW,337,1.0,4.0,0,0.00,,,0.00,VWS V14.01,2013-10-26 11:40:00,
2013-10-26 07:41:00,31.0,0.0,29.96,NNW,337,0.0,3.0,0,0.00,,,0.00,VWS V14.01,2013-10-26 11:41:00,
2013-10-26 07:42:00,31.0,0.0,29.96,NNW,337,0.0,3.0,0,0.00,,,0.00,VWS V14.01,2013-10-26 11:42:00,
2013-10-26 07:43:00,29.0,0.0,29.96,NW,315,0.0,2.0,0,0.00,,,0.00,VWS V15.00,2013-10-26 11:43:00,
2013-10-26 07:44:00,31.0,0.0,29.96,NNW,337,0.0,2.0,0,0.00,,,0.00,VWS V14.01,2013-10-26 11:44:00,
2013-10-26 07:45:00,32.0,0.0,29.96,NNW,337,0.0,2.0,0,0.00,,,0.00,VWS V14.01,2013-10-26 11:45:00,
2013-10-26 07:46:00,32.0,0.0,29.96,NNW,337,0.0,2.0,0,0.00,,,0.00,VWS V14.01,2013-10-26 11:46:00,
2013-10-26 07:47:00,32.0,0.0,29.96,NNW,337,0.0,1.0,0,0.00,,,0.00,VWS V14.01,2013-10-26 11:47:00,
2013-10-26 07:48:00,29.0,0.0,29.95,NE,45,1.0,3.0,0,0.00,,,0.00,VWS V15.00,2013-10-26 11:48:00,
2013-10-26 07:49:00,32.0,0.0,29.95,NNW,337,1.0,1.0,0,0.00,,,0.00,VWS V14.01,2013-10-26 11:49:00,
2013-10-26 07:50:00,29.0,0.0,29.95,NE,45,2.0,3.0,0,0.00,,,0.00,VWS V15.00,2013-10-26 11:50:00,
2013-10-26 07:51:00,32.0,0.0,29.95,NNW,337,0.0,1.0,0,0.00,,,0.00,VWS V14.01,2013-10-26 11:51:00,
2013-10-26 07:52:00,32.0,0.0,29.95,NNW,337,2.0,2.0,0,0.00,,,0.00,VWS V14.01,2013-10-26 11:52:00,
2013-10-26 07:53:00,32.0,0.0,29.95,NNW,337,1.0,2.0,0,0.00,,,0.00,VWS V14.01,2013-10-26 11:53:00,
2013-10-26 07:54:00,32.0,0.0,29.95,NNW,337,1.0,2.0,0,0.00,,,0.00,VWS V14.01,2013-10-26 11:54:00,
2013-10-26 07:55:00,29.0,0.0,29.95,NE,45,2.0,3.0,0,0.00,,,0.00,VWS V15.00,2013-10-26 11:55:00,
2013-10-26 07:56:00,32.0,0.0,29.95,NNW,337,2.0,2.0,0,0.00,,,0.00,VWS V14.01,2013-10-26 11:56:00,
2013-10-26 07:57:00,32.0,0.0,29.95,NW,315,2.0,2.0,0,0.00,,,0.00,VWS V14.01,2013-10-26 11:57:00,
2013-10-26 07:58:00,32.0,0.0,29.95,NW,315,3.0,3.0,0,0.00,,,0.00,VWS V14.01,2013-10-26 11:58:00,
2013-10-26 07:59:00,32.0,0.0,29.95,NW,315,3.0,3.0,0,0.00,,,0.00,VWS V14.01,2013-10-26 11:59:00,
2013-10-26 08:00:00,29.0,0.0,29.95,NE,45,0.0,3.0,0,0.00,,,0.00,VWS V15.00,2013-10-26 12:00:00,
2013-10-26 08:01:00,33.0,0.0,29.95,WNW,292,3.0,3.0,0,0.00,,,0.00,VWS V14.01,2013-10-26 12:01:00,
2013-10-26 08:02:00,29.0,0.0,29.95,NE,45,3.0,3.0,0,0.00,,,0.00,VWS V15.00,2013-10-26 12:02:00,
2013-10-26 08:03:00,33.0,0.0,29.95,West,270,5.0,5.0,0,0.00,,,0.00,VWS V14.01,2013-10-26 12:03:00,
2013-10-26 08:04:00,33.0,0.0,29.95,West,270,4.0,5.0,0,0.00,,,0.00,VWS V14.01,2013-10-26 12:04:00,
2013-10-26 08:05:00,34.0,0.0,29.95,WSW,247,4.0,5.0,0,0.00,,,0.00,VWS V14.01,2013-10-26 12:05:00,
2013-10-26 08:06:00,34.0,0.0,29.95,WSW,247,4.0,5.0,0,0.00,,,0.00,VWS V14.01,2013-10-26 12:06:00,
2013-10-26 08:07:00,29.0,0.0,29.96,NNE,22,0.0,3.0,0,0.00,,,0.00,VWS V15.00,2013-10-26 12:07:00,
2013-10-26 08:08:00,29.0,0.0,29.96,NNE,22,0.0,3.0,0,0.00,,,0.00,VWS V15.00,2013-10-26 12:08:00,
2013-10-26 08:09:00,36.0,0.0,29.93,WSW,247,4.0,5.0,0,0.00,,,0.00,VWS V14.01,2013-10-26 12:09:00,
2013-10-26 08:10:00,36.0,0.0,29.93,WSW,247,4.0,5.0,0,0.00,,,0.00,VWS V14.01,2013-10-26 12:10:00,
2013-10-26 08:11:00,36.0,0.0,29.93,WSW,247,6.0,6.0,0,0.00,,,0.00,VWS V14.01,2013-10-26 12:11:00,
2013-10-26 08:12:00,37.0,0.0,29.93,WSW,247,6.0,6.0,0,0.00,,,0.00,VWS V14.01,2013-10-26 12:12:00,
2013-10-26 08:13:00,37.0,0.0,29.93,WSW,247,5.0,6.0,0,0.00,,,0.00,VWS V14.01,2013-10-26 12:13:00,
2013-10-26 08:14:00,38.0,0.0,29.93,West,270,6.0,6.0,0,0.00,,,0.00,VWS V14.01,2013-10-26 12:14:00,
2013-10-26 08:15:00,29.0,0.0,29.96,NNE,22,1.0,2.0,0,0.00,,,0.00,VWS V15.00,2013-10-26 12:15:00,
2013-10-26 08:16:00,38.0,0.0,29.93,WSW,247,7.0,7.0,0,0.00,,,0.00,VWS V14.01,2013-10-26 12:16:00,
2013-10-26 08:17:00,38.0,0.0,29.93,West,270,7.0,7.0,0,0.00,,,0.00,VWS V14.01,2013-10-26 12:17:00,
2013-10-26 08:18:00,38.0,0.0,29.93,West,270,7.0,7.0,0,0.00,,,0.00,VWS V14.01,2013-10-26 12:18:00,
2013-10-26 08:19:00,39.0,0.0,29.93,West,270,5.0,7.0,0,0.00,,,0.00,VWS V14.01,2013-10-26 12:19:00,
2013-10-26 08:20:00,29.0,0.0,29.96,NNE,22,5.0,5.0,0,0.00,,,0.00,VWS V15.00,2013-10-26 12:20:00,
2013-10-26 08:21:00,39.0,0.0,29.93,West,270,6.0,7.0,0,0.00,,,0.00,VWS V14.01,2013-10-26 12:21:00,
2013-10-26 08:22:00,39.0,0.0,29.93,West,270,5.0,7.0,0,0.00,,,0.00,VWS V14.01,2013-10-26 12:22:00,
2013-10-26 08:23:00,39.0,0.0,29.93,West,270,5.0,7.0,0,0.00,,,0.00,VWS V14.01,2013-10-26 12:23:00,
2013-10-26 08:24:00,39.0,0.0,29.93,WSW,247,4.0,7.0,0,0.00,,,0.00,VWS V14.01,2013-10-26 12:24:00,
2013-10-26 08:25:00,39.0,0.0,29.93,WSW,247,5.0,7.0,0,0.00,,,0.00,VWS V14.01,2013-10-26 12:25:00,
2013-10-26 08:26:00,39.0,0.0,29.93,WSW,247,5.0,7.0,0,0.00,,,0.00,VWS V14.01,2013-10-26 12:26:00,
2013-10-26 08:27:00,30.0,0.0,29.96,North,360,3.0,5.0,0,0.00,,,0.00,VWS V15.00,2013-10-26 12:27:00,
2013-10-26 08:28:00,40.0,0.0,29.93,WSW,247,5.0,6.0,0,0.00,,,0.00,VWS V14.01,2013-10-26 12:28:00,
2013-10-26 08:29:00,40.0,0.0,29.93,WSW,247,9.0,9.0,0,0.00,,,0.00,VWS V14.01,2013-10-26 12:29:00,
2013-10-26 08:30:00,40.0,0.0,29.93,WSW,247,8.0,9.0,0,0.00,,,0.00,VWS V14.01,2013-10-26 12:30:00,
2013-10-26 08:31:00,31.0,0.0,29.96,NNE,22,1.0,4.0,0,0.00,,,0.00,VWS V15.00,2013-10-26 12:31:00,
2013-10-26 08:32:00,41.0,0.0,29.93,West,270,5.0,9.0,0,0.00,,,0.00,VWS V14.01,2013-10-26 12:32:00,
2013-10-26 08:33:00,41.0,0.0,29.93,WSW,247,9.0,9.0,0,0.00,,,0.00,VWS V14.01,2013-10-26 12:33:00,
2013-10-26 08:34:00,41.0,0.0,29.93,WSW,247,8.0,9.0,0,0.00,,,0.00,VWS V14.01,2013-10-26 12:34:00,
2013-10-26 08:35:00,41.0,0.0,29.93,West,270,10.0,10.0,0,0.00,,,0.00,VWS V14.01,2013-10-26 12:35:00,
2013-10-26 08:36:00,30.0,0.0,29.96,NNE,22,1.0,4.0,0,0.00,,,0.00,VWS V15.00,2013-10-26 12:36:00,
2013-10-26 08:37:00,41.0,0.0,29.93,WSW,247,7.0,10.0,0,0.00,,,0.00,VWS V14.01,2013-10-26 12:37:00,
2013-10-26 08:38:00,31.0,0.0,29.96,NNW,337,1.0,4.0,0,0.00,,,0.00,VWS V15.00,2013-10-26 12:38:00,
2013-10-26 08:39:00,42.0,0.0,29.92,West,270,6.0,10.0,0,0.00,,,0.00,VWS V14.01,2013-10-26 12:39:00,
2013-10-26 08:40:00,42.0,0.0,29.92,West,270,6.0,10.0,0,0.00,,,0.00,VWS V14.01,2013-10-26 12:40:00,
2013-10-26 08:41:00,42.0,0.0,29.92,West,270,6.0,10.0,0,0.00,,,0.00,VWS V14.01,2013-10-26 12:41:00,
2013-10-26 08:42:00,31.0,0.0,29.96,NNW,337,0.0,2.0,0,0.00,,,0.00,VWS V15.00,2013-10-26 12:42:00,
2013-10-26 08:43:00,42.0,0.0,29.92,WNW,292,9.0,10.0,0,0.00,,,0.00,VWS V14.01,2013-10-26 12:43:00,
2013-10-26 08:44:00,32.0,0.0,29.96,NNW,337,0.0,2.0,0,0.00,,,0.00,VWS V15.00,2013-10-26 12:44:00,
2013-10-26 08:45:00,42.0,0.0,29.92,West,270,7.0,9.0,0,0.00,,,0.00,VWS V14.01,2013-10-26 12:45:00,
2013-10-26 08:46:00,42.0,0.0,29.92,WSW,247,7.0,9.0,0,0.00,,,0.00,VWS V14.01,2013-10-26 12:46:00,
2013-10-26 08:47:00,32.0,0.0,29.95,NNW,337,1.0,1.0,0,0.00,,,0.00,VWS V15.00,2013-10-26 12:47:00,
2013-10-26 08:48:00,42.0,0.0,29.93,WSW,247,7.0,9.0,0,0.00,,,0.00,VWS V14.01,2013-10-26 12:48:00,
2013-10-26 08:49:00,32.0,0.0,29.95,NNW,337,0.0,1.0,0,0.00,,,0.00,VWS V15.00,2013-10-26 12:49:00,
2013-10-26 08:50:00,42.0,0.0,29.93,West,270,9.0,10.0,0,0.00,,,0.00,VWS V14.01,2013-10-26 12:50:00,
2013-10-26 08:51:00,43.0,0.0,29.93,WSW,247,9.0,10.0,0,0.00,,,0.00,VWS V14.01,2013-10-26 12:51:00,
2013-10-26 08:52:00,32.0,0.0,29.95,NNW,337,1.0,2.0,0,0.00,,,0.00,VWS V15.00,2013-10-26 12:52:00,
2013-10-26 08:53:00,43.0,0.0,29.93,West,270,10.0,10.0,0,0.00,,,0.00,VWS V14.01,2013-10-26 12:53:00,
2013-10-26 08:54:00,32.0,0.0,29.95,NNW,337,2.0,2.0,0,0.00,,,0.00,VWS V15.00,2013-10-26 12:54:00,
2013-10-26 08:55:00,43.0,0.0,29.93,WSW,247,9.0,10.0,0,0.00,,,0.00,VWS V14.01,2013-10-26 12:55:00,
2013-10-26 08:56:00,43.0,0.0,29.93,West,270,7.0,10.0,0,0.00,,,0.00,VWS V14.01,2013-10-26 12:56:00,
2013-10-26 08:57:00,43.0,0.0,29.93,West,270,7.0,10.0,0,0.00,,,0.00,VWS V14.01,2013-10-26 12:57:00,
2013-10-26 08:58:00,43.0,0.0,29.93,West,270,7.0,10.0,0,0.00,,,0.00,VWS V14.01,2013-10-26 12:58:00,
2013-10-26 08:59:00,43.0,0.0,29.93,WSW,247,8.0,10.0,0,0.00,,,0.00,VWS V14.01,2013-10-26 12:59:00,
2013-10-26 09:00:00,33.0,0.0,29.95,WNW,292,4.0,4.0,0,0.00,,,0.00,VWS V15.00,2013-10-26 13:00:00,
2013-10-26 09:01:00,43.0,0.0,29.93,West,270,7.0,10.0,0,0.00,,,0.00,VWS V14.01,2013-10-26 13:01:00,
2013-10-26 09:02:00,43.0,0.0,29.93,West,270,8.0,10.0,0,0.00,,,0.00,VWS V14.01,2013-10-26 13:02:00,
2013-10-26 09:03:00,34.0,0.0,29.95,WSW,247,4.0,5.0,0,0.00,,,0.00,VWS V15.00,2013-10-26 13:03:00,
2013-10-26 09:04:00,44.0,0.0,29.93,West,270,9.0,10.0,0,0.00,,,0.00,VWS V14.01,2013-10-26 13:04:00,
2013-10-26 09:05:00,44.0,0.0,29.93,WSW,247,8.0,10.0,0,0.00,,,0.00,VWS V14.01,2013-10-26 13:05:00,
2013-10-26 09:06:00,35.0,0.0,29.93,WSW,247,3.0,5.0,0,0.00,,,0.00,VWS V15.00,2013-10-26 13:06:00,
2013-10-26 09:07:00,36.0,0.0,29.93,WSW,247,4.0,5.0,0,0.00,,,0.00,VWS V15.00,2013-10-26 13:07:00,
2013-10-26 09:08:00,44.0,0.0,29.93,West,270,11.0,11.0,0,0.00,,,0.00,VWS V14.01,2013-10-26 13:08:00,
2013-10-26 09:09:00,44.0,0.0,29.93,WSW,247,6.0,11.0,0,0.00,,,0.00,VWS V14.01,2013-10-26 13:09:00,
2013-10-26 09:10:00,44.0,0.0,29.93,West,270,11.0,11.0,0,0.00,,,0.00,VWS V14.01,2013-10-26 13:10:00,
2013-10-26 09:11:00,44.0,0.0,29.93,West,270,10.0,11.0,0,0.00,,,0.00,VWS V14.01,2013-10-26 13:11:00,
2013-10-26 09:12:00,38.0,0.0,29.93,West,270,6.0,6.0,0,0.00,,,0.00,VWS V15.00,2013-10-26 13:12:00,
2013-10-26 09:13:00,44.0,0.0,29.93,West,270,10.0,11.0,0,0.00,,,0.00,VWS V14.01,2013-10-26 13:13:00,
2013-10-26 09:14:00,38.0,0.0,29.93,WSW,247,7.0,7.0,0,0.00,,,0.00,VWS V15.00,2013-10-26 13:14:00,
2013-10-26 09:15:00,38.0,0.0,29.93,West,270,7.0,7.0,0,0.00,,,0.00,VWS V15.00,2013-10-26 13:15:00,
2013-10-26 09:16:00,44.0,0.0,29.93,WSW,247,12.0,12.0,0,0.00,,,0.00,VWS V14.01,2013-10-26 13:16:00,
2013-10-26 09:17:00,44.0,0.0,29.93,WNW,292,10.0,12.0,0,0.00,,,0.00,VWS V14.01,2013-10-26 13:17:00,
2013-10-26 09:18:00,44.0,0.0,29.93,WSW,247,15.0,15.0,0,0.00,,,0.00,VWS V14.01,2013-10-26 13:18:00,
2013-10-26 09:19:00,39.0,0.0,29.93,West,270,6.0,7.0,0,0.00,,,0.00,VWS V15.00,2013-10-26 13:19:00,
2013-10-26 09:20:00,39.0,0.0,29.93,West,270,5.0,7.0,0,0.00,,,0.00,VWS V15.00,2013-10-26 13:20:00,
2013-10-26 09:21:00,44.0,0.0,29.93,West,270,8.0,15.0,0,0.00,,,0.00,VWS V14.01,2013-10-26 13:21:00,
2013-10-26 09:22:00,44.0,0.0,29.93,WNW,292,10.0,15.0,0,0.00,,,0.00,VWS V14.01,2013-10-26 13:22:00,
2013-10-26 09:23:00,44.0,0.0,29.93,WNW,292,8.0,15.0,0,0.00,,,0.00,VWS V14.01,2013-10-26 13:23:00,
2013-10-26 09:24:00,44.0,0.0,29.93,WSW,247,6.0,15.0,0,0.00,,,0.00,VWS V14.01,2013-10-26 13:24:00,
2013-10-26 09:25:00,39.0,0.0,29.93,WSW,247,5.0,7.0,0,0.00,,,0.00,VWS V15.00,2013-10-26 13:25:00,
2013-10-26 09:26:00,45.0,0.0,29.93,West,270,9.0,15.0,0,0.00,,,0.00,VWS V14.01,2013-10-26 13:26:00,
2013-10-26 09:27:00,45.0,0.0,29.93,West,270,10.0,15.0,0,0.00,,,0.00,VWS V14.01,2013-10-26 13:27:00,
2013-10-26 09:28:00,40.0,0.0,29.93,WSW,247,8.0,9.0,0,0.00,,,0.00,VWS V15.00,2013-10-26 13:28:00,
2013-10-26 09:29:00,45.0,0.0,29.92,WSW,247,7.0,10.0,0,0.00,,,0.00,VWS V14.01,2013-10-26 13:29:00,
2013-10-26 09:30:00,41.0,0.0,29.93,West,270,5.0,9.0,0,0.00,,,0.00,VWS V15.00,2013-10-26 13:30:00,
2013-10-26 09:31:00,45.0,0.0,29.92,WSW,247,6.0,10.0,0,0.00,,,0.00,VWS V14.01,2013-10-26 13:31:00,
2013-10-26 09:32:00,41.0,0.0,29.93,WSW,247,8.0,9.0,0,0.00,,,0.00,VWS V15.00,2013-10-26 13:32:00,
2013-10-26 09:33:00,45.0,0.0,29.92,WSW,247,8.0,10.0,0,0.00,,,0.00,VWS V14.01,2013-10-26 13:33:00,
2013-10-26 09:34:00,41.0,0.0,29.93,WSW,247,9.0,10.0,0,0.00,,,0.00,VWS V15.00,2013-10-26 13:34:00,
2013-10-26 09:35:00,45.0,-37.9,29.92,West,270,8.0,10.0,2,0.00,,,0.00,VWS V14.01,2013-10-26 13:35:00,
2013-10-26 09:36:00,41.0,0.0,29.92,West,270,9.0,10.0,0,0.00,,,0.00,VWS V15.00,2013-10-26 13:36:00,
2013-10-26 09:37:00,46.0,-21.2,29.92,West,270,7.0,9.0,5,0.00,,,0.00,VWS V14.01,2013-10-26 13:37:00,
2013-10-26 09:38:00,42.0,0.0,29.92,West,270,6.0,10.0,0,0.00,,,0.00,VWS V15.00,2013-10-26 13:38:00,
2013-10-26 09:39:00,46.0,-25.4,29.92,West,270,7.0,9.0,5,0.00,,,0.00,VWS V14.01,2013-10-26 13:39:00,
2013-10-26 09:40:00,46.0,-21.2,29.92,West,270,9.0,9.0,4,0.00,,,0.00,VWS V14.01,2013-10-26 13:40:00,
2013-10-26 09:41:00,46.0,-17.7,29.92,West,270,11.0,11.0,5,0.00,,,0.00,VWS V14.01,2013-10-26 13:41:00,
2013-10-26 09:42:00,46.0,-12.0,29.92,West,270,10.0,11.0,6,0.00,,,0.00,VWS V14.01,2013-10-26 13:42:00,
2013-10-26 09:43:00,46.0,-12.0,29.92,West,270,6.0,11.0,8,0.00,,,0.00,VWS V14.01,2013-10-26 13:43:00,
2013-10-26 09:44:00,42.0,0.0,29.92,WSW,247,7.0,9.0,0,0.00,,,0.00,VWS V15.00,2013-10-26 13:44:00,
2013-10-26 09:45:00,46.0,-17.7,29.92,WNW,292,8.0,11.0,6,0.00,,,0.00,VWS V14.01,2013-10-26 13:45:00,
2013-10-26 09:46:00,46.0,-12.0,29.92,West,270,12.0,12.0,6,0.00,,,0.00,VWS V14.01,2013-10-26 13:46:00,
2013-10-26 09:47:00,46.0,-7.5,29.92,West,270,9.0,12.0,8,0.00,,,0.00,VWS V14.01,2013-10-26 13:47:00,
2013-10-26 09:48:00,46.0,-8.9,29.91,West,270,9.0,12.0,10,0.00,,,0.00,VWS V14.01,2013-10-26 13:48:00,
2013-10-26 09:49:00,47.0,-17.0,29.91,WSW,247,9.0,12.0,9,0.00,,,0.00,VWS V14.01,2013-10-26 13:49:00,
2013-10-26 09:50:00,43.0,0.0,29.93,WSW,247,9.0,10.0,0,0.00,,,0.00,VWS V15.00,2013-10-26 13:50:00,
2013-10-26 09:51:00,47.0,-8.9,29.91,West,270,14.0,14.0,6,0.00,,,0.00,VWS V14.01,2013-10-26 13:51:00,
2013-10-26 09:52:00,47.0,-6.8,29.91,WNW,292,14.0,14.0,9,0.00,,,0.00,VWS V14.01,2013-10-26 13:52:00,
2013-10-26 09:53:00,43.0,0.0,29.93,WSW,247,9.0,10.0,0,0.00,,,0.00,VWS V15.00,2013-10-26 13:53:00,
2013-10-26 09:54:00,47.0,-1.3,29.91,West,270,13.0,14.0,11,0.00,,,0.00,VWS V14.01,2013-10-26 13:54:00,
2013-10-26 09:55:00,47.0,-4.8,29.91,WSW,247,7.0,14.0,13,0.00,,,0.00,VWS V14.01,2013-10-26 13:55:00,
2013-10-26 09:56:00,47.0,-6.8,29.91,West,270,10.0,14.0,11,0.00,,,0.00,VWS V14.01,2013-10-26 13:56:00,
2013-10-26 09:57:00,43.0,0.0,29.93,WSW,247,8.0,10.0,0,0.00,,,0.00,VWS V15.00,2013-10-26 13:57:00,
2013-10-26 09:58:00,48.0,-2.2,29.90,WSW,247,10.0,14.0,12,0.00,,,0.00,VWS V14.01,2013-10-26 13:58:00,
2013-10-26 09:59:00,48.0,-2.2,29.90,WSW,247,10.0,14.0,12,0.00,,,0.00,VWS V14.01,2013-10-26 13:59:00,
2013-10-26 10:00:00,48.0,2.6,29.90,WSW,247,9.0,14.0,12,0.00,,,0.00,VWS V14.01,2013-10-26 14:00:00,
2013-10-26 10:01:00,43.0,0.0,29.93,West,270,10.0,10.0,0,0.00,,,0.00,VWS V15.00,2013-10-26 14:01:00,
2013-10-26 10:02:00,48.0,-0.5,29.90,WSW,247,10.0,13.0,16,0.00,,,0.00,VWS V14.01,2013-10-26 14:02:00,
2013-10-26 10:03:00,48.0,4.0,29.90,WSW,247,9.0,13.0,13,0.00,,,0.00,VWS V14.01,2013-10-26 14:03:00,
2013-10-26 10:04:00,48.0,5.3,29.90,WSW,247,7.0,10.0,16,0.00,,,0.00,VWS V14.01,2013-10-26 14:04:00,
2013-10-26 10:05:00,44.0,0.0,29.93,West,270,10.0,10.0,0,0.00,,,0.00,VWS V15.00,2013-10-26 14:05:00,
2013-10-26 10:06:00,48.0,5.3,29.90,WSW,247,9.0,14.0,16,0.00,,,0.00,VWS V14.01,2013-10-26 14:06:00,
2013-10-26 10:07:00,48.0,6.5,29.90,West,270,7.0,14.0,17,0.00,,,0.00,VWS V14.01,2013-10-26 14:07:00,
2013-10-26 10:08:00,48.0,2.6,29.91,WSW,247,10.0,14.0,18,0.00,,,0.00,VWS V14.01,2013-10-26 14:08:00,
2013-10-26 10:09:00,48.0,5.3,29.91,West,270,9.0,14.0,15,0.00,,,0.00,VWS V14.01,2013-10-26 14:09:00,
2013-10-26 10:10:00,44.0,0.0,29.93,WSW,247,10.0,11.0,0,0.00,,,0.00,VWS V15.00,2013-10-26 14:10:00,
2013-10-26 10:11:00,48.0,1.9,29.91,West,270,9.0,14.0,16,0.00,,,0.00,VWS V14.01,2013-10-26 14:11:00,
2013-10-26 10:12:00,49.0,3.4,29.91,WSW,247,8.0,14.0,14,0.00,,,0.00,VWS V14.01,2013-10-26 14:12:00,
2013-10-26 10:13:00,44.0,0.0,29.93,WSW,247,11.0,11.0,0,0.00,,,0.00,VWS V15.00,2013-10-26 14:13:00,
2013-10-26 10:14:00,44.0,0.0,29.93,WSW,247,12.0,12.0,0,0.00,,,0.00,VWS V15.00,2013-10-26 14:14:00,
2013-10-26 10:15:00,49.0,7.4,29.91,WSW,247,12.0,12.0,18,0.00,,,0.00,VWS V14.01,2013-10-26 14:15:00,
2013-10-26 10:16:00,49.0,9.7,29.91,West,270,10.0,12.0,18,0.00,,,0.00,VWS V14.01,2013-10-26 14:16:00,
2013-10-26 10:17:00,44.0,0.0,29.93,WSW,247,10.0,15.0,0,0.00,,,0.00,VWS V15.00,2013-10-26 14:17:00,
2013-10-26 10:18:00,49.0,7.4,29.90,West,270,9.0,12.0,22,0.00,,,0.00,VWS V14.01,2013-10-26 14:18:00,
2013-10-26 10:19:00,44.0,0.0,29.93,West,270,8.0,15.0,0,0.00,,,0.00,VWS V15.00,2013-10-26 14:19:00,
2013-10-26 10:20:00,49.0,7.4,29.90,WSW,247,12.0,12.0,20,0.00,,,0.00,VWS V14.01,2013-10-26 14:20:00,
2013-10-26 10:21:00,49.0,10.8,29.90,WSW,247,16.0,16.0,18,0.00,,,0.00,VWS V14.01,2013-10-26 14:21:00,
2013-10-26 10:22:00,49.0,13.7,29.90,West,270,11.0,16.0,21,0.00,,,0.00,VWS V14.01,2013-10-26 14:22:00,
2013-10-26 10:23:00,44.0,0.0,29.93,West,270,10.0,15.0,0,0.00,,,0.00,VWS V15.00,2013-10-26 14:23:00,
2013-10-26 10:24:00,50.0,12.7,29.90,WSW,247,7.0,16.0,22,0.00,,,0.00,VWS V14.01,2013-10-26 14:24:00,
2013-10-26 10:25:00,45.0,0.0,29.93,West,270,10.0,15.0,0,0.00,,,0.00,VWS V15.00,2013-10-26 14:25:00,
2013-10-26 10:26:00,50.0,12.7,29.90,SW,225,13.0,16.0,23,0.00,,,0.00,VWS V14.01,2013-10-26 14:26:00,
2013-10-26 10:27:00,50.0,11.6,29.90,WSW,247,12.0,16.0,22,0.00,,,0.00,VWS V14.01,2013-10-26 14:27:00,
2013-10-26 10:28:00,45.0,0.0,29.92,WSW,247,9.0,10.0,0,0.00,,,0.00,VWS V15.00,2013-10-26 14:28:00,
2013-10-26 10:29:00,45.0,0.0,29.92,WSW,247,6.0,10.0,0,0.00,,,0.00,VWS V15.00,2013-10-26 14:29:00,
2013-10-26 10:30:00,50.0,10.5,29.90,West,270,15.0,16.0,22,0.00,,,0.00,VWS V14.01,2013-10-26 14:30:00,
2013-10-26 10:31:00,45.0,0.0,29.92,WSW,247,8.0,10.0,0,0.00,,,0.00,VWS V15.00,2013-10-26 14:31:00,
2013-10-26 10:32:00,50.0,9.4,29.90,WSW,247,12.0,15.0,21,0.00,,,0.00,VWS V14.01,2013-10-26 14:32:00,
2013-10-26 10:33:00,50.0,8.2,29.90,WSW,247,11.0,15.0,19,0.00,,,0.00,VWS V14.01,2013-10-26 14:33:00,
2013-10-26 10:34:00,45.0,-37.9,29.92,West,270,8.0,10.0,2,0.00,,,0.00,VWS V15.00,2013-10-26 14:34:00,
2013-10-26 10:35:00,50.0,6.9,29.90,West,270,18.0,18.0,17,0.00,,,0.00,VWS V14.01,2013-10-26 14:35:00,
2013-10-26 10:36:00,46.0,-21.2,29.92,West,270,7.0,9.0,5,0.00,,,0.00,VWS V15.00,2013-10-26 14:36:00,
2013-10-26 10:37:00,50.0,10.5,29.90,West,270,13.0,18.0,19,0.00,,,0.00,VWS V14.01,2013-10-26 14:37:00,
2013-10-26 10:38:00,50.0,9.4,29.89,WSW,247,12.0,18.0,20,0.00,,,0.00,VWS V14.01,2013-10-26 14:38:00,
2013-10-26 10:39:00,50.0,10.5,29.89,SW,225,13.0,18.0,19,0.00,,,0.00,VWS V14.01,2013-10-26 14:39:00,
2013-10-26 10:40:00,50.0,10.5,29.89,SSW,202,16.0,18.0,20,0.00,,,0.00,VWS V14.01,2013-10-26 14:40:00,
2013-10-26 10:41:00,46.0,-12.0,29.92,West,270,6.0,11.0,8,0.00,,,0.00,VWS V15.00,2013-10-26 14:41:00,
2013-10-26 10:42:00,46.0,-17.7,29.92,WSW,247,6.0,11.0,8,0.00,,,0.00,VWS V15.00,2013-10-26 14:42:00,
2013-10-26 10:43:00,50.0,12.5,29.89,WSW,247,14.0,18.0,20,0.00,,,0.00,VWS V14.01,2013-10-26 14:43:00,
2013-10-26 10:44:00,51.0,11.4,29.89,SSW,202,19.0,19.0,21,0.00,,,0.00,VWS V14.01,2013-10-26 14:44:00,
2013-10-26 10:45:00,46.0,-7.5,29.92,West,270,9.0,12.0,8,0.00,,,0.00,VWS V15.00,2013-10-26 14:45:00,
2013-10-26 10:46:00,51.0,14.5,29.89,SW,225,16.0,19.0,21,0.00,,,0.00,VWS V14.01,2013-10-26 14:46:00,
2013-10-26 10:47:00,47.0,-17.0,29.91,WSW,247,9.0,12.0,9,0.00,,,0.00,VWS V15.00,2013-10-26 14:47:00,
2013-10-26 10:48:00,51.0,12.5,29.88,SW,225,12.0,19.0,25,0.00,,,0.00,VWS V14.01,2013-10-26 14:48:00,
2013-10-26 10:49:00,47.0,-8.9,29.91,West,270,14.0,14.0,6,0.00,,,0.00,VWS V15.00,2013-10-26 14:49:00,
2013-10-26 10:50:00,51.0,15.5,29.88,West,270,17.0,19.0,24,0.00,,,0.00,VWS V14.01,2013-10-26 14:50:00,
2013-10-26 10:51:00,51.0,15.5,29.88,West,270,17.0,19.0,24,0.00,,,0.00,VWS V14.01,2013-10-26 14:51:00,
2013-10-26 10:52:00,47.0,-1.3,29.91,West,270,13.0,14.0,11,0.00,,,0.00,VWS V15.00,2013-10-26 14:52:00,
2013-10-26 10:53:00,51.0,12.5,29.88,SW,225,10.0,19.0,23,0.00,,,0.00,VWS V14.01,2013-10-26 14:53:00,
2013-10-26 10:54:00,51.0,12.5,29.88,SW,225,12.0,17.0,21,0.00,,,0.00,VWS V14.01,2013-10-26 14:54:00,
2013-10-26 10:55:00,51.0,11.4,29.88,SSW,202,14.0,17.0,21,0.00,,,0.00,VWS V14.01,2013-10-26 14:55:00,
2013-10-26 10:56:00,47.0,-2.2,29.90,West,270,9.0,14.0,10,0.00,,,0.00,VWS V15.00,2013-10-26 14:56:00,
2013-10-26 10:57:00,51.0,15.5,29.88,SSW,202,22.0,22.0,22,0.00,,,0.00,VWS V14.01,2013-10-26 14:57:00,
2013-10-26 10:58:00,51.0,16.4,29.87,SW,225,16.0,22.0,24,0.00,,,0.00,VWS V14.01,2013-10-26 14:58:00,
2013-10-26 10:59:00,48.0,4.0,29.90,WSW,247,7.0,14.0,15,0.00,,,0.00,VWS V15.00,2013-10-26 14:59:00,
2013-10-26 11:00:00,52.0,17.3,29.87,WSW,247,12.0,22.0,24,0.00,,,0.00,VWS V14.01,2013-10-26 15:00:00,
2013-10-26 11:01:00,48.0,4.0,29.90,WSW,247,9.0,13.0,13,0.00,,,0.00,VWS V15.00,2013-10-26 15:01:00,
2013-10-26 11:02:00,52.0,18.2,29.87,SW,225,15.0,22.0,24,0.00,,,0.00,VWS V14.01,2013-10-26 15:02:00,
2013-10-26 11:03:00,52.0,17.3,29.87,SW,225,13.0,22.0,26,0.00,,,0.00,VWS V14.01,2013-10-26 15:03:00,
2013-10-26 11:04:00,52.0,17.3,29.87,SW,225,13.0,22.0,26,0.00,,,0.00,VWS V14.01,2013-10-26 15:04:00,
2013-10-26 11:05:00,48.0,6.5,29.90,West,270,7.0,14.0,17,0.00,,,0.00,VWS V15.00,2013-10-26 15:05:00,
2013-10-26 11:06:00,52.0,19.1,29.87,WSW,247,17.0,21.0,25,0.00,,,0.00,VWS V14.01,2013-10-26 15:06:00,
2013-10-26 11:07:00,52.0,19.1,29.87,WSW,247,17.0,21.0,25,0.00,,,0.00,VWS V14.01,2013-10-26 15:07:00,
2013-10-26 11:08:00,52.0,19.1,29.86,SW,225,20.0,21.0,27,0.00,,,0.00,VWS V14.01,2013-10-26 15:08:00,
2013-10-26 11:09:00,52.0,20.8,29.86,SSW,202,27.0,27.0,27,0.00,,,0.00,VWS V14.01,2013-10-26 15:09:00,
2013-10-26 11:10:00,52.0,19.1,29.86,West,270,10.0,27.0,29,0.00,,,0.00,VWS V14.01,2013-10-26 15:10:00,
2013-10-26 11:11:00,49.0,3.4,29.91,WSW,247,11.0,14.0,15,0.00,,,0.00,VWS V15.00,2013-10-26 15:11:00,
2013-10-26 11:12:00,52.0,19.1,29.86,WSW,247,13.0,27.0,29,0.00,,,0.00,VWS V14.01,2013-10-26 15:12:00,
2013-10-26 11:13:00,52.0,22.3,29.86,SW,225,13.0,27.0,27,0.00,,,0.00,VWS V14.01,2013-10-26 15:13:00,
2013-10-26 11:14:00,52.0,21.5,29.86,SW,225,15.0,27.0,31,0.00,,,0.00,VWS V14.01,2013-10-26 15:14:00,
2013-10-26 11:15:00,52.0,22.3,29.86,WSW,247,25.0,27.0,30,0.00,,,0.00,VWS V14.01,2013-10-26 15:15:00,
2013-10-26 11:16:00,52.0,23.1,29.86,WSW,247,25.0,27.0,31,0.00,,,0.00,VWS V14.01,2013-10-26 15:16:00,
2013-10-26 11:17:00,49.0,9.7,29.90,West,270,9.0,12.0,18,0.00,,,0.00,VWS V15.00,2013-10-26 15:17:00,
2013-10-26 11:18:00,49.0,7.4,29.90,WSW,247,12.0,12.0,20,0.00,,,0.00,VWS V15.00,2013-10-26 15:18:00,
2013-10-26 11:19:00,53.0,25.4,29.84,West,270,19.0,25.0,32,0.00,,,0.00,VWS V14.01,2013-10-26 15:19:00,
2013-10-26 11:20:00,53.0,25.4,29.84,West,270,15.0,25.0,34,0.00,,,0.00,VWS V14.01,2013-10-26 15:20:00,
2013-10-26 11:21:00,53.0,24.7,29.84,WSW,247,17.0,25.0,34,0.00,,,0.00,VWS V14.01,2013-10-26 15:21:00,
2013-10-26 11:22:00,50.0,12.7,29.90,WSW,247,7.0,16.0,22,0.00,,,0.00,VWS V15.00,2013-10-26 15:22:00,
2013-10-26 11:23:00,53.0,24.7,29.84,SW,225,19.0,25.0,35,0.00,,,0.00,VWS V14.01,2013-10-26 15:23:00,
2013-10-26 11:24:00,53.0,24.7,29.84,SW,225,14.0,25.0,33,0.00,,,0.00,VWS V14.01,2013-10-26 15:24:00,
2013-10-26 11:25:00,53.0,24.0,29.84,WSW,247,25.0,25.0,33,0.00,,,0.00,VWS V14.01,2013-10-26 15:25:00,
2013-10-26 11:26:00,53.0,25.4,29.84,SSW,202,16.0,25.0,32,0.00,,,0.00,VWS V14.01,2013-10-26 15:26:00,
2013-10-26 11:27:00,53.0,23.2,29.84,SW,225,23.0,25.0,34,0.00,,,0.00,VWS V14.01,2013-10-26 15:27:00,
2013-10-26 11:28:00,53.0,24.7,29.85,SW,225,20.0,25.0,31,0.00,,,0.00,VWS V14.01,2013-10-26 15:28:00,
2013-10-26 11:29:00,53.0,23.8,29.85,WSW,247,16.0,25.0,33,0.00,,,0.00,VWS V14.01,2013-10-26 15:29:00,
2013-10-26 11:30:00,50.0,9.4,29.90,WSW,247,12.0,15.0,21,0.00,,,0.00,VWS V15.00,2013-10-26 15:30:00,
2013-10-26 11:31:00,52.0,25.4,29.85,WSW,247,16.0,25.0,33,0.00,,,0.00,VWS V14.01,2013-10-26 15:31:00,
2013-10-26 11:32:00,53.0,25.4,29.85,WSW,247,13.0,25.0,34,0.00,,,0.00,VWS V14.01,2013-10-26 15:32:00,
2013-10-26 11:33:00,50.0,6.9,29.90,West,270,18.0,18.0,17,0.00,,,0.00,VWS V15.00,2013-10-26 15:33:00,
2013-10-26 11:34:00,50.0,9.4,29.90,WSW,247,17.0,18.0,17,0.00,,,0.00,VWS V15.00,2013-10-26 15:34:00,
2013-10-26 11:35:00,53.0,24.7,29.85,West,270,16.0,23.0,32,0.00,,,0.00,VWS V14.01,2013-10-26 15:35:00,
2013-10-26 11:36:00,53.0,23.2,29.85,WSW,247,15.0,23.0,33,0.00,,,0.00,VWS V14.01,2013-10-26 15:36:00,
2013-10-26 11:37:00,53.0,24.0,29.85,WSW,247,18.0,23.0,31,0.00,,,0.00,VWS V14.01,2013-10-26 15:37:00,
2013-10-26 11:38:00,50.0,10.5,29.89,SSW,202,16.0,18.0,20,0.00,,,0.00,VWS V15.00,2013-10-26 15:38:00,
2013-10-26 11:39:00,53.0,24.7,29.84,SW,225,17.0,23.0,32,0.00,,,0.00,VWS V14.01,2013-10-26 15:39:00,
2013-10-26 11:40:00,53.0,24.7,29.84,WSW,247,14.0,19.0,33,0.00,,,0.00,VWS V14.01,2013-10-26 15:40:00,
2013-10-26 11:41:00,50.0,12.5,29.89,WSW,247,14.0,18.0,20,0.00,,,0.00,VWS V15.00,2013-10-26 15:41:00,
2013-10-26 11:42:00,51.0,11.4,29.89,SSW,202,19.0,19.0,21,0.00,,,0.00,VWS V15.00,2013-10-26 15:42:00,
2013-10-26 11:43:00,53.0,22.4,29.84,SW,225,20.0,20.0,29,0.00,,,0.00,VWS V14.01,2013-10-26 15:43:00,
2013-10-26 11:44:00,53.0,24.0,29.84,WSW,247,20.0,20.0,30,0.00,,,0.00,VWS V14.01,2013-10-26 15:44:00,
2013-10-26 11:45:00,53.0,24.7,29.84,SW,225,27.0,27.0,32,0.00,,,0.00,VWS V14.01,2013-10-26 15:45:00,
2013-10-26 11:46:00,53.0,23.2,29.84,SW,225,16.0,27.0,33,0.00,,,0.00,VWS V14.01,2013-10-26 15:46:00,
2013-10-26 11:47:00,51.0,12.5,29.88,SW,225,12.0,19.0,25,0.00,,,0.00,VWS V15.00,2013-10-26 15:47:00,
2013-10-26 11:48:00,53.0,23.2,29.82,SSW,202,22.0,29.0,30,0.00,,,0.00,VWS V14.01,2013-10-26 15:48:00,
2013-10-26 11:49:00,53.0,23.2,29.82,SSW,202,20.0,29.0,31,0.00,,,0.00,VWS V14.01,2013-10-26 15:49:00,
2013-10-26 11:50:00,53.0,23.2,29.82,SW,225,22.0,29.0,31,0.00,,,0.00,VWS V14.01,2013-10-26 15:50:00,
2013-10-26 11:51:00,51.0,12.5,29.88,SW,225,10.0,19.0,23,0.00,,,0.00,VWS V15.00,2013-10-26 15:51:00,
2013-10-26 11:52:00,53.0,22.4,29.82,SSW,202,19.0,29.0,31,0.00,,,0.00,VWS V14.01,2013-10-26 15:52:00,
2013-10-26 11:53:00,53.0,21.6,29.82,WSW,247,23.0,29.0,30,0.00,,,0.00,VWS V14.01,2013-10-26 15:53:00,
2013-10-26 11:54:00,53.0,22.4,29.82,WSW,247,15.0,29.0,30,0.00,,,0.00,VWS V14.01,2013-10-26 15:54:00,
2013-10-26 11:55:00,53.0,22.4,29.82,WSW,247,15.0,29.0,30,0.00,,,0.00,VWS V14.01,2013-10-26 15:55:00,
2013-10-26 11:56:00,51.0,16.3,29.87,SW,225,16.0,22.0,24,0.00,,,0.00,VWS V15.00,2013-10-26 15:56:00,
2013-10-26 11:57:00,53.0,23.2,29.82,SW,225,25.0,25.0,30,0.00,,,0.00,VWS V14.01,2013-10-26 15:57:00,
2013-10-26 11:58:00,53.0,23.2,29.83,SW,225,20.0,25.0,31,0.00,,,0.00,VWS V14.01,2013-10-26 15:58:00,
2013-10-26 11:59:00,53.0,22.4,29.83,WSW,247,21.0,25.0,31,0.00,,,0.00,VWS V14.01,2013-10-26 15:59:00,
2013-10-26 12:00:00,52.0,18.2,29.87,SW,225,15.0,22.0,24,0.00,,,0.00,VWS V15.00,2013-10-26 16:00:00,
2013-10-26 12:01:00,53.0,22.4,29.83,SW,225,22.0,25.0,29,0.00,,,0.00,VWS V14.01,2013-10-26 16:01:00,
2013-10-26 12:02:00,53.0,21.6,29.83,SSW,202,20.0,25.0,30,0.00,,,0.00,VWS V14.01,2013-10-26 16:02:00,
2013-10-26 12:03:00,52.0,15.4,29.87,SW,225,15.0,22.0,25,0.00,,,0.00,VWS V15.00,2013-10-26 16:03:00,
2013-10-26 12:04:00,53.0,22.4,29.83,South,180,22.0,25.0,31,0.00,,,0.00,VWS V14.01,2013-10-26 16:04:00,
2013-10-26 12:05:00,53.0,23.2,29.83,WSW,247,20.0,25.0,30,0.00,,,0.00,VWS V14.01,2013-10-26 16:05:00,
2013-10-26 12:06:00,52.0,19.1,29.86,SW,225,20.0,21.0,27,0.00,,,0.00,VWS V15.00,2013-10-26 16:06:00,
2013-10-26 12:07:00,53.0,23.2,29.83,SW,225,15.0,22.0,30,0.00,,,0.00,VWS V14.01,2013-10-26 16:07:00,
2013-10-26 12:08:00,53.0,24.1,29.83,SW,225,16.0,22.0,31,0.00,,,0.00,VWS V14.01,2013-10-26 16:08:00,
2013-10-26 12:09:00,54.0,23.3,29.83,WSW,247,22.0,22.0,31,0.00,,,0.00,VWS V14.01,2013-10-26 16:09:00,
2013-10-26 12:10:00,54.0,24.8,29.83,WSW,247,20.0,22.0,30,0.00,,,0.00,VWS V14.01,2013-10-26 16:10:00,
2013-10-26 12:11:00,54.0,25.6,29.83,SW,225,17.0,22.0,32,0.00,,,0.00,VWS V14.01,2013-10-26 16:11:00,
2013-10-26 12:12:00,52.0,21.5,29.86,SW,225,15.0,27.0,31,0.00,,,0.00,VWS V15.00,2013-10-26 16:12:00,
2013-10-26 12:13:00,54.0,24.8,29.83,SW,225,22.0,24.0,30,0.00,,,0.00,VWS V14.01,2013-10-26 16:13:00,
2013-10-26 12:14:00,52.0,23.1,29.86,WSW,247,25.0,27.0,31,0.00,,,0.00,VWS V15.00,2013-10-26 16:14:00,
2013-10-26 12:15:00,54.0,24.8,29.83,WSW,247,18.0,24.0,31,0.00,,,0.00,VWS V14.01,2013-10-26 16:15:00,
2013-10-26 12:16:00,54.0,25.6,29.83,West,270,19.0,24.0,32,0.00,,,0.00,VWS V14.01,2013-10-26 16:16:00,
2013-10-26 12:17:00,53.0,25.4,29.84,West,270,19.0,25.0,32,0.00,,,0.00,VWS V15.00,2013-10-26 16:17:00,
2013-10-26 12:18:00,53.0,25.4,29.84,West,270,15.0,25.0,34,0.00,,,0.00,VWS V15.00,2013-10-26 16:18:00,
2013-10-26 12:19:00,54.0,29.0,29.82,West,270,19.0,24.0,36,0.00,,,0.00,VWS V14.01,2013-10-26 16:19:00,
2013-10-26 12:20:00,53.0,26.1,29.84,WSW,247,15.0,25.0,33,0.00,,,0.00,VWS V15.00,2013-10-26 16:20:00,
2013-10-26 12:21:00,53.0,29.3,29.82,WSW,247,11.0,24.0,40,0.00,,,0.00,VWS V14.01,2013-10-26 16:21:00,
2013-10-26 12:22:00,53.0,30.2,29.82,West,270,22.0,24.0,40,0.00,,,0.00,VWS V14.01,2013-10-26 16:22:00,
2013-10-26 12:23:00,53.0,24.0,29.84,WSW,247,25.0,25.0,33,0.00,,,0.00,VWS V15.00,2013-10-26 16:23:00,
2013-10-26 12:24:00,53.0,32.6,29.82,SW,225,16.0,22.0,44,0.00,,,0.00,VWS V14.01,2013-10-26 16:24:00,
2013-10-26 12:25:00,54.0,32.0,29.82,SSW,202,16.0,22.0,44,0.00,,,0.00,VWS V14.01,2013-10-26 16:25:00,
2013-10-26 12:26:00,54.0,31.5,29.82,WSW,247,23.0,23.0,43,0.00,,,0.00,VWS V14.01,2013-10-26 16:26:00,
2013-10-26 12:27:00,54.0,34.2,29.82,WSW,247,25.0,25.0,42,0.00,,,0.00,VWS V14.01,2013-10-26 16:27:00,
2013-10-26 12:28:00,54.0,35.8,29.80,SW,225,19.0,29.0,49,0.00,,,0.00,VWS V14.01,2013-10-26 16:28:00,
2013-10-26 12:29:00,52.0,23.8,29.85,SSW,202,23.0,25.0,33,0.00,,,0.00,VWS V15.00,2013-10-26 16:29:00,
2013-10-26 12:30:00,54.0,34.8,29.80,SW,225,17.0,29.0,50,0.00,,,0.00,VWS V14.01,2013-10-26 16:30:00,
2013-10-26 12:31:00,54.0,36.8,29.80,WSW,247,17.0,29.0,50,0.00,,,0.00,VWS V14.01,2013-10-26 16:31:00,
2013-10-26 12:32:00,54.0,36.8,29.80,WSW,247,17.0,29.0,50,0.00,,,0.00,VWS V14.01,2013-10-26 16:32:00,
2013-10-26 12:33:00,53.0,24.0,29.85,SW,225,19.0,25.0,33,0.00,,,0.00,VWS V15.00,2013-10-26 16:33:00,
2013-10-26 12:34:00,54.0,36.3,29.80,SW,225,25.0,29.0,50,0.00,,,0.00,VWS V14.01,2013-10-26 16:34:00,
2013-10-26 12:35:00,54.0,35.8,29.80,WSW,247,18.0,29.0,51,0.00,,,0.00,VWS V14.01,2013-10-26 16:35:00,
2013-10-26 12:36:00,54.0,35.8,29.80,WSW,247,20.0,29.0,50,0.00,,,0.00,VWS V14.01,2013-10-26 16:36:00,
2013-10-26 12:37:00,54.0,36.3,29.80,SSW,202,14.0,29.0,50,0.00,,,0.00,VWS V14.01,2013-10-26 16:37:00,
2013-10-26 12:38:00,54.0,39.1,29.81,SSW,202,26.0,26.0,51,0.00,,,0.00,VWS V14.01,2013-10-26 16:38:00,
2013-10-26 12:39:00,54.0,38.7,29.81,West,270,22.0,26.0,55,0.00,,,0.00,VWS V14.01,2013-10-26 16:39:00,
2013-10-26 12:40:00,53.0,23.2,29.84,West,270,15.0,19.0,33,0.00,,,0.00,VWS V15.00,2013-10-26 16:40:00,
2013-10-26 12:41:00,54.0,39.1,29.81,WSW,247,22.0,26.0,56,0.00,,,0.00,VWS V14.01,2013-10-26 16:41:00,
2013-10-26 12:42:00,54.0,39.1,29.81,WSW,247,26.0,26.0,57,0.00,,,0.00,VWS V14.01,2013-10-26 16:42:00,
2013-10-26 12:43:00,54.0,39.1,29.81,SW,225,22.0,26.0,57,0.00,,,0.00,VWS V14.01,2013-10-26 16:43:00,
2013-10-26 12:44:00,53.0,24.7,29.84,SW,225,27.0,27.0,32,0.00,,,0.00,VWS V15.00,2013-10-26 16:44:00,
2013-10-26 12:45:00,53.0,23.2,29.84,SW,225,16.0,27.0,33,0.00,,,0.00,VWS V15.00,2013-10-26 16:45:00,
2013-10-26 12:46:00,54.0,39.1,29.81,WSW,247,22.0,26.0,56,0.00,,,0.00,VWS V14.01,2013-10-26 16:46:00,
2013-10-26 12:47:00,54.0,38.7,29.81,SW,225,31.0,31.0,57,0.00,,,0.00,VWS V14.01,2013-10-26 16:47:00,
2013-10-26 12:48:00,54.0,39.1,29.81,WSW,247,18.0,31.0,56,0.00,,,0.00,VWS V14.01,2013-10-26 16:48:00,
2013-10-26 12:49:00,53.0,23.2,29.82,SW,225,22.0,29.0,31,0.00,,,0.00,VWS V15.00,2013-10-26 16:49:00,
2013-10-26 12:50:00,54.0,36.8,29.81,WSW,247,29.0,31.0,55,0.00,,,0.00,VWS V14.01,2013-10-26 16:50:00,
2013-10-26 12:51:00,53.0,22.4,29.82,SSW,202,19.0,29.0,31,0.00,,,0.00,VWS V15.00,2013-10-26 16:51:00,
2013-10-26 12:52:00,54.0,37.3,29.81,SW,225,24.0,31.0,54,0.00,,,0.00,VWS V14.01,2013-10-26 16:52:00,
2013-10-26 12:53:00,54.0,37.3,29.81,SW,225,24.0,31.0,54,0.00,,,0.00,VWS V14.01,2013-10-26 16:53:00,
2013-10-26 12:54:00,54.0,36.3,29.81,SW,225,22.0,31.0,53,0.00,,,0.00,VWS V14.01,2013-10-26 16:54:00,
2013-10-26 12:55:00,53.0,37.3,29.81,SW,225,23.0,31.0,53,0.00,,,0.00,VWS V14.01,2013-10-26 16:55:00,
2013-10-26 12:56:00,53.0,36.8,29.81,SW,225,38.0,38.0,55,0.00,,,0.00,VWS V14.01,2013-10-26 16:56:00,
2013-10-26 12:57:00,53.0,23.2,29.83,SW,225,20.0,25.0,31,0.00,,,0.00,VWS V15.00,2013-10-26 16:57:00,
2013-10-26 12:58:00,53.0,35.4,29.79,SSW,202,26.0,38.0,51,0.00,,,0.00,VWS V14.01,2013-10-26 16:58:00,
2013-10-26 12:59:00,53.0,21.6,29.83,SW,225,19.0,25.0,30,0.00,,,0.00,VWS V15.00,2013-10-26 16:59:00,
2013-10-26 13:00:00,53.0,22.4,29.83,SW,225,22.0,25.0,29,0.00,,,0.00,VWS V15.00,2013-10-26 17:00:00,
2013-10-26 13:01:00,53.0,36.3,29.79,WSW,247,20.0,38.0,53,0.00,,,0.00,VWS V14.01,2013-10-26 17:01:00,
2013-10-26 13:02:00,53.0,36.8,29.79,WSW,247,19.0,38.0,53,0.00,,,0.00,VWS V14.01,2013-10-26 17:02:00,
2013-10-26 13:03:00,53.0,36.8,29.79,SW,225,15.0,38.0,54,0.00,,,0.00,VWS V14.01,2013-10-26 17:03:00,
2013-10-26 13:04:00,53.0,37.3,29.79,WSW,247,19.0,38.0,54,0.00,,,0.00,VWS V14.01,2013-10-26 17:04:00,
2013-10-26 13:05:00,53.0,22.4,29.83,SW,225,19.0,25.0,31,0.00,,,0.00,VWS V15.00,2013-10-26 17:05:00,
2013-10-26 13:06:00,53.0,36.3,29.79,SW,225,20.0,34.0,51,0.00,,,0.00,VWS V14.01,2013-10-26 17:06:00,
2013-10-26 13:07:00,53.0,36.8,29.79,WSW,247,31.0,34.0,53,0.00,,,0.00,VWS V14.01,2013-10-26 17:07:00,
2013-10-26 13:08:00,53.0,36.8,29.79,WSW,247,29.0,34.0,54,0.00,,,0.00,VWS V14.01,2013-10-26 17:08:00,
2013-10-26 13:09:00,53.0,37.3,29.79,SW,225,25.0,34.0,54,0.00,,,0.00,VWS V14.01,2013-10-26 17:09:00,
2013-10-26 13:10:00,54.0,25.6,29.83,SW,225,17.0,22.0,32,0.00,,,0.00,VWS V15.00,2013-10-26 17:10:00,
2013-10-26 13:11:00,53.0,37.3,29.79,WSW,247,31.0,34.0,55,0.00,,,0.00,VWS V14.01,2013-10-26 17:11:00,
2013-10-26 13:12:00,54.0,24.8,29.83,SW,225,22.0,24.0,30,0.00,,,0.00,VWS V15.00,2013-10-26 17:12:00,
2013-10-26 13:13:00,53.0,37.7,29.79,WSW,247,16.0,34.0,54,0.00,,,0.00,VWS V14.01,2013-10-26 17:13:00,
2013-10-26 13:14:00,53.0,37.3,29.79,WSW,247,24.0,34.0,56,0.00,,,0.00,VWS V14.01,2013-10-26 17:14:00,
2013-10-26 13:15:00,53.0,36.8,29.79,WSW,247,34.0,34.0,55,0.00,,,0.00,VWS V14.01,2013-10-26 17:15:00,
2013-10-26 13:16:00,53.0,36.8,29.79,West,270,17.0,34.0,54,0.00,,,0.00,VWS V14.01,2013-10-26 17:16:00,
2013-10-26 13:17:00,53.0,37.3,29.79,WSW,247,19.0,34.0,54,0.00,,,0.00,VWS V14.01,2013-10-26 17:17:00,
2013-10-26 13:18:00,54.0,29.0,29.82,West,270,19.0,24.0,36,0.00,,,0.00,VWS V15.00,2013-10-26 17:18:00,
2013-10-26 13:19:00,54.0,38.7,29.79,WSW,247,26.0,34.0,57,0.00,,,0.00,VWS V14.01,2013-10-26 17:19:00,
2013-10-26 13:20:00,54.0,38.7,29.79,SSW,202,18.0,34.0,56,0.00,,,0.00,VWS V14.01,2013-10-26 17:20:00,
2013-10-26 13:21:00,54.0,38.2,29.79,SSW,202,20.0,34.0,56,0.00,,,0.00,VWS V14.01,2013-10-26 17:21:00,
2013-10-26 13:22:00,54.0,31.7,29.82,WSW,247,16.0,24.0,40,0.00,,,0.00,VWS V15.00,2013-10-26 17:22:00,
2013-10-26 13:23:00,54.0,38.2,29.79,WSW,247,24.0,34.0,56,0.00,,,0.00,VWS V14.01,2013-10-26 17:23:00,
2013-10-26 13:24:00,54.0,32.0,29.82,SSW,202,16.0,22.0,44,0.00,,,0.00,VWS V15.00,2013-10-26 17:24:00,
2013-10-26 13:25:00,54.0,37.3,29.79,WSW,247,23.0,27.0,56,0.00,,,0.00,VWS V14.01,2013-10-26 17:25:00,
2013-10-26 13:26:00,54.0,38.7,29.79,SW,225,17.0,27.0,53,0.00,,,0.00,VWS V14.01,2013-10-26 17:26:00,
2013-10-26 13:27:00,54.0,35.3,29.80,SW,225,29.0,29.0,47,0.00,,,0.00,VWS V15.00,2013-10-26 17:27:00,
2013-10-26 13:28:00,54.0,35.8,29.80,SW,225,19.0,29.0,49,0.00,,,0.00,VWS V15.00,2013-10-26 17:28:00,
2013-10-26 13:29:00,54.0,40.0,29.78,WSW,247,25.0,27.0,56,0.00,,,0.00,VWS V14.01,2013-10-26 17:29:00,
2013-10-26 13:30:00,54.0,35.8,29.80,WSW,247,20.0,29.0,48,0.00,,,0.00,VWS V15.00,2013-10-26 17:30:00,
2013-10-26 13:31:00,53.0,39.1,29.78,SW,225,20.0,32.0,59,0.00,,,0.00,VWS V14.01,2013-10-26 17:31:00,
2013-10-26 13:32:00,53.0,39.5,29.78,WSW,247,22.0,32.0,59,0.00,,,0.00,VWS V14.01,2013-10-26 17:32:00,
2013-10-26 13:33:00,54.0,36.3,29.80,SW,225,25.0,29.0,50,0.00,,,0.00,VWS V15.00,2013-10-26 17:33:00,
2013-10-26 13:34:00,53.0,39.5,29.78,SSW,202,25.0,32.0,60,0.00,,,0.00,VWS V14.01,2013-10-26 17:34:00,
2013-10-26 13:35:00,54.0,35.8,29.80,WSW,247,20.0,29.0,50,0.00,,,0.00,VWS V15.00,2013-10-26 17:35:00,
2013-10-26 13:36:00,54.0,40.4,29.78,SW,225,25.0,32.0,60,0.00,,,0.00,VWS V14.01,2013-10-26 17:36:00,
2013-10-26 13:37:00,54.0,39.9,29.78,SW,225,20.0,32.0,60,0.00,,,0.00,VWS V14.01,2013-10-26 17:37:00,
2013-10-26 13:38:00,53.0,40.9,29.77,WSW,247,29.0,32.0,61,0.00,,,0.00,VWS V14.01,2013-10-26 17:38:00,
2013-10-26 13:39:00,54.0,40.9,29.77,SSW,202,27.0,32.0,61,0.00,,,0.00,VWS V14.01,2013-10-26 17:39:00,
2013-10-26 13:40:00,54.0,40.4,29.77,SW,225,25.0,29.0,61,0.00,,,0.00,VWS V14.01,2013-10-26 17:40:00,
2013-10-26 13:41:00,54.0,39.1,29.81,WSW,247,26.0,26.0,57,0.00,,,0.00,VWS V15.00,2013-10-26 17:41:00,
2013-10-26 13:42:00,54.0,40.0,29.77,SSW,202,31.0,31.0,61,0.00,,,0.00,VWS V14.01,2013-10-26 17:42:00,
2013-10-26 13:43:00,54.0,41.3,29.77,WSW,247,23.0,31.0,59,0.00,,,0.00,VWS V14.01,2013-10-26 17:43:00,
2013-10-26 13:44:00,54.0,40.9,29.77,SW,225,18.0,31.0,62,0.00,,,0.00,VWS V14.01,2013-10-26 17:44:00,
2013-10-26 13:45:00,54.0,41.3,29.77,WSW,247,19.0,31.0,61,0.00,,,0.00,VWS V14.01,2013-10-26 17:45:00,
2013-10-26 13:46:00,54.0,41.3,29.77,SW,225,33.0,33.0,62,0.00,,,0.00,VWS V14.01,2013-10-26 17:46:00,
2013-10-26 13:47:00,54.0,39.1,29.81,WSW,247,18.0,31.0,56,0.00,,,0.00,VWS V15.00,2013-10-26 17:47:00,
2013-10-26 13:48:00,54.0,38.2,29.81,SW,225,23.0,31.0,57,0.00,,,0.00,VWS V15.00,2013-10-26 17:48:00,
2013-10-26 13:49:00,54.0,41.3,29.77,WSW,247,23.0,33.0,63,0.00,,,0.00,VWS V14.01,2013-10-26 17:49:00,
2013-10-26 13:50:00,54.0,41.3,29.77,SW,225,23.0,33.0,62,0.00,,,0.00,VWS V14.01,2013-10-26 17:50:00,
2013-10-26 13:51:00,54.0,41.3,29.77,West,270,19.0,33.0,62,0.00,,,0.00,VWS V14.01,2013-10-26 17:51:00,
2013-10-26 13:52:00,54.0,42.1,29.77,West,270,18.0,33.0,62,0.00,,,0.00,VWS V14.01,2013-10-26 17:52:00,
2013-10-26 13:53:00,54.0,41.7,29.77,SSW,202,17.0,33.0,64,0.00,,,0.00,VWS V14.01,2013-10-26 17:53:00,
2013-10-26 13:54:00,54.0,41.7,29.77,WSW,247,15.0,33.0,63,0.00,,,0.00,VWS V14.01,2013-10-26 17:54:00,
2013-10-26 13:55:00,54.0,41.7,29.77,SSW,202,25.0,26.0,63,0.00,,,0.00,VWS V14.01,2013-10-26 17:55:00,
2013-10-26 13:56:00,53.0,35.4,29.81,SW,225,26.0,38.0,54,0.00,,,0.00,VWS V15.00,2013-10-26 17:56:00,
2013-10-26 13:57:00,54.0,41.7,29.77,SW,225,27.0,27.0,63,0.00,,,0.00,VWS V14.01,2013-10-26 17:57:00,
2013-10-26 13:58:00,54.0,41.7,29.78,WSW,247,24.0,27.0,63,0.00,,,0.00,VWS V14.01,2013-10-26 17:58:00,
2013-10-26 13:59:00,54.0,42.1,29.78,SW,225,26.0,27.0,63,0.00,,,0.00,VWS V14.01,2013-10-26 17:59:00,
2013-10-26 14:00:00,54.0,41.3,29.78,WSW,247,26.0,27.0,64,0.00,,,0.00,VWS V14.01,2013-10-26 18:00:00,
2013-10-26 14:01:00,53.0,36.8,29.79,WSW,247,19.0,38.0,53,0.00,,,0.00,VWS V15.00,2013-10-26 18:01:00,
2013-10-26 14:02:00,53.0,36.8,29.79,SW,225,15.0,38.0,54,0.00,,,0.00,VWS V15.00,2013-10-26 18:02:00,
2013-10-26 14:03:00,54.0,41.7,29.78,WSW,247,26.0,27.0,64,0.00,,,0.00,VWS V14.01,2013-10-26 18:03:00,
2013-10-26 14:04:00,54.0,42.1,29.78,WSW,247,20.0,27.0,63,0.00,,,0.00,VWS V14.01,2013-10-26 18:04:00,
2013-10-26 14:05:00,54.0,41.3,29.78,WSW,247,22.0,27.0,64,0.00,,,0.00,VWS V14.01,2013-10-26 18:05:00,
2013-10-26 14:06:00,54.0,42.1,29.78,WSW,247,21.0,27.0,62,0.00,,,0.00,VWS V14.01,2013-10-26 18:06:00,
2013-10-26 14:07:00,54.0,42.1,29.78,West,270,28.0,28.0,64,0.00,,,0.00,VWS V14.01,2013-10-26 18:07:00,
2013-10-26 14:08:00,54.0,42.1,29.77,WSW,247,20.0,28.0,64,0.00,,,0.00,VWS V14.01,2013-10-26 18:08:00,
2013-10-26 14:09:00,54.0,42.1,29.77,WSW,247,24.0,28.0,64,0.00,,,0.00,VWS V14.01,2013-10-26 18:09:00,
2013-10-26 14:10:00,53.0,37.3,29.79,WSW,247,31.0,34.0,55,0.00,,,0.00,VWS V15.00,2013-10-26 18:10:00,
2013-10-26 14:11:00,54.0,42.1,29.77,WSW,247,29.0,29.0,64,0.00,,,0.00,VWS V14.01,2013-10-26 18:11:00,
2013-10-26 14:12:00,53.0,37.7,29.79,WSW,247,16.0,34.0,54,0.00,,,0.00,VWS V15.00,2013-10-26 18:12:00,
2013-10-26 14:13:00,54.0,42.1,29.77,SW,225,26.0,29.0,64,0.00,,,0.00,VWS V14.01,2013-10-26 18:13:00,
2013-10-26 14:14:00,54.0,42.1,29.77,SSW,202,25.0,34.0,65,0.00,,,0.00,VWS V14.01,2013-10-26 18:14:00,
2013-10-26 14:15:00,54.0,42.1,29.77,SSW,202,25.0,34.0,65,0.00,,,0.00,VWS V14.01,2013-10-26 18:15:00,
2013-10-26 14:16:00,54.0,42.1,29.77,SW,225,22.0,34.0,64,0.00,,,0.00,VWS V14.01,2013-10-26 18:16:00,
2013-10-26 14:17:00,54.0,39.1,29.79,WSW,247,20.0,34.0,53,0.00,,,0.00,VWS V15.00,2013-10-26 18:17:00,
2013-10-26 14:18:00,54.0,38.7,29.79,WSW,247,26.0,34.0,57,0.00,,,0.00,VWS V15.00,2013-10-26 18:18:00,
2013-10-26 14:19:00,54.0,38.7,29.79,SSW,202,18.0,34.0,56,0.00,,,0.00,VWS V15.00,2013-10-26 18:19:00,
2013-10-26 14:20:00,54.0,42.1,29.75,SSW,202,22.0,34.0,64,0.00,,,0.00,VWS V14.01,2013-10-26 18:20:00,
2013-10-26 14:21:00,54.0,42.1,29.75,WSW,247,20.0,34.0,64,0.00,,,0.00,VWS V14.01,2013-10-26 18:21:00,
2013-10-26 14:22:00,54.0,42.1,29.75,SSW,202,31.0,34.0,64,0.00,,,0.00,VWS V14.01,2013-10-26 18:22:00,
2013-10-26 14:23:00,53.0,38.7,29.79,WSW,247,27.0,34.0,57,0.00,,,0.00,VWS V15.00,2013-10-26 18:23:00,
2013-10-26 14:24:00,54.0,42.1,29.75,WSW,247,26.0,31.0,64,0.00,,,0.00,VWS V14.01,2013-10-26 18:24:00,
2013-10-26 14:25:00,54.0,38.7,29.79,SW,225,17.0,27.0,53,0.00,,,0.00,VWS V15.00,2013-10-26 18:25:00,
2013-10-26 14:26:00,54.0,42.1,29.75,SW,225,17.0,31.0,64,0.00,,,0.00,VWS V14.01,2013-10-26 18:26:00,
2013-10-26 14:27:00,54.0,38.7,29.78,SW,225,18.0,27.0,54,0.00,,,0.00,VWS V15.00,2013-10-26 18:27:00,
2013-10-26 14:28:00,54.0,40.0,29.78,WSW,247,25.0,27.0,56,0.00,,,0.00,VWS V15.00,2013-10-26 18:28:00,
2013-10-26 14:29:00,54.0,39.1,29.78,WSW,247,32.0,32.0,59,0.00,,,0.00,VWS V15.00,2013-10-26 18:29:00,
2013-10-26 14:30:00,53.0,41.6,29.75,WSW,247,17.0,31.0,65,0.00,,,0.00,VWS V14.01,2013-10-26 18:30:00,
2013-10-26 14:31:00,53.0,41.2,29.75,West,270,28.0,31.0,65,0.00,,,0.00,VWS V14.01,2013-10-26 18:31:00,
2013-10-26 14:32:00,53.0,39.5,29.78,SW,225,19.0,32.0,60,0.00,,,0.00,VWS V15.00,2013-10-26 18:32:00,
2013-10-26 14:33:00,54.0,42.5,29.75,SW,225,26.0,28.0,65,0.00,,,0.00,VWS V14.01,2013-10-26 18:33:00,
2013-10-26 14:34:00,54.0,42.5,29.75,SW,225,23.0,28.0,65,0.00,,,0.00,VWS V14.01,2013-10-26 18:34:00,
2013-10-26 14:35:00,54.0,42.5,29.75,SW,225,20.0,28.0,65,0.00,,,0.00,VWS V14.01,2013-10-26 18:35:00,
2013-10-26 14:36:00,54.0,39.9,29.78,SW,225,20.0,32.0,60,0.00,,,0.00,VWS V15.00,2013-10-26 18:36:00,
2013-10-26 14:37:00,53.0,40.9,29.77,WSW,247,29.0,32.0,61,0.00,,,0.00,VWS V15.00,2013-10-26 18:37:00,
2013-10-26 14:38:00,54.0,42.9,29.75,SW,225,22.0,28.0,65,0.00,,,0.00,VWS V14.01,2013-10-26 18:38:00,
2013-10-26 14:39:00,54.0,40.4,29.77,SW,225,25.0,29.0,61,0.00,,,0.00,VWS V15.00,2013-10-26 18:39:00,
2013-10-26 14:40:00,53.0,41.6,29.75,SW,225,21.0,28.0,65,0.00,,,0.00,VWS V14.01,2013-10-26 18:40:00,
2013-10-26 14:41:00,53.0,42.5,29.75,SW,225,19.0,27.0,65,0.00,,,0.00,VWS V14.01,2013-10-26 18:41:00,
2013-10-26 14:42:00,54.0,41.3,29.77,WSW,247,23.0,31.0,59,0.00,,,0.00,VWS V15.00,2013-10-26 18:42:00,
2013-10-26 14:43:00,54.0,42.5,29.75,WSW,247,17.0,27.0,65,0.00,,,0.00,VWS V14.01,2013-10-26 18:43:00,
2013-10-26 14:44:00,54.0,42.5,29.75,WSW,247,17.0,27.0,65,0.00,,,0.00,VWS V14.01,2013-10-26 18:44:00,
2013-10-26 14:45:00,54.0,41.3,29.77,SW,225,33.0,33.0,62,0.00,,,0.00,VWS V15.00,2013-10-26 18:45:00,
2013-10-26 14:46:00,54.0,42.5,29.75,WSW,247,19.0,26.0,65,0.00,,,0.00,VWS V14.01,2013-10-26 18:46:00,
2013-10-26 14:47:00,54.0,42.1,29.75,West,270,28.0,28.0,65,0.00,,,0.00,VWS V14.01,2013-10-26 18:47:00,
2013-10-26 14:48:00,54.0,41.3,29.77,WSW,247,23.0,33.0,63,0.00,,,0.00,VWS V15.00,2013-10-26 18:48:00,
2013-10-26 14:49:00,54.0,42.0,29.75,WSW,247,18.0,31.0,65,0.00,,,0.00,VWS V14.01,2013-10-26 18:49:00,
2013-10-26 14:50:00,53.0,41.6,29.75,WSW,247,17.0,31.0,66,0.00,,,0.00,VWS V14.01,2013-10-26 18:50:00,
2013-10-26 14:51:00,53.0,41.6,29.75,West,270,22.0,31.0,65,0.00,,,0.00,VWS V14.01,2013-10-26 18:51:00,
2013-10-26 14:52:00,53.0,40.8,29.75,WSW,247,15.0,31.0,65,0.00,,,0.00,VWS V14.01,2013-10-26 18:52:00,
2013-10-26 14:53:00,53.0,41.2,29.75,West,270,25.0,31.0,63,0.00,,,0.00,VWS V14.01,2013-10-26 18:53:00,
2013-10-26 14:54:00,54.0,41.7,29.77,WSW,247,26.0,33.0,63,0.00,,,0.00,VWS V15.00,2013-10-26 18:54:00,
2013-10-26 14:55:00,53.0,40.8,29.75,West,270,29.0,31.0,63,0.00,,,0.00,VWS V14.01,2013-10-26 18:55:00,
2013-10-26 14:56:00,53.0,41.2,29.75,WSW,247,19.0,31.0,63,0.00,,,0.00,VWS V14.01,2013-10-26 18:56:00,
2013-10-26 14:57:00,53.0,40.8,29.75,WSW,247,28.0,31.0,64,0.00,,,0.00,VWS V14.01,2013-10-26 18:57:00,
2013-10-26 14:58:00,54.0,42.1,29.78,SW,225,26.0,27.0,63,0.00,,,0.00,VWS V15.00,2013-10-26 18:58:00,
2013-10-26 14:59:00,53.0,40.3,29.77,WSW,247,18.0,29.0,63,0.00,,,0.00,VWS V14.01,2013-10-26 18:59:00,
2013-10-26 15:00:00,54.0,42.1,29.78,SW,225,16.0,27.0,62,0.00,,,0.00,VWS V15.00,2013-10-26 19:00:00,
2013-10-26 15:01:00,54.0,42.1,29.78,WSW,247,20.0,27.0,64,0.00,,,0.00,VWS V15.00,2013-10-26 19:01:00,
2013-10-26 15:02:00,53.0,41.6,29.77,WSW,247,16.0,29.0,63,0.00,,,0.00,VWS V14.01,2013-10-26 19:02:00,
2013-10-26 15:03:00,53.0,41.6,29.77,West,270,20.0,29.0,65,0.00,,,0.00,VWS V14.01,2013-10-26 19:03:00,
2013-10-26 15:04:00,54.0,41.3,29.78,WSW,247,22.0,27.0,64,0.00,,,0.00,VWS V15.00,2013-10-26 19:04:00,
2013-10-26 15:05:00,54.0,42.1,29.77,WSW,247,19.0,28.0,65,0.00,,,0.00,VWS V14.01,2013-10-26 19:05:00,
2013-10-26 15:06:00,54.0,42.5,29.77,WSW,247,22.0,28.0,64,0.00,,,0.00,VWS V14.01,2013-10-26 19:06:00,
2013-10-26 15:07:00,54.0,42.1,29.77,WSW,247,20.0,28.0,64,0.00,,,0.00,VWS V15.00,2013-10-26 19:07:00,
2013-10-26 15:08:00,54.0,42.1,29.75,SW,225,27.0,27.0,64,0.00,,,0.00,VWS V14.01,2013-10-26 19:08:00,
2013-10-26 15:09:00,54.0,42.1,29.75,SW,225,15.0,27.0,64,0.00,,,0.00,VWS V14.01,2013-10-26 19:09:00,
2013-10-26 15:10:00,54.0,42.1,29.77,WSW,247,29.0,29.0,64,0.00,,,0.00,VWS V15.00,2013-10-26 19:10:00,
2013-10-26 15:11:00,53.0,42.1,29.75,SW,225,35.0,35.0,64,0.00,,,0.00,VWS V14.01,2013-10-26 19:11:00,
2013-10-26 15:12:00,54.0,42.1,29.77,SW,225,26.0,29.0,64,0.00,,,0.00,VWS V15.00,2013-10-26 19:12:00,
2013-10-26 15:13:00,54.0,42.1,29.75,SW,225,18.0,35.0,64,0.00,,,0.00,VWS V14.01,2013-10-26 19:13:00,
2013-10-26 15:14:00,54.0,42.1,29.75,WSW,247,20.0,35.0,64,0.00,,,0.00,VWS V14.01,2013-10-26 19:14:00,
2013-10-26 15:15:00,54.0,42.5,29.75,SW,225,23.0,35.0,64,0.00,,,0.00,VWS V14.01,2013-10-26 19:15:00,
2013-10-26 15:16:00,54.0,42.5,29.77,WSW,247,24.0,34.0,64,0.00,,,0.00,VWS V15.00,2013-10-26 19:16:00,
2013-10-26 15:17:00,54.0,42.5,29.75,WSW,247,29.0,34.0,65,0.00,,,0.00,VWS V15.00,2013-10-26 19:17:00,
2013-10-26 15:18:00,54.0,42.1,29.75,SW,225,22.0,34.0,65,0.00,,,0.00,VWS V15.00,2013-10-26 19:18:00,
2013-10-26 15:19:00,54.0,42.0,29.75,SSW,202,20.0,35.0,65,0.00,,,0.00,VWS V14.01,2013-10-26 19:19:00,
2013-10-26 15:20:00,53.0,42.5,29.75,SW,225,33.0,35.0,66,0.00,,,0.00,VWS V14.01,2013-10-26 19:20:00,
2013-10-26 15:21:00,54.0,42.0,29.75,SW,225,36.0,36.0,65,0.00,,,0.00,VWS V14.01,2013-10-26 19:21:00,
2013-10-26 15:22:00,54.0,42.1,29.75,WSW,247,19.0,34.0,64,0.00,,,0.00,VWS V15.00,2013-10-26 19:22:00,
2013-10-26 15:23:00,54.0,42.1,29.75,WSW,247,26.0,31.0,64,0.00,,,0.00,VWS V15.00,2013-10-26 19:23:00,
2013-10-26 15:24:00,54.0,42.5,29.75,WSW,247,20.0,36.0,65,0.00,,,0.00,VWS V14.01,2013-10-26 19:24:00,
2013-10-26 15:25:00,54.0,42.5,29.75,SW,225,20.0,36.0,65,0.00,,,0.00,VWS V14.01,2013-10-26 19:25:00,
2013-10-26 15:26:00,54.0,42.5,29.75,SW,225,20.0,36.0,65,0.00,,,0.00,VWS V14.01,2013-10-26 19:26:00,
2013-10-26 15:27:00,54.0,42.5,29.75,WSW,247,26.0,31.0,65,0.00,,,0.00,VWS V15.00,2013-10-26 19:27:00,
2013-10-26 15:28:00,54.0,41.6,29.73,SW,225,17.0,36.0,65,0.00,,,0.00,VWS V14.01,2013-10-26 19:28:00,
2013-10-26 15:29:00,54.0,41.6,29.73,SW,225,17.0,36.0,65,0.00,,,0.00,VWS V14.01,2013-10-26 19:29:00,
2013-10-26 15:30:00,53.0,42.0,29.73,WSW,247,28.0,36.0,65,0.00,,,0.00,VWS V14.01,2013-10-26 19:30:00,
2013-10-26 15:31:00,53.0,41.6,29.73,WSW,247,23.0,28.0,66,0.00,,,0.00,VWS V14.01,2013-10-26 19:31:00,
2013-10-26 15:32:00,53.0,41.6,29.73,WSW,247,27.0,28.0,65,0.00,,,0.00,VWS V14.01,2013-10-26 19:32:00,
2013-10-26 15:33:00,54.0,42.5,29.75,SW,225,23.0,28.0,65,0.00,,,0.00,VWS V15.00,2013-10-26 19:33:00,
2013-10-26 15:34:00,53.0,41.6,29.73,WSW,247,21.0,28.0,66,0.00,,,0.00,VWS V14.01,2013-10-26 19:34:00,
2013-10-26 15:35:00,53.0,42.5,29.73,WSW,247,23.0,28.0,65,0.00,,,0.00,VWS V14.01,2013-10-26 19:35:00,
2013-10-26 15:36:00,54.0,42.0,29.73,WSW,247,23.0,28.0,65,0.00,,,0.00,VWS V14.01,2013-10-26 19:36:00,
2013-10-26 15:37:00,53.0,42.0,29.73,WSW,247,26.0,28.0,66,0.00,,,0.00,VWS V14.01,2013-10-26 19:37:00,
2013-10-26 15:38:00,53.0,41.6,29.76,West,270,27.0,28.0,66,0.00,,,0.00,VWS V14.01,2013-10-26 19:38:00,
2013-10-26 15:39:00,53.0,41.6,29.75,SW,225,21.0,28.0,65,0.00,,,0.00,VWS V15.00,2013-10-26 19:39:00,
2013-10-26 15:40:00,53.0,41.6,29.76,SW,225,17.0,27.0,66,0.00,,,0.00,VWS V14.01,2013-10-26 19:40:00,
2013-10-26 15:41:00,54.0,42.5,29.75,WSW,247,26.0,27.0,65,0.00,,,0.00,VWS V15.00,2013-10-26 19:41:00,
2013-10-26 15:42:00,53.0,41.6,29.76,SSW,202,18.0,27.0,64,0.00,,,0.00,VWS V14.01,2013-10-26 19:42:00,
2013-10-26 15:43:00,53.0,41.6,29.76,SW,225,28.0,28.0,65,0.00,,,0.00,VWS V14.01,2013-10-26 19:43:00,
2013-10-26 15:44:00,53.0,42.5,29.76,WSW,247,17.0,28.0,65,0.00,,,0.00,VWS V14.01,2013-10-26 19:44:00,
2013-10-26 15:45:00,54.0,42.5,29.75,WSW,247,19.0,26.0,65,0.00,,,0.00,VWS V15.00,2013-10-26 19:45:00,
2013-10-26 15:46:00,54.0,41.2,29.76,SW,225,25.0,28.0,66,0.00,,,0.00,VWS V14.01,2013-10-26 19:46:00,
2013-10-26 15:47:00,53.0,42.5,29.76,SW,225,37.0,37.0,64,0.00,,,0.00,VWS V14.01,2013-10-26 19:47:00,
2013-10-26 15:48:00,54.0,42.0,29.75,WSW,247,18.0,31.0,65,0.00,,,0.00,VWS V15.00,2013-10-26 19:48:00,
2013-10-26 15:49:00,53.0,41.6,29.75,WSW,247,17.0,31.0,66,0.00,,,0.00,VWS V15.00,2013-10-26 19:49:00,
2013-10-26 15:50:00,54.0,42.0,29.75,SSW,202,29.0,37.0,65,0.00,,,0.00,VWS V14.01,2013-10-26 19:50:00,
2013-10-26 15:51:00,53.0,42.0,29.75,West,270,17.0,37.0,66,0.00,,,0.00,VWS V14.01,2013-10-26 19:51:00,
2013-10-26 15:52:00,53.0,42.0,29.75,WSW,247,20.0,37.0,66,0.01,,,0.01,VWS V14.01,2013-10-26 19:52:00,
2013-10-26 15:53:00,53.0,42.0,29.75,WSW,247,29.0,37.0,66,0.01,,,0.01,VWS V14.01,2013-10-26 19:53:00,
2013-10-26 15:54:00,53.0,41.6,29.75,WSW,247,14.0,37.0,66,0.01,,,0.01,VWS V14.01,2013-10-26 19:54:00,
2013-10-26 15:55:00,53.0,41.6,29.75,WSW,247,17.0,37.0,65,0.01,,,0.01,VWS V14.01,2013-10-26 19:55:00,
2013-10-26 15:56:00,53.0,40.8,29.75,WSW,247,28.0,31.0,64,0.00,,,0.00,VWS V15.00,2013-10-26 19:56:00,
2013-10-26 15:57:00,53.0,42.0,29.75,WSW,247,27.0,29.0,66,0.01,,,0.01,VWS V14.01,2013-10-26 19:57:00,
2013-10-26 15:58:00,53.0,42.0,29.75,WSW,247,22.0,29.0,66,0.01,,,0.01,VWS V14.01,2013-10-26 19:58:00,
2013-10-26 15:59:00,53.0,42.0,29.75,WSW,247,25.0,29.0,66,0.01,,,0.01,VWS V14.01,2013-10-26 19:59:00,
2013-10-26 16:00:00,53.0,42.0,29.75,SW,225,24.0,29.0,66,0.01,,,0.01,VWS V14.01,2013-10-26 20:00:00,
2013-10-26 16:01:00,53.0,41.6,29.77,WSW,247,16.0,29.0,63,0.00,,,0.00,VWS V15.00,2013-10-26 20:01:00,
2013-10-26 16:02:00,53.0,42.0,29.75,SW,225,29.0,29.0,66,0.01,,,0.01,VWS V14.01,2013-10-26 20:02:00,
2013-10-26 16:03:00,53.0,42.5,29.77,SW,225,15.0,29.0,65,0.00,,,0.00,VWS V15.00,2013-10-26 20:03:00,
2013-10-26 16:04:00,53.0,42.0,29.75,WSW,247,23.0,29.0,66,0.01,,,0.01,VWS V14.01,2013-10-26 20:04:00,
2013-10-26 16:05:00,53.0,42.3,29.75,SSW,202,26.0,29.0,66,0.01,,,0.01,VWS V14.01,2013-10-26 20:05:00,
2013-10-26 16:06:00,53.0,42.0,29.75,SSW,202,23.0,29.0,67,0.01,,,0.01,VWS V14.01,2013-10-26 20:06:00,
2013-10-26 16:07:00,53.0,42.0,29.75,SW,225,30.0,30.0,66,0.01,,,0.01,VWS V14.01,2013-10-26 20:07:00,
2013-10-26 16:08:00,54.0,42.1,29.75,SW,225,15.0,27.0,64,0.00,,,0.00,VWS V15.00,2013-10-26 20:08:00,
2013-10-26 16:09:00,53.0,41.6,29.73,WSW,247,15.0,30.0,65,0.01,,,0.01,VWS V14.01,2013-10-26 20:09:00,
2013-10-26 16:10:00,53.0,42.0,29.73,WSW,247,21.0,30.0,65,0.01,,,0.01,VWS V14.01,2013-10-26 20:10:00,
2013-10-26 16:11:00,53.0,41.6,29.73,SW,225,25.0,30.0,66,0.01,,,0.01,VWS V14.01,2013-10-26 20:11:00,
2013-10-26 16:12:00,54.0,42.1,29.75,SW,225,18.0,35.0,64,0.00,,,0.00,VWS V15.00,2013-10-26 20:12:00,
2013-10-26 16:13:00,53.0,41.6,29.73,SW,225,17.0,30.0,66,0.01,,,0.01,VWS V14.01,2013-10-26 20:13:00,
2013-10-26 16:14:00,54.0,42.5,29.75,SW,225,23.0,35.0,64,0.00,,,0.00,VWS V15.00,2013-10-26 20:14:00,
2013-10-26 16:15:00,54.0,41.7,29.73,SSW,202,26.0,30.0,64,0.01,,,0.01,VWS V14.01,2013-10-26 20:15:00,
2013-10-26 16:16:00,54.0,42.5,29.73,SSW,202,20.0,30.0,63,0.01,,,0.01,VWS V14.01,2013-10-26 20:16:00,
2013-10-26 16:17:00,54.0,42.5,29.73,SW,225,22.0,26.0,65,0.01,,,0.01,VWS V14.01,2013-10-26 20:17:00,
2013-10-26 16:18:00,54.0,41.6,29.75,WSW,247,17.0,26.0,65,0.01,,,0.01,VWS V14.01,2013-10-26 20:18:00,
2013-10-26 16:19:00,53.0,41.2,29.75,SSW,202,19.0,26.0,65,0.01,,,0.01,VWS V14.01,2013-10-26 20:19:00,
2013-10-26 16:20:00,53.0,41.6,29.75,SW,225,22.0,26.0,64,0.01,,,0.01,VWS V14.01,2013-10-26 20:20:00,
2013-10-26 16:21:00,53.0,41.6,29.75,WSW,247,23.0,26.0,65,0.01,,,0.01,VWS V14.01,2013-10-26 20:21:00,
2013-10-26 16:22:00,53.0,41.6,29.75,WSW,247,23.0,26.0,65,0.01,,,0.01,VWS V14.01,2013-10-26 20:22:00,
2013-10-26 16:23:00,54.0,42.5,29.75,WSW,247,20.0,36.0,65,0.00,,,0.00,VWS V15.00,2013-10-26 20:23:00,
2013-10-26 16:24:00,53.0,41.6,29.75,SSW,202,23.0,31.0,65,0.01,,,0.01,VWS V14.01,2013-10-26 20:24:00,
2013-10-26 16:25:00,53.0,41.6,29.75,WSW,247,16.0,31.0,65,0.01,,,0.01,VWS V14.01,2013-10-26 20:25:00,
2013-10-26 16:26:00,54.0,41.2,29.75,SW,225,23.0,36.0,65,0.00,,,0.00,VWS V15.00,2013-10-26 20:26:00,
2013-10-26 16:27:00,53.0,41.2,29.75,SW,225,19.0,31.0,64,0.01,,,0.01,VWS V14.01,2013-10-26 20:27:00,
2013-10-26 16:28:00,53.0,40.8,29.73,WSW,247,17.0,31.0,64,0.01,,,0.01,VWS V14.01,2013-10-26 20:28:00,
2013-10-26 16:29:00,53.0,42.0,29.73,WSW,247,28.0,36.0,65,0.00,,,0.00,VWS V15.00,2013-10-26 20:29:00,
2013-10-26 16:30:00,53.0,41.6,29.73,WSW,247,19.0,31.0,63,0.01,,,0.01,VWS V14.01,2013-10-26 20:30:00,
2013-10-26 16:31:00,53.0,41.6,29.73,WSW,247,27.0,28.0,65,0.00,,,0.00,VWS V15.00,2013-10-26 20:31:00,
2013-10-26 16:32:00,53.0,41.2,29.73,WSW,247,20.0,31.0,64,0.01,,,0.01,VWS V14.01,2013-10-26 20:32:00,
2013-10-26 16:33:00,53.0,41.2,29.73,SSW,202,17.0,23.0,64,0.01,,,0.01,VWS V14.01,2013-10-26 20:33:00,
2013-10-26 16:34:00,53.0,42.5,29.73,WSW,247,23.0,28.0,65,0.00,,,0.00,VWS V15.00,2013-10-26 20:34:00,
2013-10-26 16:35:00,54.0,42.0,29.73,WSW,247,23.0,28.0,65,0.00,,,0.00,VWS V15.00,2013-10-26 20:35:00,
2013-10-26 16:36:00,53.0,42.0,29.73,WSW,247,30.0,30.0,65,0.01,,,0.01,VWS V14.01,2013-10-26 20:36:00,
2013-10-26 16:37:00,53.0,42.0,29.73,WSW,247,30.0,30.0,65,0.01,,,0.01,VWS V14.01,2013-10-26 20:37:00,
2013-10-26 16:38:00,53.0,42.0,29.73,WSW,247,22.0,30.0,66,0.01,,,0.01,VWS V14.01,2013-10-26 20:38:00,
2013-10-26 16:39:00,53.0,41.6,29.76,SW,225,17.0,27.0,66,0.00,,,0.00,VWS V15.00,2013-10-26 20:39:00,
2013-10-26 16:40:00,53.0,41.2,29.76,WSW,247,15.0,27.0,65,0.00,,,0.00,VWS V15.00,2013-10-26 20:40:00,
2013-10-26 16:41:00,53.0,41.6,29.76,SSW,202,18.0,27.0,64,0.00,,,0.00,VWS V15.00,2013-10-26 20:41:00,
2013-10-26 16:42:00,53.0,41.6,29.73,SW,225,19.0,37.0,66,0.01,,,0.01,VWS V14.01,2013-10-26 20:42:00,
2013-10-26 16:43:00,53.0,41.6,29.73,SW,225,29.0,37.0,65,0.01,,,0.01,VWS V14.01,2013-10-26 20:43:00,
2013-10-26 16:44:00,53.0,41.6,29.73,SSW,202,19.0,37.0,65,0.01,,,0.01,VWS V14.01,2013-10-26 20:44:00,
2013-10-26 16:45:00,54.0,41.2,29.76,SW,225,25.0,28.0,66,0.00,,,0.00,VWS V15.00,2013-10-26 20:45:00,
2013-10-26 16:46:00,53.0,42.5,29.76,SW,225,37.0,37.0,64,0.00,,,0.00,VWS V15.00,2013-10-26 20:46:00,
2013-10-26 16:47:00,53.0,41.6,29.73,WSW,247,23.0,37.0,66,0.01,,,0.01,VWS V14.01,2013-10-26 20:47:00,
2013-10-26 16:48:00,53.0,42.0,29.70,WSW,247,36.0,37.0,65,0.01,,,0.01,VWS V14.01,2013-10-26 20:48:00,
2013-10-26 16:49:00,53.0,42.0,29.70,WSW,247,28.0,37.0,66,0.01,,,0.01,VWS V14.01,2013-10-26 20:49:00,
2013-10-26 16:50:00,53.0,41.6,29.70,WSW,247,23.0,37.0,66,0.01,,,0.01,VWS V14.01,2013-10-26 20:50:00,
2013-10-26 16:51:00,53.0,42.0,29.75,WSW,247,20.0,37.0,66,0.01,,,0.01,VWS V15.00,2013-10-26 20:51:00,
2013-10-26 16:52:00,53.0,42.0,29.70,SW,225,26.0,36.0,66,0.01,,,0.01,VWS V14.01,2013-10-26 20:52:00,
2013-10-26 16:53:00,53.0,42.0,29.70,SW,225,31.0,36.0,66,0.00,,,0.01,VWS V14.01,2013-10-26 20:53:00,
2013-10-26 16:54:00,53.0,41.6,29.75,WSW,247,17.0,37.0,65,0.01,,,0.01,VWS V15.00,2013-10-26 20:54:00,
2013-10-26 16:55:00,53.0,42.0,29.75,SSW,202,20.0,37.0,65,0.01,,,0.01,VWS V15.00,2013-10-26 20:55:00,
2013-10-26 16:56:00,53.0,42.0,29.70,SW,225,22.0,36.0,66,0.00,,,0.01,VWS V14.01,2013-10-26 20:56:00,
2013-10-26 16:57:00,53.0,42.0,29.70,WSW,247,23.0,36.0,66,0.00,,,0.01,VWS V14.01,2013-10-26 20:57:00,
2013-10-26 16:58:00,53.0,42.0,29.75,WSW,247,25.0,29.0,66,0.01,,,0.01,VWS V15.00,2013-10-26 20:58:00,
2013-10-26 16:59:00,53.0,42.0,29.75,SW,225,24.0,29.0,66,0.01,,,0.01,VWS V15.00,2013-10-26 20:59:00,
2013-10-26 17:00:00,53.0,41.6,29.71,WSW,247,17.0,32.0,66,0.00,,,0.01,VWS V14.01,2013-10-26 21:00:00,
2013-10-26 17:01:00,53.0,41.2,29.71,WSW,247,15.0,32.0,65,0.00,,,0.01,VWS V14.01,2013-10-26 21:01:00,
2013-10-26 17:02:00,53.0,41.6,29.71,SW,225,23.0,32.0,64,0.00,,,0.01,VWS V14.01,2013-10-26 21:02:00,
2013-10-26 17:03:00,53.0,41.2,29.71,SW,225,22.0,32.0,65,0.00,,,0.01,VWS V14.01,2013-10-26 21:03:00,
2013-10-26 17:04:00,53.0,41.6,29.71,WSW,247,13.0,32.0,64,0.00,,,0.01,VWS V14.01,2013-10-26 21:04:00,
2013-10-26 17:05:00,53.0,41.6,29.71,WSW,247,18.0,26.0,65,0.00,,,0.01,VWS V14.01,2013-10-26 21:05:00,
2013-10-26 17:06:00,53.0,41.6,29.71,SSW,202,13.0,26.0,65,0.00,,,0.01,VWS V14.01,2013-10-26 21:06:00,
2013-10-26 17:07:00,53.0,41.6,29.73,WSW,247,25.0,30.0,66,0.01,,,0.01,VWS V15.00,2013-10-26 21:07:00,
2013-10-26 17:08:00,53.0,41.2,29.72,SSW,202,20.0,26.0,65,0.00,,,0.01,VWS V14.01,2013-10-26 21:08:00,
2013-10-26 17:09:00,53.0,41.6,29.72,WSW,247,21.0,26.0,64,0.00,,,0.01,VWS V14.01,2013-10-26 21:09:00,
2013-10-26 17:10:00,53.0,41.6,29.73,SW,225,25.0,30.0,66,0.01,,,0.01,VWS V15.00,2013-10-26 21:10:00,
2013-10-26 17:11:00,53.0,42.0,29.73,SSW,202,25.0,30.0,65,0.01,,,0.01,VWS V15.00,2013-10-26 21:11:00,
2013-10-26 17:12:00,53.0,41.6,29.72,SW,225,17.0,26.0,65,0.00,,,0.01,VWS V14.01,2013-10-26 21:12:00,
2013-10-26 17:13:00,53.0,41.2,29.72,SW,225,28.0,28.0,65,0.00,,,0.01,VWS V14.01,2013-10-26 21:13:00,
2013-10-26 17:14:00,53.0,41.2,29.72,SW,225,17.0,28.0,64,0.00,,,0.01,VWS V14.01,2013-10-26 21:14:00,
2013-10-26 17:15:00,53.0,41.2,29.72,SW,225,23.0,28.0,64,0.00,,,0.01,VWS V14.01,2013-10-26 21:15:00,
2013-10-26 17:16:00,54.0,42.5,29.73,SW,225,22.0,26.0,65,0.01,,,0.01,VWS V15.00,2013-10-26 21:16:00,
2013-10-26 17:17:00,54.0,41.6,29.75,WSW,247,17.0,26.0,65,0.01,,,0.01,VWS V15.00,2013-10-26 21:17:00,
2013-10-26 17:18:00,53.0,41.2,29.71,SW,225,22.0,28.0,63,0.00,,,0.01,VWS V14.01,2013-10-26 21:18:00,
2013-10-26 17:19:00,53.0,40.3,29.71,SW,225,17.0,28.0,64,0.00,,,0.01,VWS V14.01,2013-10-26 21:19:00,
2013-10-26 17:20:00,53.0,40.3,29.71,SSW,202,14.0,28.0,62,0.00,,,0.01,VWS V14.01,2013-10-26 21:20:00,
2013-10-26 17:21:00,53.0,41.6,29.75,WSW,247,23.0,26.0,65,0.01,,,0.01,VWS V15.00,2013-10-26 21:21:00,
2013-10-26 17:22:00,53.0,41.6,29.71,WSW,247,18.0,28.0,64,0.00,,,0.01,VWS V14.01,2013-10-26 21:22:00,
2013-10-26 17:23:00,53.0,40.8,29.71,SSW,202,25.0,25.0,64,0.00,,,0.01,VWS V14.01,2013-10-26 21:23:00,
2013-10-26 17:24:00,53.0,40.8,29.71,SSW,202,25.0,25.0,64,0.00,,,0.01,VWS V14.01,2013-10-26 21:24:00,
2013-10-26 17:25:00,53.0,40.8,29.71,SW,225,17.0,25.0,63,0.00,,,0.01,VWS V14.01,2013-10-26 21:25:00,
2013-10-26 17:26:00,53.0,41.2,29.71,SW,225,19.0,25.0,63,0.00,,,0.01,VWS V14.01,2013-10-26 21:26:00,
2013-10-26 17:27:00,53.0,40.8,29.73,WSW,247,17.0,31.0,64,0.01,,,0.01,VWS V15.00,2013-10-26 21:27:00,
2013-10-26 17:28:00,53.0,41.6,29.71,WSW,247,17.0,25.0,64,0.00,,,0.01,VWS V14.01,2013-10-26 21:28:00,
2013-10-26 17:29:00,53.0,41.6,29.73,WSW,247,19.0,31.0,63,0.01,,,0.01,VWS V15.00,2013-10-26 21:29:00,
2013-10-26 17:30:00,53.0,41.2,29.71,WSW,247,22.0,25.0,64,0.00,,,0.01,VWS V14.01,2013-10-26 21:30:00,
2013-10-26 17:31:00,53.0,41.2,29.71,WSW,247,13.0,25.0,64,0.00,,,0.01,VWS V14.01,2013-10-26 21:31:00,
2013-10-26 17:32:00,53.0,41.2,29.71,WSW,247,22.0,25.0,64,0.00,,,0.01,VWS V14.01,2013-10-26 21:32:00,
2013-10-26 17:33:00,53.0,41.2,29.71,WSW,247,16.0,25.0,64,0.00,,,0.01,VWS V14.01,2013-10-26 21:33:00,
2013-10-26 17:34:00,53.0,40.2,29.71,SW,225,15.0,22.0,64,0.00,,,0.01,VWS V14.01,2013-10-26 21:34:00,
2013-10-26 17:35:00,52.0,40.3,29.71,WSW,247,15.0,22.0,64,0.00,,,0.01,VWS V14.01,2013-10-26 21:35:00,
2013-10-26 17:36:00,53.0,40.3,29.71,SW,225,17.0,22.0,62,0.00,,,0.01,VWS V14.01,2013-10-26 21:36:00,
2013-10-26 17:37:00,53.0,41.2,29.71,WSW,247,16.0,22.0,62,0.00,,,0.01,VWS V14.01,2013-10-26 21:37:00,
2013-10-26 17:38:00,53.0,41.6,29.73,SW,225,23.0,30.0,66,0.01,,,0.01,VWS V15.00,2013-10-26 21:38:00,
2013-10-26 17:39:00,53.0,40.3,29.71,WSW,247,19.0,22.0,63,0.00,,,0.01,VWS V14.01,2013-10-26 21:39:00,
2013-10-26 17:40:00,53.0,42.0,29.73,WSW,247,37.0,37.0,64,0.01,,,0.01,VWS V15.00,2013-10-26 21:40:00,
2013-10-26 17:41:00,53.0,39.9,29.71,WSW,247,16.0,22.0,62,0.00,,,0.01,VWS V14.01,2013-10-26 21:41:00,
2013-10-26 17:42:00,53.0,39.9,29.71,SW,225,13.0,20.0,61,0.00,,,0.01,VWS V14.01,2013-10-26 21:42:00,
2013-10-26 17:43:00,53.0,41.6,29.73,SSW,202,19.0,37.0,65,0.01,,,0.01,VWS V15.00,2013-10-26 21:43:00,
2013-10-26 17:44:00,53.0,39.1,29.71,SW,225,16.0,20.0,58,0.00,,,0.01,VWS V14.01,2013-10-26 21:44:00,
2013-10-26 17:45:00,53.0,42.0,29.73,SW,225,25.0,37.0,65,0.01,,,0.01,VWS V15.00,2013-10-26 21:45:00,
2013-10-26 17:46:00,53.0,39.5,29.71,SW,225,26.0,26.0,59,0.00,,,0.01,VWS V14.01,2013-10-26 21:46:00,
2013-10-26 17:47:00,53.0,38.2,29.71,WSW,247,17.0,26.0,60,0.00,,,0.01,VWS V14.01,2013-10-26 21:47:00,
2013-10-26 17:48:00,53.0,38.2,29.71,WSW,247,18.0,26.0,57,0.00,,,0.01,VWS V14.01,2013-10-26 21:48:00,
2013-10-26 17:49:00,53.0,41.6,29.70,WSW,247,23.0,37.0,66,0.01,,,0.01,VWS V15.00,2013-10-26 21:49:00,
2013-10-26 17:50:00,53.0,37.7,29.71,SSW,202,15.0,26.0,56,0.00,,,0.01,VWS V14.01,2013-10-26 21:50:00,
2013-10-26 17:51:00,53.0,38.2,29.71,WSW,247,13.0,26.0,56,0.00,,,0.01,VWS V14.01,2013-10-26 21:51:00,
2013-10-26 17:52:00,53.0,37.3,29.71,SW,225,15.0,26.0,57,0.00,,,0.01,VWS V14.01,2013-10-26 21:52:00,
2013-10-26 17:53:00,53.0,37.3,29.71,SW,225,15.0,26.0,55,0.00,,,0.01,VWS V14.01,2013-10-26 21:53:00,
2013-10-26 17:54:00,53.0,37.3,29.71,WSW,247,15.0,26.0,55,0.00,,,0.01,VWS V14.01,2013-10-26 21:54:00,
2013-10-26 17:55:00,53.0,36.8,29.71,SW,225,12.0,26.0,55,0.00,,,0.01,VWS V14.01,2013-10-26 21:55:00,
2013-10-26 17:56:00,53.0,42.0,29.70,WSW,247,23.0,36.0,66,0.00,,,0.01,VWS V15.00,2013-10-26 21:56:00,
2013-10-26 17:57:00,53.0,35.9,29.71,SSW,202,20.0,20.0,53,0.00,,,0.01,VWS V14.01,2013-10-26 21:57:00,
2013-10-26 17:58:00,53.0,35.9,29.70,SW,225,15.0,20.0,52,0.00,,,0.01,VWS V14.01,2013-10-26 21:58:00,
2013-10-26 17:59:00,53.0,35.4,29.70,WSW,247,22.0,22.0,52,0.00,,,0.01,VWS V14.01,2013-10-26 21:59:00,
2013-10-26 18:00:00,53.0,35.9,29.70,WSW,247,16.0,22.0,51,0.00,,,0.01,VWS V14.01,2013-10-26 22:00:00,
2013-10-26 18:01:00,53.0,35.9,29.70,SW,225,16.0,22.0,52,0.00,,,0.01,VWS V14.01,2013-10-26 22:01:00,
2013-10-26 18:02:00,53.0,35.4,29.70,WSW,247,18.0,22.0,52,0.00,,,0.01,VWS V14.01,2013-10-26 22:02:00,
2013-10-26 18:03:00,53.0,35.4,29.70,WSW,247,18.0,22.0,52,0.00,,,0.01,VWS V14.01,2013-10-26 22:03:00,
2013-10-26 18:04:00,53.0,41.6,29.71,WSW,247,18.0,26.0,65,0.00,,,0.01,VWS V15.00,2013-10-26 22:04:00,
2013-10-26 18:05:00,53.0,34.9,29.70,SW,225,17.0,22.0,51,0.00,,,0.01,VWS V14.01,2013-10-26 22:05:00,
2013-10-26 18:06:00,53.0,41.6,29.71,SW,225,26.0,26.0,65,0.00,,,0.01,VWS V15.00,2013-10-26 22:06:00,
2013-10-26 18:07:00,53.0,34.9,29.70,SW,225,13.0,22.0,50,0.00,,,0.01,VWS V14.01,2013-10-26 22:07:00,
2013-10-26 18:08:00,53.0,34.4,29.71,WSW,247,10.0,22.0,50,0.00,,,0.01,VWS V14.01,2013-10-26 22:08:00,
2013-10-26 18:09:00,53.0,34.9,29.71,WSW,247,13.0,22.0,49,0.00,,,0.01,VWS V14.01,2013-10-26 22:09:00,
2013-10-26 18:10:00,53.0,41.6,29.72,SW,225,20.0,26.0,65,0.00,,,0.01,VWS V15.00,2013-10-26 22:10:00,
2013-10-26 18:11:00,53.0,41.6,29.72,SW,225,17.0,26.0,65,0.00,,,0.01,VWS V15.00,2013-10-26 22:11:00,
2013-10-26 18:12:00,53.0,34.9,29.71,SW,225,13.0,23.0,49,0.00,,,0.01,VWS V14.01,2013-10-26 22:12:00,
2013-10-26 18:13:00,53.0,34.9,29.71,WSW,247,17.0,23.0,50,0.00,,,0.01,VWS V14.01,2013-10-26 22:13:00,
2013-10-26 18:14:00,53.0,41.2,29.72,SW,225,23.0,28.0,64,0.00,,,0.01,VWS V15.00,2013-10-26 22:14:00,
2013-10-26 18:15:00,53.0,40.8,29.72,SSW,202,22.0,28.0,64,0.00,,,0.01,VWS V15.00,2013-10-26 22:15:00,
2013-10-26 18:16:00,53.0,40.8,29.72,SW,225,22.0,28.0,63,0.00,,,0.01,VWS V15.00,2013-10-26 22:16:00,
2013-10-26 18:17:00,53.0,41.2,29.71,SW,225,22.0,28.0,63,0.00,,,0.01,VWS V15.00,2013-10-26 22:17:00,
2013-10-26 18:18:00,53.0,34.9,29.71,SW,225,15.0,23.0,50,0.00,,,0.01,VWS V14.01,2013-10-26 22:18:00,
2013-10-26 18:19:00,53.0,34.9,29.71,SSW,202,15.0,23.0,50,0.00,,,0.01,VWS V14.01,2013-10-26 22:19:00,
2013-10-26 18:20:00,53.0,34.4,29.71,WSW,247,19.0,23.0,50,0.00,,,0.01,VWS V14.01,2013-10-26 22:20:00,
2013-10-26 18:21:00,53.0,41.6,29.71,WSW,247,18.0,28.0,64,0.00,,,0.01,VWS V15.00,2013-10-26 22:21:00,
2013-10-26 18:22:00,53.0,41.2,29.71,SW,225,13.0,23.0,65,0.00,,,0.01,VWS V15.00,2013-10-26 22:22:00,
2013-10-26 18:23:00,53.0,40.8,29.71,SSW,202,25.0,25.0,64,0.00,,,0.01,VWS V15.00,2013-10-26 22:23:00,
2013-10-26 18:24:00,53.0,34.9,29.71,SW,225,15.0,19.0,50,0.00,,,0.01,VWS V14.01,2013-10-26 22:24:00,
2013-10-26 18:25:00,53.0,33.8,29.71,SW,225,20.0,20.0,50,0.00,,,0.01,VWS V14.01,2013-10-26 22:25:00,
2013-10-26 18:26:00,53.0,34.4,29.71,SW,225,19.0,20.0,48,0.00,,,0.01,VWS V14.01,2013-10-26 22:26:00,
2013-10-26 18:27:00,53.0,41.6,29.71,WSW,247,17.0,25.0,64,0.00,,,0.01,VWS V15.00,2013-10-26 22:27:00,
2013-10-26 18:28:00,53.0,41.2,29.71,SW,225,19.0,25.0,65,0.00,,,0.01,VWS V15.00,2013-10-26 22:28:00,
2013-10-26 18:29:00,53.0,35.4,29.69,SW,225,19.0,30.0,52,0.00,,,0.01,VWS V14.01,2013-10-26 22:29:00,
2013-10-26 18:30:00,53.0,41.2,29.71,WSW,247,13.0,25.0,64,0.00,,,0.01,VWS V15.00,2013-10-26 22:30:00,
2013-10-26 18:31:00,53.0,35.9,29.69,WSW,247,19.0,30.0,52,0.00,,,0.01,VWS V14.01,2013-10-26 22:31:00,
2013-10-26 18:32:00,53.0,41.2,29.71,WSW,247,16.0,25.0,64,0.00,,,0.01,VWS V15.00,2013-10-26 22:32:00,
2013-10-26 18:33:00,53.0,34.9,29.69,WSW,247,18.0,30.0,51,0.00,,,0.01,VWS V14.01,2013-10-26 22:33:00,
2013-10-26 18:34:00,52.0,40.3,29.71,WSW,247,15.0,22.0,64,0.00,,,0.01,VWS V15.00,2013-10-26 22:34:00,
2013-10-26 18:35:00,53.0,36.3,29.69,WSW,247,23.0,30.0,53,0.00,,,0.01,VWS V14.01,2013-10-26 22:35:00,
2013-10-26 18:36:00,53.0,34.9,29.69,SW,225,19.0,30.0,53,0.00,,,0.01,VWS V14.01,2013-10-26 22:36:00,
2013-10-26 18:37:00,53.0,35.9,29.69,WSW,247,14.0,28.0,50,0.00,,,0.01,VWS V14.01,2013-10-26 22:37:00,
2013-10-26 18:38:00,53.0,40.3,29.71,WSW,247,19.0,22.0,63,0.00,,,0.01,VWS V15.00,2013-10-26 22:38:00,
2013-10-26 18:39:00,53.0,40.3,29.71,WSW,247,20.0,22.0,62,0.00,,,0.01,VWS V15.00,2013-10-26 22:39:00,
2013-10-26 18:40:00,53.0,36.3,29.69,WSW,247,18.0,25.0,52,0.00,,,0.01,VWS V14.01,2013-10-26 22:40:00,
2013-10-26 18:41:00,53.0,39.9,29.71,SW,225,13.0,20.0,61,0.00,,,0.01,VWS V15.00,2013-10-26 22:41:00,
2013-10-26 18:42:00,53.0,36.3,29.69,WSW,247,20.0,25.0,52,0.00,,,0.01,VWS V14.01,2013-10-26 22:42:00,
2013-10-26 18:43:00,53.0,35.4,29.69,WSW,247,17.0,25.0,53,0.00,,,0.01,VWS V14.01,2013-10-26 22:43:00,
2013-10-26 18:44:00,53.0,35.9,29.69,SSW,202,20.0,25.0,51,0.00,,,0.01,VWS V14.01,2013-10-26 22:44:00,
2013-10-26 18:45:00,53.0,36.3,29.69,WSW,247,13.0,25.0,52,0.00,,,0.01,VWS V14.01,2013-10-26 22:45:00,
2013-10-26 18:46:00,53.0,38.2,29.71,WSW,247,17.0,26.0,60,0.00,,,0.01,VWS V15.00,2013-10-26 22:46:00,
2013-10-26 18:47:00,53.0,38.2,29.71,WSW,247,18.0,26.0,57,0.00,,,0.01,VWS V15.00,2013-10-26 22:47:00,
2013-10-26 18:48:00,53.0,35.9,29.71,WSW,247,15.0,22.0,52,0.00,,,0.01,VWS V14.01,2013-10-26 22:48:00,
2013-10-26 18:49:00,53.0,36.3,29.71,WSW,247,28.0,28.0,52,0.00,,,0.01,VWS V14.01,2013-10-26 22:49:00,
2013-10-26 18:50:00,53.0,35.9,29.71,WSW,247,20.0,28.0,53,0.00,,,0.01,VWS V14.01,2013-10-26 22:50:00,
2013-10-26 18:51:00,53.0,35.4,29.71,WSW,247,14.0,28.0,52,0.00,,,0.01,VWS V14.01,2013-10-26 22:51:00,
2013-10-26 18:52:00,53.0,37.3,29.71,SW,225,15.0,26.0,55,0.00,,,0.01,VWS V15.00,2013-10-26 22:52:00,
2013-10-26 18:53:00,53.0,34.9,29.71,SW,225,12.0,28.0,52,0.00,,,0.01,VWS V14.01,2013-10-26 22:53:00,
2013-10-26 18:54:00,53.0,36.8,29.71,SW,225,12.0,26.0,55,0.00,,,0.01,VWS V15.00,2013-10-26 22:54:00,
2013-10-26 18:55:00,53.0,36.3,29.71,SW,225,14.0,18.0,54,0.00,,,0.01,VWS V15.00,2013-10-26 22:55:00,
2013-10-26 18:56:00,53.0,36.3,29.71,SSW,202,17.0,28.0,53,0.00,,,0.01,VWS V14.01,2013-10-26 22:56:00,
2013-10-26 18:57:00,53.0,36.3,29.71,SW,225,28.0,28.0,53,0.00,,,0.01,VWS V14.01,2013-10-26 22:57:00,
2013-10-26 18:58:00,53.0,35.9,29.69,WSW,247,22.0,28.0,53,0.00,,,0.01,VWS V14.01,2013-10-26 22:58:00,
2013-10-26 18:59:00,53.0,35.9,29.70,WSW,247,16.0,22.0,51,0.00,,,0.01,VWS V15.00,2013-10-26 22:59:00,
2013-10-26 19:00:00,53.0,35.9,29.70,SW,225,16.0,22.0,52,0.00,,,0.01,VWS V15.00,2013-10-26 23:00:00,
2013-10-26 19:01:00,53.0,36.3,29.69,SW,225,25.0,29.0,53,0.00,,,0.01,VWS V14.01,2013-10-26 23:01:00,
2013-10-26 19:02:00,53.0,35.4,29.69,WSW,247,15.0,29.0,53,0.00,,,0.01,VWS V14.01,2013-10-26 23:02:00,
2013-10-26 19:03:00,53.0,35.9,29.69,SW,225,17.0,29.0,51,0.00,,,0.01,VWS V14.01,2013-10-26 23:03:00,
2013-10-26 19:04:00,53.0,34.9,29.70,SW,225,17.0,22.0,51,0.00,,,0.01,VWS V15.00,2013-10-26 23:04:00,
2013-10-26 19:05:00,53.0,35.9,29.69,WSW,247,15.0,29.0,53,0.00,,,0.01,VWS V14.01,2013-10-26 23:05:00,
2013-10-26 19:06:00,53.0,34.9,29.70,SW,225,13.0,22.0,50,0.00,,,0.01,VWS V15.00,2013-10-26 23:06:00,
2013-10-26 19:07:00,53.0,35.4,29.69,SW,225,15.0,29.0,51,0.00,,,0.01,VWS V14.01,2013-10-26 23:07:00,
2013-10-26 19:08:00,53.0,36.3,29.68,SW,225,26.0,29.0,51,0.00,,,0.01,VWS V14.01,2013-10-26 23:08:00,
2013-10-26 19:09:00,53.0,35.4,29.68,SW,225,16.0,26.0,53,0.00,,,0.01,VWS V14.01,2013-10-26 23:09:00,
2013-10-26 19:10:00,53.0,35.4,29.68,WSW,247,26.0,26.0,51,0.00,,,0.01,VWS V14.01,2013-10-26 23:10:00,
2013-10-26 19:11:00,53.0,35.9,29.68,SW,225,19.0,26.0,51,0.00,,,0.01,VWS V14.01,2013-10-26 23:11:00,
2013-10-26 19:12:00,53.0,34.9,29.71,WSW,247,17.0,23.0,50,0.00,,,0.01,VWS V15.00,2013-10-26 23:12:00,
2013-10-26 19:13:00,53.0,35.9,29.68,SW,225,16.0,26.0,53,0.00,,,0.01,VWS V14.01,2013-10-26 23:13:00,
2013-10-26 19:14:00,53.0,34.9,29.68,WSW,247,16.0,26.0,52,0.00,,,0.01,VWS V14.01,2013-10-26 23:14:00,
2013-10-26 19:15:00,53.0,34.9,29.68,WSW,247,16.0,26.0,50,0.00,,,0.01,VWS V14.01,2013-10-26 23:15:00,
2013-10-26 19:16:00,53.0,34.9,29.68,SSW,202,17.0,26.0,50,0.00,,,0.01,VWS V14.01,2013-10-26 23:16:00,
2013-10-26 19:17:00,53.0,34.9,29.68,WSW,247,13.0,26.0,50,0.00,,,0.01,VWS V14.01,2013-10-26 23:17:00,
2013-10-26 19:18:00,53.0,34.9,29.71,SSW,202,15.0,23.0,50,0.00,,,0.01,VWS V15.00,2013-10-26 23:18:00,
2013-10-26 19:19:00,53.0,35.4,29.70,WSW,247,17.0,26.0,52,0.00,,,0.01,VWS V14.01,2013-10-26 23:19:00,
2013-10-26 19:20:00,53.0,35.4,29.70,WSW,247,16.0,19.0,51,0.00,,,0.01,VWS V14.01,2013-10-26 23:20:00,
2013-10-26 19:21:00,53.0,34.4,29.71,SW,225,16.0,19.0,49,0.00,,,0.01,VWS V15.00,2013-10-26 23:21:00,
2013-10-26 19:22:00,53.0,35.4,29.70,WSW,247,14.0,23.0,51,0.00,,,0.01,VWS V14.01,2013-10-26 23:22:00,
2013-10-26 19:23:00,53.0,35.9,29.70,SW,225,22.0,23.0,51,0.00,,,0.01,VWS V14.01,2013-10-26 23:23:00,
2013-10-26 19:24:00,53.0,33.8,29.71,SW,225,20.0,20.0,50,0.00,,,0.01,VWS V15.00,2013-10-26 23:24:00,
2013-10-26 19:25:00,53.0,35.4,29.70,SW,225,17.0,23.0,51,0.00,,,0.01,VWS V14.01,2013-10-26 23:25:00,
2013-10-26 19:26:00,53.0,34.9,29.71,SW,225,30.0,30.0,49,0.00,,,0.01,VWS V15.00,2013-10-26 23:26:00,
2013-10-26 19:27:00,53.0,36.3,29.70,WSW,247,22.0,23.0,52,0.00,,,0.01,VWS V14.01,2013-10-26 23:27:00,
2013-10-26 19:28:00,53.0,36.8,29.69,SSW,202,13.0,23.0,53,0.00,,,0.01,VWS V14.01,2013-10-26 23:28:00,
2013-10-26 19:29:00,53.0,35.9,29.69,WSW,247,22.0,30.0,51,0.00,,,0.01,VWS V15.00,2013-10-26 23:29:00,
2013-10-26 19:30:00,53.0,35.4,29.69,WSW,247,20.0,23.0,52,0.00,,,0.01,VWS V14.01,2013-10-26 23:30:00,
2013-10-26 19:31:00,53.0,35.4,29.69,WSW,247,19.0,30.0,52,0.00,,,0.01,VWS V15.00,2013-10-26 23:31:00,
2013-10-26 19:32:00,53.0,35.9,29.69,SW,225,13.0,22.0,51,0.00,,,0.01,VWS V14.01,2013-10-26 23:32:00,
2013-10-26 19:33:00,53.0,35.4,29.69,WSW,247,22.0,22.0,52,0.00,,,0.01,VWS V14.01,2013-10-26 23:33:00,
2013-10-26 19:34:00,53.0,35.4,29.69,WSW,247,17.0,22.0,51,0.00,,,0.01,VWS V14.01,2013-10-26 23:34:00,
2013-10-26 19:35:00,53.0,34.9,29.69,SW,225,19.0,22.0,51,0.00,,,0.01,VWS V14.01,2013-10-26 23:35:00,
2013-10-26 19:36:00,53.0,34.9,29.69,SSW,202,18.0,22.0,50,0.00,,,0.01,VWS V14.01,2013-10-26 23:36:00,
2013-10-26 19:37:00,53.0,36.3,29.69,WSW,247,25.0,25.0,52,0.00,,,0.01,VWS V15.00,2013-10-26 23:37:00,
2013-10-26 19:38:00,53.0,36.8,29.67,SW,225,23.0,25.0,50,0.00,,,0.01,VWS V14.01,2013-10-26 23:38:00,
2013-10-26 19:39:00,54.0,35.4,29.67,SSW,202,18.0,25.0,52,0.00,,,0.01,VWS V14.01,2013-10-26 23:39:00,
2013-10-26 19:40:00,53.0,34.4,29.67,SSW,202,17.0,25.0,51,0.00,,,0.01,VWS V14.01,2013-10-26 23:40:00,
2013-10-26 19:41:00,53.0,35.8,29.67,WSW,247,23.0,25.0,49,0.00,,,0.01,VWS V14.01,2013-10-26 23:41:00,
2013-10-26 19:42:00,53.0,35.4,29.69,WSW,247,17.0,25.0,53,0.00,,,0.01,VWS V15.00,2013-10-26 23:42:00,
2013-10-26 19:43:00,53.0,35.9,29.69,SSW,202,20.0,25.0,51,0.00,,,0.01,VWS V15.00,2013-10-26 23:43:00,
2013-10-26 19:44:00,53.0,36.3,29.69,WSW,247,13.0,25.0,52,0.00,,,0.01,VWS V15.00,2013-10-26 23:44:00,
2013-10-26 19:45:00,54.0,35.8,29.67,SSW,202,16.0,25.0,49,0.00,,,0.01,VWS V14.01,2013-10-26 23:45:00,
2013-10-26 19:46:00,54.0,35.8,29.67,SSW,202,27.0,27.0,50,0.00,,,0.01,VWS V14.01,2013-10-26 23:46:00,
2013-10-26 19:47:00,54.0,35.8,29.67,WSW,247,19.0,27.0,50,0.00,,,0.01,VWS V14.01,2013-10-26 23:47:00,
2013-10-26 19:48:00,54.0,35.3,29.67,SW,225,19.0,27.0,50,0.00,,,0.01,VWS V14.01,2013-10-26 23:48:00,
2013-10-26 19:49:00,53.0,35.9,29.71,WSW,247,20.0,28.0,53,0.00,,,0.01,VWS V15.00,2013-10-26 23:49:00,
2013-10-26 19:50:00,54.0,35.8,29.67,SW,225,25.0,27.0,50,0.00,,,0.01,VWS V14.01,2013-10-26 23:50:00,
2013-10-26 19:51:00,54.0,35.8,29.67,SW,225,22.0,27.0,50,0.00,,,0.01,VWS V14.01,2013-10-26 23:51:00,
2013-10-26 19:52:00,54.0,36.3,29.67,SSW,202,22.0,27.0,50,0.00,,,0.01,VWS V14.01,2013-10-26 23:52:00,
2013-10-26 19:53:00,54.0,35.8,29.67,SSW,202,16.0,27.0,51,0.00,,,0.01,VWS V14.01,2013-10-26 23:53:00,
2013-10-26 19:54:00,54.0,35.8,29.67,SW,225,22.0,27.0,50,0.00,,,0.01,VWS V14.01,2013-10-26 23:54:00,
2013-10-26 19:55:00,54.0,36.3,29.67,SW,225,20.0,25.0,50,0.00,,,0.01,VWS V14.01,2013-10-26 23:55:00,
2013-10-26 19:56:00,54.0,36.3,29.67,SW,225,20.0,25.0,50,0.00,,,0.01,VWS V14.01,2013-10-26 23:56:00,
2013-10-26 19:57:00,54.0,35.8,29.67,WSW,247,17.0,25.0,51,0.00,,,0.01,VWS V14.01,2013-10-26 23:57:00,
2013-10-26 19:58:00,54.0,35.3,29.67,SW,225,20.0,25.0,50,0.00,,,0.01,VWS V14.01,2013-10-26 23:58:00,
2013-10-26 19:59:00,54.0,35.8,29.67,WSW,247,19.0,25.0,49,0.00,,,0.01,VWS V14.01,2013-10-26 23:59:00,
2013-10-26 20:00:00,53.0,36.3,29.69,SW,225,25.0,29.0,53,0.00,,,0.01,VWS V15.00,2013-10-27 00:00:00,
2013-10-26 20:01:00,53.0,35.4,29.69,WSW,247,15.0,29.0,53,0.00,,,0.01,VWS V15.00,2013-10-27 00:01:00,
2013-10-26 20:02:00,54.0,35.8,29.67,SSW,202,24.0,26.0,50,0.00,,,0.01,VWS V14.01,2013-10-27 00:02:00,
2013-10-26 20:03:00,54.0,35.3,29.67,WSW,247,20.0,26.0,50,0.00,,,0.01,VWS V14.01,2013-10-27 00:03:00,
2013-10-26 20:04:00,54.0,35.3,29.67,SW,225,22.0,26.0,49,0.00,,,0.01,VWS V14.01,2013-10-27 00:04:00,
2013-10-26 20:05:00,54.0,35.3,29.67,SW,225,17.0,26.0,49,0.00,,,0.01,VWS V14.01,2013-10-27 00:05:00,
2013-10-26 20:06:00,53.0,35.4,29.69,SW,225,15.0,29.0,51,0.00,,,0.01,VWS V15.00,2013-10-27 00:06:00,
2013-10-26 20:07:00,53.0,36.3,29.68,SW,225,26.0,29.0,51,0.00,,,0.01,VWS V15.00,2013-10-27 00:07:00,
2013-10-26 20:08:00,54.0,35.3,29.64,SW,225,24.0,26.0,49,0.00,,,0.01,VWS V14.01,2013-10-27 00:08:00,
2013-10-26 20:09:00,53.0,35.4,29.68,WSW,247,26.0,26.0,51,0.00,,,0.01,VWS V15.00,2013-10-27 00:09:00,
2013-10-26 20:10:00,54.0,33.2,29.64,SSW,202,16.0,24.0,48,0.00,,,0.01,VWS V14.01,2013-10-27 00:10:00,
2013-10-26 20:11:00,54.0,32.6,29.64,SSW,202,21.0,24.0,45,0.00,,,0.01,VWS V14.01,2013-10-27 00:11:00,
2013-10-26 20:12:00,53.0,35.9,29.68,SW,225,16.0,26.0,53,0.00,,,0.01,VWS V15.00,2013-10-27 00:12:00,
2013-10-26 20:13:00,54.0,33.2,29.64,SW,225,15.0,24.0,44,0.00,,,0.01,VWS V14.01,2013-10-27 00:13:00,
2013-10-26 20:14:00,54.0,32.6,29.64,SW,225,22.0,24.0,45,0.00,,,0.01,VWS V14.01,2013-10-27 00:14:00,
2013-10-26 20:15:00,54.0,32.6,29.64,SW,225,16.0,24.0,44,0.00,,,0.01,VWS V14.01,2013-10-27 00:15:00,
2013-10-26 20:16:00,53.0,34.9,29.68,WSW,247,13.0,26.0,50,0.00,,,0.01,VWS V15.00,2013-10-27 00:16:00,
2013-10-26 20:17:00,54.0,32.6,29.64,SW,225,16.0,24.0,45,0.00,,,0.01,VWS V14.01,2013-10-27 00:17:00,
2013-10-26 20:18:00,54.0,32.0,29.67,WSW,247,15.0,28.0,44,0.00,,,0.01,VWS V14.01,2013-10-27 00:18:00,
2013-10-26 20:19:00,54.0,32.0,29.67,WSW,247,15.0,28.0,44,0.00,,,0.01,VWS V14.01,2013-10-27 00:19:00,
2013-10-26 20:20:00,53.0,35.4,29.70,SSW,202,23.0,23.0,51,0.00,,,0.01,VWS V15.00,2013-10-27 00:20:00,
2013-10-26 20:21:00,54.0,31.5,29.67,WSW,247,17.0,28.0,42,0.00,,,0.01,VWS V14.01,2013-10-27 00:21:00,
2013-10-26 20:22:00,54.0,30.9,29.67,WSW,247,16.0,28.0,42,0.00,,,0.01,VWS V14.01,2013-10-27 00:22:00,
2013-10-26 20:23:00,53.0,35.4,29.70,SW,225,17.0,23.0,52,0.00,,,0.01,VWS V15.00,2013-10-27 00:23:00,
2013-10-26 20:24:00,54.0,30.2,29.67,SSW,202,15.0,28.0,42,0.00,,,0.01,VWS V14.01,2013-10-27 00:24:00,
2013-10-26 20:25:00,53.0,35.9,29.70,WSW,247,20.0,23.0,51,0.00,,,0.01,VWS V15.00,2013-10-27 00:25:00,
2013-10-26 20:26:00,54.0,31.1,29.67,WSW,247,27.0,28.0,40,0.00,,,0.01,VWS V14.01,2013-10-27 00:26:00,
2013-10-26 20:27:00,55.0,30.5,29.67,WSW,247,25.0,28.0,40,0.00,,,0.01,VWS V14.01,2013-10-27 00:27:00,
2013-10-26 20:28:00,55.0,31.1,29.66,WSW,247,18.0,27.0,39,0.00,,,0.01,VWS V14.01,2013-10-27 00:28:00,
2013-10-26 20:29:00,55.0,31.1,29.66,SW,225,22.0,27.0,40,0.00,,,0.01,VWS V14.01,2013-10-27 00:29:00,
2013-10-26 20:30:00,55.0,31.8,29.66,WSW,247,25.0,27.0,40,0.00,,,0.01,VWS V14.01,2013-10-27 00:30:00,
2013-10-26 20:31:00,53.0,35.9,29.69,SW,225,13.0,22.0,51,0.00,,,0.01,VWS V15.00,2013-10-27 00:31:00,
2013-10-26 20:32:00,53.0,35.4,29.69,WSW,247,22.0,22.0,52,0.00,,,0.01,VWS V15.00,2013-10-27 00:32:00,
2013-10-26 20:33:00,55.0,31.8,29.66,WSW,247,17.0,27.0,41,0.00,,,0.01,VWS V14.01,2013-10-27 00:33:00,
2013-10-26 20:34:00,55.0,31.8,29.66,SW,225,20.0,27.0,41,0.00,,,0.01,VWS V14.01,2013-10-27 00:34:00,
2013-10-26 20:35:00,55.0,31.8,29.66,WSW,247,17.0,27.0,41,0.00,,,0.01,VWS V14.01,2013-10-27 00:35:00,
2013-10-26 20:36:00,55.0,31.1,29.66,WSW,247,19.0,25.0,41,0.00,,,0.01,VWS V14.01,2013-10-27 00:36:00,
2013-10-26 20:37:00,53.0,36.8,29.67,SW,225,23.0,25.0,50,0.00,,,0.01,VWS V15.00,2013-10-27 00:37:00,
2013-10-26 20:38:00,54.0,35.4,29.67,SSW,202,18.0,25.0,52,0.00,,,0.01,VWS V15.00,2013-10-27 00:38:00,
2013-10-26 20:39:00,55.0,32.3,29.67,WSW,247,22.0,25.0,41,0.00,,,0.01,VWS V14.01,2013-10-27 00:39:00,
2013-10-26 20:40:00,53.0,35.8,29.67,WSW,247,23.0,25.0,49,0.00,,,0.01,VWS V15.00,2013-10-27 00:40:00,
2013-10-26 20:41:00,55.0,31.8,29.67,WSW,247,16.0,23.0,42,0.00,,,0.01,VWS V14.01,2013-10-27 00:41:00,
2013-10-26 20:42:00,55.0,31.8,29.67,SW,225,19.0,23.0,41,0.00,,,0.01,VWS V14.01,2013-10-27 00:42:00,
2013-10-26 20:43:00,53.0,35.3,29.67,SW,225,25.0,25.0,49,0.00,,,0.01,VWS V15.00,2013-10-27 00:43:00,
2013-10-26 20:44:00,54.0,35.8,29.67,SSW,202,16.0,25.0,49,0.00,,,0.01,VWS V15.00,2013-10-27 00:44:00,
2013-10-26 20:45:00,55.0,31.8,29.67,SW,225,15.0,23.0,42,0.00,,,0.01,VWS V14.01,2013-10-27 00:45:00,
2013-10-26 20:46:00,55.0,31.8,29.67,SW,225,15.0,23.0,42,0.00,,,0.01,VWS V14.01,2013-10-27 00:46:00,
2013-10-26 20:47:00,55.0,31.8,29.67,SSW,202,16.0,23.0,41,0.00,,,0.01,VWS V14.01,2013-10-27 00:47:00,
2013-10-26 20:48:00,55.0,32.3,29.67,SW,225,16.0,23.0,41,0.00,,,0.01,VWS V14.01,2013-10-27 00:48:00,
2013-10-26 20:49:00,54.0,35.8,29.67,SW,225,25.0,27.0,50,0.00,,,0.01,VWS V15.00,2013-10-27 00:49:00,
2013-10-26 20:50:00,55.0,32.3,29.67,SW,225,23.0,23.0,42,0.00,,,0.01,VWS V14.01,2013-10-27 00:50:00,
2013-10-26 20:51:00,55.0,32.3,29.67,WSW,247,26.0,26.0,42,0.00,,,0.01,VWS V14.01,2013-10-27 00:51:00,
2013-10-26 20:52:00,55.0,32.3,29.67,SW,225,14.0,26.0,42,0.00,,,0.01,VWS V14.01,2013-10-27 00:52:00,
2013-10-26 20:53:00,55.0,32.3,29.67,SW,225,11.0,26.0,42,0.00,,,0.01,VWS V14.01,2013-10-27 00:53:00,
2013-10-26 20:54:00,54.0,35.8,29.67,SW,225,20.0,27.0,50,0.00,,,0.01,VWS V15.00,2013-10-27 00:54:00,
2013-10-26 20:55:00,54.0,36.3,29.67,SW,225,20.0,25.0,50,0.00,,,0.01,VWS V15.00,2013-10-27 00:55:00,
2013-10-26 20:56:00,54.0,35.8,29.67,WSW,247,17.0,25.0,51,0.00,,,0.01,VWS V15.00,2013-10-27 00:56:00,
2013-10-26 20:57:00,55.0,32.3,29.67,WSW,247,18.0,26.0,41,0.00,,,0.01,VWS V14.01,2013-10-27 00:57:00,
2013-10-26 20:58:00,55.0,32.3,29.67,WSW,247,13.0,26.0,42,0.00,,,0.01,VWS V14.01,2013-10-27 00:58:00,
2013-10-26 20:59:00,55.0,32.3,29.67,WSW,247,15.0,26.0,42,0.00,,,0.01,VWS V14.01,2013-10-27 00:59:00,
2013-10-26 21:00:00,55.0,32.3,29.67,WSW,247,16.0,26.0,42,0.00,,,0.01,VWS V14.01,2013-10-27 01:00:00,
2013-10-26 21:01:00,54.0,35.8,29.67,SSW,202,24.0,26.0,50,0.00,,,0.01,VWS V15.00,2013-10-27 01:01:00,
2013-10-26 21:02:00,54.0,35.3,29.67,WSW,247,20.0,26.0,50,0.00,,,0.01,VWS V15.00,2013-10-27 01:02:00,
2013-10-26 21:03:00,55.0,31.8,29.67,WSW,247,13.0,18.0,41,0.00,,,0.01,VWS V14.01,2013-10-27 01:03:00,
2013-10-26 21:04:00,55.0,31.1,29.67,WSW,247,10.0,18.0,41,0.00,,,0.01,VWS V14.01,2013-10-27 01:04:00,
2013-10-26 21:05:00,55.0,31.1,29.67,SW,225,13.0,18.0,40,0.00,,,0.01,VWS V14.01,2013-10-27 01:05:00,
2013-10-26 21:06:00,55.0,31.8,29.67,WSW,247,22.0,22.0,40,0.00,,,0.01,VWS V14.01,2013-10-27 01:06:00,
2013-10-26 21:07:00,55.0,31.8,29.67,WSW,247,29.0,29.0,41,0.00,,,0.01,VWS V14.01,2013-10-27 01:07:00,
2013-10-26 21:08:00,54.0,34.8,29.64,SW,225,19.0,26.0,49,0.00,,,0.01,VWS V15.00,2013-10-27 01:08:00,
2013-10-26 21:09:00,55.0,31.8,29.66,WSW,247,20.0,29.0,41,0.00,,,0.01,VWS V14.01,2013-10-27 01:09:00,
2013-10-26 21:10:00,54.0,32.6,29.64,SSW,202,21.0,24.0,45,0.00,,,0.01,VWS V15.00,2013-10-27 01:10:00,
2013-10-26 21:11:00,55.0,31.1,29.66,SW,225,14.0,29.0,41,0.00,,,0.01,VWS V14.01,2013-10-27 01:11:00,
2013-10-26 21:12:00,54.0,33.2,29.64,SW,225,15.0,24.0,44,0.00,,,0.01,VWS V15.00,2013-10-27 01:12:00,
2013-10-26 21:13:00,55.0,30.5,29.66,SW,225,18.0,29.0,40,0.00,,,0.01,VWS V14.01,2013-10-27 01:13:00,
2013-10-26 21:14:00,55.0,30.5,29.66,SSW,202,24.0,29.0,39,0.00,,,0.01,VWS V14.01,2013-10-27 01:14:00,
2013-10-26 21:15:00,55.0,30.5,29.66,SW,225,21.0,29.0,39,0.00,,,0.01,VWS V14.01,2013-10-27 01:15:00,
2013-10-26 21:16:00,54.0,32.6,29.64,SW,225,16.0,24.0,45,0.00,,,0.01,VWS V15.00,2013-10-27 01:16:00,
2013-10-26 21:17:00,55.0,29.2,29.66,SW,225,17.0,24.0,38,0.00,,,0.01,VWS V14.01,2013-10-27 01:17:00,
2013-10-26 21:18:00,55.0,29.2,29.67,WSW,247,15.0,24.0,37,0.00,,,0.01,VWS V14.01,2013-10-27 01:18:00,
2013-10-26 21:19:00,55.0,29.2,29.67,WSW,247,13.0,24.0,37,0.00,,,0.01,VWS V14.01,2013-10-27 01:19:00,
2013-10-26 21:20:00,55.0,29.2,29.67,WSW,247,17.0,24.0,37,0.00,,,0.01,VWS V14.01,2013-10-27 01:20:00,
2013-10-26 21:21:00,54.0,30.9,29.67,WSW,247,16.0,28.0,42,0.00,,,0.01,VWS V15.00,2013-10-27 01:21:00,
2013-10-26 21:22:00,54.0,31.5,29.67,SW,225,22.0,28.0,41,0.00,,,0.01,VWS V15.00,2013-10-27 01:22:00,
2013-10-26 21:23:00,55.0,29.2,29.67,WSW,247,13.0,21.0,37,0.00,,,0.01,VWS V14.01,2013-10-27 01:23:00,
2013-10-26 21:24:00,55.0,29.2,29.67,WSW,247,13.0,21.0,37,0.00,,,0.01,VWS V14.01,2013-10-27 01:24:00,
2013-10-26 21:25:00,55.0,29.2,29.67,SSW,202,23.0,23.0,37,0.00,,,0.01,VWS V14.01,2013-10-27 01:25:00,
2013-10-26 21:26:00,55.0,29.2,29.67,SW,225,24.0,24.0,37,0.00,,,0.01,VWS V14.01,2013-10-27 01:26:00,
2013-10-26 21:27:00,55.0,31.1,29.66,WSW,247,18.0,27.0,39,0.00,,,0.01,VWS V15.00,2013-10-27 01:27:00,
2013-10-26 21:28:00,55.0,30.1,29.66,WSW,247,16.0,24.0,37,0.00,,,0.01,VWS V14.01,2013-10-27 01:28:00,
2013-10-26 21:29:00,56.0,30.1,29.66,SW,225,16.0,24.0,37,0.00,,,0.01,VWS V14.01,2013-10-27 01:29:00,
2013-10-26 21:30:00,56.0,28.6,29.66,SW,225,14.0,24.0,37,0.00,,,0.01,VWS V14.01,2013-10-27 01:30:00,
2013-10-26 21:31:00,55.0,28.6,29.66,SW,225,13.0,24.0,36,0.00,,,0.01,VWS V14.01,2013-10-27 01:31:00,
2013-10-26 21:32:00,55.0,27.9,29.66,SSW,202,12.0,24.0,36,0.00,,,0.01,VWS V14.01,2013-10-27 01:32:00,
2013-10-26 21:33:00,55.0,27.9,29.66,WSW,247,12.0,24.0,35,0.00,,,0.01,VWS V14.01,2013-10-27 01:33:00,
2013-10-26 21:34:00,55.0,28.6,29.66,SW,225,13.0,24.0,35,0.00,,,0.01,VWS V14.01,2013-10-27 01:34:00,
2013-10-26 21:35:00,55.0,31.1,29.66,WSW,247,19.0,25.0,41,0.00,,,0.01,VWS V15.00,2013-10-27 01:35:00,
2013-10-26 21:36:00,55.0,27.9,29.66,WSW,247,15.0,20.0,35,0.00,,,0.01,VWS V14.01,2013-10-27 01:36:00,
2013-10-26 21:37:00,55.0,31.8,29.67,WSW,247,16.0,25.0,41,0.00,,,0.01,VWS V15.00,2013-10-27 01:37:00,
2013-10-26 21:38:00,55.0,32.3,29.67,WSW,247,22.0,25.0,41,0.00,,,0.01,VWS V15.00,2013-10-27 01:38:00,
2013-10-26 21:39:00,55.0,28.6,29.67,WSW,247,11.0,16.0,36,0.00,,,0.01,VWS V14.01,2013-10-27 01:39:00,
2013-10-26 21:40:00,55.0,28.6,29.67,WSW,247,11.0,16.0,36,0.00,,,0.01,VWS V14.01,2013-10-27 01:40:00,
2013-10-26 21:41:00,55.0,31.8,29.67,SW,225,19.0,23.0,41,0.00,,,0.01,VWS V15.00,2013-10-27 01:41:00,
2013-10-26 21:42:00,55.0,28.6,29.67,WSW,247,12.0,16.0,36,0.00,,,0.01,VWS V14.01,2013-10-27 01:42:00,
2013-10-26 21:43:00,55.0,28.6,29.67,West,270,20.0,20.0,36,0.00,,,0.01,VWS V14.01,2013-10-27 01:43:00,
2013-10-26 21:44:00,55.0,27.9,29.67,SW,225,15.0,20.0,36,0.00,,,0.01,VWS V14.01,2013-10-27 01:44:00,
2013-10-26 21:45:00,55.0,28.6,29.67,WSW,247,17.0,20.0,35,0.00,,,0.01,VWS V14.01,2013-10-27 01:45:00,
2013-10-26 21:46:00,55.0,27.9,29.67,WSW,247,15.0,20.0,36,0.00,,,0.01,VWS V14.01,2013-10-27 01:46:00,
2013-10-26 21:47:00,55.0,28.6,29.67,SW,225,13.0,20.0,35,0.00,,,0.01,VWS V14.01,2013-10-27 01:47:00,
2013-10-26 21:48:00,55.0,27.9,29.67,WSW,247,9.0,20.0,36,0.00,,,0.01,VWS V14.01,2013-10-27 01:48:00,
2013-10-26 21:49:00,55.0,32.3,29.67,SW,225,23.0,23.0,42,0.00,,,0.01,VWS V15.00,2013-10-27 01:49:00,
2013-10-26 21:50:00,55.0,27.9,29.67,WSW,247,12.0,20.0,36,0.00,,,0.01,VWS V14.01,2013-10-27 01:50:00,
2013-10-26 21:51:00,55.0,28.6,29.67,WSW,247,11.0,20.0,35,0.00,,,0.01,VWS V14.01,2013-10-27 01:51:00,
2013-10-26 21:52:00,55.0,28.6,29.67,WSW,247,12.0,20.0,36,0.00,,,0.01,VWS V14.01,2013-10-27 01:52:00,
2013-10-26 21:53:00,55.0,27.9,29.67,SW,225,14.0,17.0,36,0.00,,,0.01,VWS V14.01,2013-10-27 01:53:00,
2013-10-26 21:54:00,55.0,32.3,29.67,WSW,247,15.0,26.0,41,0.00,,,0.01,VWS V15.00,2013-10-27 01:54:00,
2013-10-26 21:55:00,55.0,28.6,29.67,WSW,247,22.0,22.0,36,0.00,,,0.01,VWS V14.01,2013-10-27 01:55:00,
2013-10-26 21:56:00,55.0,27.9,29.67,West,270,13.0,22.0,36,0.00,,,0.01,VWS V14.01,2013-10-27 01:56:00,
2013-10-26 21:57:00,55.0,32.3,29.67,WSW,247,13.0,26.0,42,0.00,,,0.01,VWS V15.00,2013-10-27 01:57:00,
2013-10-26 21:58:00,55.0,29.4,29.66,WSW,247,10.0,22.0,36,0.00,,,0.01,VWS V14.01,2013-10-27 01:58:00,
2013-10-26 21:59:00,55.0,32.3,29.67,WSW,247,16.0,26.0,42,0.00,,,0.01,VWS V15.00,2013-10-27 01:59:00,
2013-10-26 22:00:00,55.0,30.1,29.66,WSW,247,16.0,22.0,36,0.00,,,0.01,VWS V14.01,2013-10-27 02:00:00,
2013-10-26 22:01:00,55.0,31.8,29.67,SSW,202,11.0,18.0,42,0.00,,,0.01,VWS V15.00,2013-10-27 02:01:00,
2013-10-26 22:02:00,56.0,29.2,29.66,WSW,247,12.0,22.0,36,0.00,,,0.01,VWS V14.01,2013-10-27 02:02:00,
2013-10-26 22:03:00,55.0,30.1,29.66,WSW,247,17.0,22.0,37,0.00,,,0.01,VWS V14.01,2013-10-27 02:03:00,
2013-10-26 22:04:00,56.0,30.1,29.66,WSW,247,16.0,22.0,37,0.00,,,0.01,VWS V14.01,2013-10-27 02:04:00,
2013-10-26 22:05:00,56.0,30.1,29.66,WSW,247,10.0,19.0,37,0.00,,,0.01,VWS V14.01,2013-10-27 02:05:00,
2013-10-26 22:06:00,55.0,31.8,29.67,WSW,247,29.0,29.0,41,0.00,,,0.01,VWS V15.00,2013-10-27 02:06:00,
2013-10-26 22:07:00,56.0,28.6,29.66,SW,225,12.0,19.0,37,0.00,,,0.01,VWS V14.01,2013-10-27 02:07:00,
2013-10-26 22:08:00,55.0,31.8,29.66,WSW,247,20.0,29.0,41,0.00,,,0.01,VWS V15.00,2013-10-27 02:08:00,
2013-10-26 22:09:00,56.0,29.2,29.66,SW,225,15.0,17.0,36,0.00,,,0.01,VWS V14.01,2013-10-27 02:09:00,
2013-10-26 22:10:00,55.0,29.4,29.66,SW,225,15.0,17.0,37,0.00,,,0.01,VWS V14.01,2013-10-27 02:10:00,
2013-10-26 22:11:00,56.0,29.4,29.66,SW,225,14.0,17.0,36,0.00,,,0.01,VWS V14.01,2013-10-27 02:11:00,
2013-10-26 22:12:00,56.0,29.4,29.66,SW,225,12.0,17.0,36,0.00,,,0.01,VWS V14.01,2013-10-27 02:12:00,
2013-10-26 22:13:00,55.0,30.5,29.66,SSW,202,24.0,29.0,39,0.00,,,0.01,VWS V15.00,2013-10-27 02:13:00,
2013-10-26 22:14:00,56.0,28.6,29.66,WSW,247,9.0,16.0,37,0.00,,,0.01,VWS V14.01,2013-10-27 02:14:00,
2013-10-26 22:15:00,55.0,28.6,29.66,WSW,247,11.0,16.0,36,0.00,,,0.01,VWS V14.01,2013-10-27 02:15:00,
2013-10-26 22:16:00,55.0,30.1,29.66,West,270,15.0,15.0,36,0.00,,,0.01,VWS V14.01,2013-10-27 02:16:00,
2013-10-26 22:17:00,55.0,29.2,29.67,WSW,247,15.0,24.0,37,0.00,,,0.01,VWS V15.00,2013-10-27 02:17:00,
2013-10-26 22:18:00,56.0,29.4,29.66,WSW,247,11.0,15.0,37,0.00,,,0.01,VWS V14.01,2013-10-27 02:18:00,
2013-10-26 22:19:00,55.0,29.2,29.67,WSW,247,17.0,24.0,37,0.00,,,0.01,VWS V15.00,2013-10-27 02:19:00,
2013-10-26 22:20:00,56.0,28.6,29.66,WSW,247,10.0,15.0,36,0.00,,,0.01,VWS V14.01,2013-10-27 02:20:00,
2013-10-26 22:21:00,55.0,28.6,29.66,WSW,247,11.0,15.0,36,0.00,,,0.01,VWS V14.01,2013-10-27 02:21:00,
2013-10-26 22:22:00,55.0,29.2,29.66,WSW,247,11.0,15.0,36,0.00,,,0.01,VWS V14.01,2013-10-27 02:22:00,
2013-10-26 22:23:00,55.0,29.2,29.67,WSW,247,13.0,21.0,37,0.00,,,0.01,VWS V15.00,2013-10-27 02:23:00,
2013-10-26 22:24:00,55.0,29.2,29.67,SSW,202,23.0,23.0,37,0.00,,,0.01,VWS V15.00,2013-10-27 02:24:00,
2013-10-26 22:25:00,55.0,28.6,29.66,WSW,247,8.0,15.0,36,0.00,,,0.01,VWS V14.01,2013-10-27 02:25:00,
2013-10-26 22:26:00,55.0,28.6,29.66,WSW,247,10.0,13.0,36,0.00,,,0.01,VWS V14.01,2013-10-27 02:26:00,
2013-10-26 22:27:00,55.0,28.6,29.66,WSW,247,16.0,16.0,36,0.00,,,0.01,VWS V14.01,2013-10-27 02:27:00,
2013-10-26 22:28:00,56.0,30.1,29.66,SW,225,16.0,24.0,37,0.00,,,0.01,VWS V15.00,2013-10-27 02:28:00,
2013-10-26 22:29:00,56.0,28.6,29.66,SW,225,14.0,24.0,37,0.00,,,0.01,VWS V15.00,2013-10-27 02:29:00,
2013-10-26 22:30:00,55.0,28.6,29.66,SW,225,13.0,24.0,36,0.00,,,0.01,VWS V15.00,2013-10-27 02:30:00,
2013-10-26 22:31:00,55.0,28.6,29.66,WSW,247,15.0,16.0,36,0.00,,,0.01,VWS V14.01,2013-10-27 02:31:00,
2013-10-26 22:32:00,55.0,28.6,29.66,WSW,247,10.0,16.0,36,0.00,,,0.01,VWS V14.01,2013-10-27 02:32:00,
2013-10-26 22:33:00,55.0,28.6,29.66,WSW,247,12.0,16.0,36,0.00,,,0.01,VWS V14.01,2013-10-27 02:33:00,
2013-10-26 22:34:00,55.0,27.9,29.66,SW,225,16.0,24.0,36,0.00,,,0.01,VWS V15.00,2013-10-27 02:34:00,
2013-10-26 22:35:00,55.0,28.6,29.66,WSW,247,12.0,16.0,36,0.00,,,0.01,VWS V14.01,2013-10-27 02:35:00,
2013-10-26 22:36:00,55.0,27.9,29.66,SW,225,15.0,16.0,35,0.00,,,0.01,VWS V15.00,2013-10-27 02:36:00,
2013-10-26 22:37:00,55.0,28.6,29.66,WSW,247,9.0,15.0,36,0.00,,,0.01,VWS V14.01,2013-10-27 02:37:00,
2013-10-26 22:38:00,55.0,28.6,29.67,WSW,247,11.0,16.0,36,0.00,,,0.01,VWS V15.00,2013-10-27 02:38:00,
2013-10-26 22:39:00,55.0,28.6,29.65,WSW,247,13.0,15.0,36,0.00,,,0.01,VWS V14.01,2013-10-27 02:39:00,
2013-10-26 22:40:00,55.0,28.6,29.67,WSW,247,16.0,16.0,36,0.00,,,0.01,VWS V15.00,2013-10-27 02:40:00,
2013-10-26 22:41:00,55.0,28.6,29.65,WSW,247,11.0,13.0,36,0.00,,,0.01,VWS V14.01,2013-10-27 02:41:00,
2013-10-26 22:42:00,55.0,28.6,29.65,WSW,247,11.0,13.0,36,0.00,,,0.01,VWS V14.01,2013-10-27 02:42:00,
2013-10-26 22:43:00,55.0,27.9,29.67,SW,225,15.0,20.0,36,0.00,,,0.01,VWS V15.00,2013-10-27 02:43:00,
2013-10-26 22:44:00,55.0,27.9,29.65,WSW,247,12.0,13.0,36,0.00,,,0.01,VWS V14.01,2013-10-27 02:44:00,
2013-10-26 22:45:00,55.0,27.9,29.67,WSW,247,15.0,20.0,36,0.00,,,0.01,VWS V15.00,2013-10-27 02:45:00,
2013-10-26 22:46:00,55.0,28.6,29.65,WSW,247,10.0,13.0,36,0.00,,,0.01,VWS V14.01,2013-10-27 02:46:00,
2013-10-26 22:47:00,55.0,28.6,29.65,WNW,292,9.0,13.0,36,0.00,,,0.01,VWS V14.01,2013-10-27 02:47:00,
2013-10-26 22:48:00,55.0,28.6,29.67,SW,225,14.0,20.0,35,0.00,,,0.01,VWS V15.00,2013-10-27 02:48:00,
2013-10-26 22:49:00,55.0,29.2,29.65,WSW,247,17.0,17.0,37,0.00,,,0.01,VWS V14.01,2013-10-27 02:49:00,
2013-10-26 22:50:00,55.0,28.6,29.67,WSW,247,11.0,20.0,35,0.00,,,0.01,VWS V15.00,2013-10-27 02:50:00,
2013-10-26 22:51:00,55.0,28.6,29.65,WSW,247,13.0,17.0,36,0.00,,,0.01,VWS V14.01,2013-10-27 02:51:00,
2013-10-26 22:52:00,55.0,27.9,29.65,WSW,247,11.0,17.0,36,0.00,,,0.01,VWS V14.01,2013-10-27 02:52:00,
2013-10-26 22:53:00,55.0,28.6,29.67,WSW,247,20.0,20.0,35,0.00,,,0.01,VWS V15.00,2013-10-27 02:53:00,
2013-10-26 22:54:00,55.0,28.6,29.65,West,270,13.0,17.0,36,0.00,,,0.01,VWS V14.01,2013-10-27 02:54:00,
2013-10-26 22:55:00,55.0,27.9,29.67,West,270,13.0,22.0,36,0.00,,,0.01,VWS V15.00,2013-10-27 02:55:00,
2013-10-26 22:56:00,55.0,28.6,29.67,SW,225,9.0,22.0,35,0.00,,,0.01,VWS V15.00,2013-10-27 02:56:00,
2013-10-26 22:57:00,55.0,27.9,29.65,WSW,247,5.0,17.0,36,0.00,,,0.01,VWS V14.01,2013-10-27 02:57:00,
2013-10-26 22:58:00,55.0,28.6,29.65,WSW,247,8.0,17.0,35,0.00,,,0.01,VWS V14.01,2013-10-27 02:58:00,
2013-10-26 22:59:00,55.0,28.6,29.65,WSW,247,10.0,13.0,36,0.00,,,0.01,VWS V14.01,2013-10-27 02:59:00,
2013-10-26 23:00:00,56.0,29.4,29.66,WSW,247,10.0,22.0,37,0.00,,,0.01,VWS V15.00,2013-10-27 03:00:00,
2013-10-26 23:01:00,56.0,29.2,29.66,WSW,247,12.0,22.0,36,0.00,,,0.01,VWS V15.00,2013-10-27 03:01:00,
2013-10-26 23:02:00,55.0,27.9,29.65,West,270,10.0,13.0,35,0.00,,,0.01,VWS V14.01,2013-10-27 03:02:00,
2013-10-26 23:03:00,55.0,27.9,29.65,WSW,247,8.0,13.0,35,0.00,,,0.01,VWS V14.01,2013-10-27 03:03:00,
2013-10-26 23:04:00,55.0,27.9,29.65,West,270,12.0,13.0,35,0.00,,,0.01,VWS V14.01,2013-10-27 03:04:00,
2013-10-26 23:05:00,55.0,27.9,29.65,West,270,8.0,12.0,36,0.00,,,0.01,VWS V14.01,2013-10-27 03:05:00,
2013-10-26 23:06:00,56.0,28.6,29.66,SW,225,12.0,19.0,37,0.00,,,0.01,VWS V15.00,2013-10-27 03:06:00,
2013-10-26 23:07:00,55.0,29.4,29.66,SW,225,10.0,19.0,36,0.00,,,0.01,VWS V15.00,2013-10-27 03:07:00,
2013-10-26 23:08:00,55.0,28.6,29.64,WSW,247,12.0,12.0,35,0.00,,,0.01,VWS V14.01,2013-10-27 03:08:00,
2013-10-26 23:09:00,55.0,28.6,29.64,WSW,247,9.0,12.0,36,0.00,,,0.01,VWS V14.01,2013-10-27 03:09:00,
2013-10-26 23:10:00,56.0,29.4,29.66,SW,225,14.0,17.0,36,0.00,,,0.01,VWS V15.00,2013-10-27 03:10:00,
2013-10-26 23:11:00,56.0,29.4,29.66,SW,225,12.0,17.0,36,0.00,,,0.01,VWS V15.00,2013-10-27 03:11:00,
2013-10-26 23:12:00,55.0,28.6,29.64,West,270,10.0,12.0,36,0.00,,,0.01,VWS V14.01,2013-10-27 03:12:00,
2013-10-26 23:13:00,55.0,28.6,29.64,WSW,247,8.0,12.0,36,0.00,,,0.01,VWS V14.01,2013-10-27 03:13:00,
2013-10-26 23:14:00,55.0,28.6,29.64,West,270,12.0,12.0,36,0.00,,,0.01,VWS V14.01,2013-10-27 03:14:00,
2013-10-26 23:15:00,55.0,28.6,29.64,WSW,247,10.0,12.0,36,0.00,,,0.01,VWS V14.01,2013-10-27 03:15:00,
2013-10-26 23:16:00,55.0,28.6,29.64,West,270,9.0,12.0,36,0.00,,,0.01,VWS V14.01,2013-10-27 03:16:00,
2013-10-26 23:17:00,55.0,28.6,29.64,WSW,247,11.0,12.0,36,0.00,,,0.01,VWS V14.01,2013-10-27 03:17:00,
2013-10-26 23:18:00,56.0,29.4,29.66,West,270,8.0,15.0,36,0.00,,,0.01,VWS V15.00,2013-10-27 03:18:00,
2013-10-26 23:19:00,55.0,28.6,29.64,West,270,16.0,16.0,36,0.00,,,0.01,VWS V14.01,2013-10-27 03:19:00,
2013-10-26 23:20:00,55.0,28.6,29.66,WSW,247,11.0,15.0,36,0.00,,,0.01,VWS V15.00,2013-10-27 03:20:00,
2013-10-26 23:21:00,55.0,28.6,29.64,West,270,10.0,16.0,36,0.00,,,0.01,VWS V14.01,2013-10-27 03:21:00,
2013-10-26 23:22:00,55.0,29.2,29.64,West,270,9.0,16.0,36,0.00,,,0.01,VWS V14.01,2013-10-27 03:22:00,
2013-10-26 23:23:00,55.0,28.6,29.64,West,270,9.0,16.0,37,0.00,,,0.01,VWS V14.01,2013-10-27 03:23:00,
2013-10-26 23:24:00,55.0,28.6,29.66,WSW,247,8.0,15.0,36,0.00,,,0.01,VWS V15.00,2013-10-27 03:24:00,
2013-10-26 23:25:00,55.0,28.6,29.64,WSW,247,7.0,16.0,36,0.00,,,0.01,VWS V14.01,2013-10-27 03:25:00,
2013-10-26 23:26:00,55.0,27.7,29.64,WNW,292,9.0,16.0,36,0.00,,,0.01,VWS V14.01,2013-10-27 03:26:00,
2013-10-26 23:27:00,54.0,27.7,29.64,West,270,10.0,16.0,36,0.00,,,0.01,VWS V14.01,2013-10-27 03:27:00,
2013-10-26 23:28:00,54.0,28.6,29.64,West,270,9.0,16.0,36,0.00,,,0.01,VWS V14.01,2013-10-27 03:28:00,
2013-10-26 23:29:00,55.0,28.6,29.66,West,270,13.0,16.0,36,0.00,,,0.01,VWS V15.00,2013-10-27 03:29:00,
2013-10-26 23:30:00,54.0,28.3,29.64,WSW,247,9.0,14.0,37,0.00,,,0.01,VWS V14.01,2013-10-27 03:30:00,
2013-10-26 23:31:00,55.0,28.6,29.66,WSW,247,10.0,16.0,36,0.00,,,0.01,VWS V15.00,2013-10-27 03:31:00,
2013-10-26 23:32:00,55.0,28.6,29.66,West,270,13.0,16.0,36,0.00,,,0.01,VWS V15.00,2013-10-27 03:32:00,
2013-10-26 23:33:00,54.0,27.7,29.64,WNW,292,9.0,14.0,36,0.00,,,0.01,VWS V14.01,2013-10-27 03:33:00,
2013-10-26 23:34:00,54.0,28.3,29.64,West,270,7.0,10.0,36,0.00,,,0.01,VWS V14.01,2013-10-27 03:34:00,
2013-10-26 23:35:00,54.0,28.3,29.64,West,270,9.0,10.0,37,0.00,,,0.01,VWS V14.01,2013-10-27 03:35:00,
2013-10-26 23:36:00,55.0,28.6,29.66,WSW,247,9.0,15.0,36,0.00,,,0.01,VWS V15.00,2013-10-27 03:36:00,
2013-10-26 23:37:00,54.0,28.3,29.64,West,270,10.0,10.0,36,0.00,,,0.01,VWS V14.01,2013-10-27 03:37:00,
2013-10-26 23:38:00,55.0,28.6,29.65,WSW,247,13.0,15.0,36,0.00,,,0.01,VWS V15.00,2013-10-27 03:38:00,
2013-10-26 23:39:00,54.0,28.3,29.64,West,270,9.0,10.0,37,0.00,,,0.01,VWS V14.01,2013-10-27 03:39:00,
2013-10-26 23:40:00,54.0,28.3,29.64,West,270,9.0,10.0,37,0.00,,,0.01,VWS V14.01,2013-10-27 03:40:00,
2013-10-26 23:41:00,54.0,28.3,29.64,WSW,247,9.0,10.0,37,0.00,,,0.01,VWS V14.01,2013-10-27 03:41:00,
2013-10-26 23:42:00,54.0,27.7,29.64,WSW,247,7.0,10.0,37,0.00,,,0.01,VWS V14.01,2013-10-27 03:42:00,
2013-10-26 23:43:00,54.0,28.3,29.64,WNW,292,10.0,10.0,36,0.00,,,0.01,VWS V14.01,2013-10-27 03:43:00,
2013-10-26 23:44:00,54.0,28.3,29.64,West,270,9.0,10.0,37,0.00,,,0.01,VWS V14.01,2013-10-27 03:44:00,
2013-10-26 23:45:00,55.0,28.6,29.65,WSW,247,10.0,13.0,36,0.00,,,0.01,VWS V15.00,2013-10-27 03:45:00,
2013-10-26 23:46:00,54.0,28.3,29.64,WSW,247,8.0,10.0,37,0.00,,,0.01,VWS V14.01,2013-10-27 03:46:00,
2013-10-26 23:47:00,54.0,28.3,29.64,WNW,292,7.0,10.0,37,0.00,,,0.01,VWS V14.01,2013-10-27 03:47:00,
2013-10-26 23:48:00,55.0,29.2,29.65,WSW,247,17.0,17.0,37,0.00,,,0.01,VWS V15.00,2013-10-27 03:48:00,
2013-10-26 23:49:00,54.0,28.3,29.63,West,270,10.0,10.0,37,0.00,,,0.01,VWS V14.01,2013-10-27 03:49:00,
2013-10-26 23:50:00,55.0,28.6,29.65,WSW,247,13.0,17.0,36,0.00,,,0.01,VWS V15.00,2013-10-27 03:50:00,
2013-10-26 23:51:00,54.0,28.3,29.63,West,270,7.0,10.0,37,0.00,,,0.01,VWS V14.01,2013-10-27 03:51:00,
2013-10-26 23:52:00,54.0,28.3,29.63,West,270,9.0,10.0,37,0.00,,,0.01,VWS V14.01,2013-10-27 03:52:00,
2013-10-26 23:53:00,55.0,28.6,29.65,West,270,13.0,17.0,36,0.00,,,0.01,VWS V15.00,2013-10-27 03:53:00,
2013-10-26 23:54:00,54.0,28.3,29.63,WNW,292,8.0,10.0,37,0.00,,,0.01,VWS V14.01,2013-10-27 03:54:00,
2013-10-26 23:55:00,54.0,28.3,29.63,WNW,292,8.0,10.0,37,0.00,,,0.01,VWS V14.01,2013-10-27 03:55:00,
2013-10-26 23:56:00,54.0,28.3,29.63,West,270,9.0,10.0,37,0.00,,,0.01,VWS V14.01,2013-10-27 03:56:00,
2013-10-26 23:57:00,54.0,28.3,29.63,WSW,247,7.0,10.0,37,0.00,,,0.01,VWS V14.01,2013-10-27 03:57:00,
2013-10-26 23:58:00,55.0,28.6,29.65,WSW,247,10.0,13.0,36,0.00,,,0.01,VWS V15.00,2013-10-27 03:58:00,
2013-10-26 23:59:00,54.0,28.3,29.63,West,270,9.0,9.0,37,0.00,,,0.01,VWS V14.01,2013-10-27 03:59:00,